<?xml version="1.0" encoding="UTF-8" standalone="no" ?>
<gpx xmlns="http://www.topografix.com/GPX/1/1" xmlns:xsi="http://www.w3.org/2001/XMLSchema-instance" xsi:schemaLocation="http://www.topografix.com/GPX/1/1 http://www.topografix.com/GPX/1/1/gpx.xsd" version="1.1" creator="VisuGPX - https://www.visugpx.com">
  <metadata>
    <name>Ollieres - Pourrieres</name>
    <desc><![CDATA[parcours tres facile entre Ollieres et Pourrieres]]></desc>
  </metadata>
  <trk>
    <name><![CDATA[20190120115537-swCg4]]></name>
    <trkseg>
      <trkpt lat="43.48292" lon="5.82693">
        <ele>286.97</ele>
        <time>2019-01-19T07:00:30Z</time>
      </trkpt>
      <trkpt lat="43.48285" lon="5.8267">
        <ele>277.74</ele>
        <time>2019-01-19T07:04:32Z</time>
      </trkpt>
      <trkpt lat="43.48273" lon="5.82646">
        <ele>278.34</ele>
        <time>2019-01-19T07:04:38Z</time>
      </trkpt>
      <trkpt lat="43.48271" lon="5.82619">
        <ele>280.51</ele>
        <time>2019-01-19T07:04:46Z</time>
      </trkpt>
      <trkpt lat="43.48264" lon="5.82596">
        <ele>282.14</ele>
        <time>2019-01-19T07:04:56Z</time>
      </trkpt>
      <trkpt lat="43.48279" lon="5.82578">
        <ele>282.74</ele>
        <time>2019-01-19T07:05:12Z</time>
      </trkpt>
      <trkpt lat="43.48291" lon="5.82559">
        <ele>284.4</ele>
        <time>2019-01-19T07:05:18Z</time>
      </trkpt>
      <trkpt lat="43.48306" lon="5.8254">
        <ele>285.42</ele>
        <time>2019-01-19T07:05:24Z</time>
      </trkpt>
      <trkpt lat="43.48319" lon="5.82521">
        <ele>287.31</ele>
        <time>2019-01-19T07:05:30Z</time>
      </trkpt>
      <trkpt lat="43.48329" lon="5.82498">
        <ele>288.49</ele>
        <time>2019-01-19T07:05:36Z</time>
      </trkpt>
      <trkpt lat="43.48334" lon="5.82473">
        <ele>289.82</ele>
        <time>2019-01-19T07:05:41Z</time>
      </trkpt>
      <trkpt lat="43.48335" lon="5.82443">
        <ele>290.94</ele>
        <time>2019-01-19T07:05:47Z</time>
      </trkpt>
      <trkpt lat="43.48337" lon="5.82418">
        <ele>291.35</ele>
        <time>2019-01-19T07:05:52Z</time>
      </trkpt>
      <trkpt lat="43.48338" lon="5.82392">
        <ele>292.34</ele>
        <time>2019-01-19T07:05:58Z</time>
      </trkpt>
      <trkpt lat="43.48341" lon="5.82365">
        <ele>295.06</ele>
        <time>2019-01-19T07:06:05Z</time>
      </trkpt>
      <trkpt lat="43.48348" lon="5.82339">
        <ele>296.86</ele>
        <time>2019-01-19T07:06:12Z</time>
      </trkpt>
      <trkpt lat="43.48339" lon="5.82317">
        <ele>298.17</ele>
        <time>2019-01-19T07:06:19Z</time>
      </trkpt>
      <trkpt lat="43.48332" lon="5.82291">
        <ele>298.42</ele>
        <time>2019-01-19T07:06:23Z</time>
      </trkpt>
      <trkpt lat="43.48332" lon="5.82264">
        <ele>298.87</ele>
        <time>2019-01-19T07:06:29Z</time>
      </trkpt>
      <trkpt lat="43.48329" lon="5.82238">
        <ele>299.08</ele>
        <time>2019-01-19T07:06:36Z</time>
      </trkpt>
      <trkpt lat="43.48329" lon="5.82212">
        <ele>299.96</ele>
        <time>2019-01-19T07:06:44Z</time>
      </trkpt>
      <trkpt lat="43.48329" lon="5.82185">
        <ele>300.54</ele>
        <time>2019-01-19T07:06:52Z</time>
      </trkpt>
      <trkpt lat="43.48326" lon="5.82159">
        <ele>299.69</ele>
        <time>2019-01-19T07:07:01Z</time>
      </trkpt>
      <trkpt lat="43.48326" lon="5.82134">
        <ele>297.58</ele>
        <time>2019-01-19T07:07:07Z</time>
      </trkpt>
      <trkpt lat="43.48324" lon="5.82109">
        <ele>297.91</ele>
        <time>2019-01-19T07:07:15Z</time>
      </trkpt>
      <trkpt lat="43.48323" lon="5.82081">
        <ele>295.82</ele>
        <time>2019-01-19T07:07:23Z</time>
      </trkpt>
      <trkpt lat="43.48325" lon="5.82054">
        <ele>295.71</ele>
        <time>2019-01-19T07:07:32Z</time>
      </trkpt>
      <trkpt lat="43.48328" lon="5.82028">
        <ele>296.76</ele>
        <time>2019-01-19T07:07:42Z</time>
      </trkpt>
      <trkpt lat="43.48331" lon="5.82002">
        <ele>297.55</ele>
        <time>2019-01-19T07:07:52Z</time>
      </trkpt>
      <trkpt lat="43.48333" lon="5.81976">
        <ele>300.28</ele>
        <time>2019-01-19T07:08:05Z</time>
      </trkpt>
      <trkpt lat="43.48338" lon="5.81952">
        <ele>297.45</ele>
        <time>2019-01-19T07:09:49Z</time>
      </trkpt>
      <trkpt lat="43.48342" lon="5.81926">
        <ele>298.14</ele>
        <time>2019-01-19T07:09:59Z</time>
      </trkpt>
      <trkpt lat="43.48345" lon="5.81899">
        <ele>300.08</ele>
        <time>2019-01-19T07:10:09Z</time>
      </trkpt>
      <trkpt lat="43.48351" lon="5.81871">
        <ele>299.86</ele>
        <time>2019-01-19T07:10:18Z</time>
      </trkpt>
      <trkpt lat="43.48356" lon="5.81847">
        <ele>299.68</ele>
        <time>2019-01-19T07:10:25Z</time>
      </trkpt>
      <trkpt lat="43.48361" lon="5.8182">
        <ele>300.98</ele>
        <time>2019-01-19T07:10:32Z</time>
      </trkpt>
      <trkpt lat="43.48366" lon="5.81792">
        <ele>302.81</ele>
        <time>2019-01-19T07:10:39Z</time>
      </trkpt>
      <trkpt lat="43.48371" lon="5.81767">
        <ele>304.31</ele>
        <time>2019-01-19T07:10:48Z</time>
      </trkpt>
      <trkpt lat="43.48375" lon="5.81743">
        <ele>305.6</ele>
        <time>2019-01-19T07:10:55Z</time>
      </trkpt>
      <trkpt lat="43.4838" lon="5.81716">
        <ele>306.47</ele>
        <time>2019-01-19T07:11:17Z</time>
      </trkpt>
      <trkpt lat="43.48381" lon="5.81689">
        <ele>306.36</ele>
        <time>2019-01-19T07:11:29Z</time>
      </trkpt>
      <trkpt lat="43.48387" lon="5.81665">
        <ele>305.2</ele>
        <time>2019-01-19T07:11:36Z</time>
      </trkpt>
      <trkpt lat="43.48392" lon="5.81641">
        <ele>303.14</ele>
        <time>2019-01-19T07:11:42Z</time>
      </trkpt>
      <trkpt lat="43.48397" lon="5.81615">
        <ele>301.68</ele>
        <time>2019-01-19T07:11:48Z</time>
      </trkpt>
      <trkpt lat="43.48402" lon="5.81589">
        <ele>300.92</ele>
        <time>2019-01-19T07:11:54Z</time>
      </trkpt>
      <trkpt lat="43.48407" lon="5.81562">
        <ele>300.37</ele>
        <time>2019-01-19T07:12:00Z</time>
      </trkpt>
      <trkpt lat="43.48412" lon="5.81537">
        <ele>300.17</ele>
        <time>2019-01-19T07:12:06Z</time>
      </trkpt>
      <trkpt lat="43.48418" lon="5.8151">
        <ele>300.44</ele>
        <time>2019-01-19T07:12:13Z</time>
      </trkpt>
      <trkpt lat="43.48426" lon="5.81487">
        <ele>301.32</ele>
        <time>2019-01-19T07:12:20Z</time>
      </trkpt>
      <trkpt lat="43.48436" lon="5.81466">
        <ele>301.68</ele>
        <time>2019-01-19T07:12:27Z</time>
      </trkpt>
      <trkpt lat="43.48447" lon="5.81442">
        <ele>301.49</ele>
        <time>2019-01-19T07:12:34Z</time>
      </trkpt>
      <trkpt lat="43.48457" lon="5.81421">
        <ele>301.11</ele>
        <time>2019-01-19T07:12:40Z</time>
      </trkpt>
      <trkpt lat="43.48467" lon="5.814">
        <ele>301.28</ele>
        <time>2019-01-19T07:12:46Z</time>
      </trkpt>
      <trkpt lat="43.48477" lon="5.81376">
        <ele>301.83</ele>
        <time>2019-01-19T07:12:53Z</time>
      </trkpt>
      <trkpt lat="43.48486" lon="5.81352">
        <ele>302.46</ele>
        <time>2019-01-19T07:13:00Z</time>
      </trkpt>
      <trkpt lat="43.48494" lon="5.81327">
        <ele>302.81</ele>
        <time>2019-01-19T07:13:07Z</time>
      </trkpt>
      <trkpt lat="43.48501" lon="5.81303">
        <ele>303.95</ele>
        <time>2019-01-19T07:13:14Z</time>
      </trkpt>
      <trkpt lat="43.48507" lon="5.81277">
        <ele>304.7</ele>
        <time>2019-01-19T07:13:21Z</time>
      </trkpt>
      <trkpt lat="43.48511" lon="5.81249">
        <ele>305.27</ele>
        <time>2019-01-19T07:13:29Z</time>
      </trkpt>
      <trkpt lat="43.48515" lon="5.81222">
        <ele>305.03</ele>
        <time>2019-01-19T07:13:36Z</time>
      </trkpt>
      <trkpt lat="43.48517" lon="5.81195">
        <ele>305.92</ele>
        <time>2019-01-19T07:13:43Z</time>
      </trkpt>
      <trkpt lat="43.48518" lon="5.81168">
        <ele>306.34</ele>
        <time>2019-01-19T07:13:50Z</time>
      </trkpt>
      <trkpt lat="43.48519" lon="5.81142">
        <ele>307.03</ele>
        <time>2019-01-19T07:13:57Z</time>
      </trkpt>
      <trkpt lat="43.48521" lon="5.81117">
        <ele>308.08</ele>
        <time>2019-01-19T07:14:04Z</time>
      </trkpt>
      <trkpt lat="43.48522" lon="5.8109">
        <ele>309.2</ele>
        <time>2019-01-19T07:14:12Z</time>
      </trkpt>
      <trkpt lat="43.48523" lon="5.81064">
        <ele>311.79</ele>
        <time>2019-01-19T07:14:20Z</time>
      </trkpt>
      <trkpt lat="43.48526" lon="5.81037">
        <ele>312.98</ele>
        <time>2019-01-19T07:14:28Z</time>
      </trkpt>
      <trkpt lat="43.48529" lon="5.81012">
        <ele>315.02</ele>
        <time>2019-01-19T07:14:36Z</time>
      </trkpt>
      <trkpt lat="43.48529" lon="5.80987">
        <ele>315.66</ele>
        <time>2019-01-19T07:14:44Z</time>
      </trkpt>
      <trkpt lat="43.48529" lon="5.80961">
        <ele>317.1</ele>
        <time>2019-01-19T07:14:55Z</time>
      </trkpt>
      <trkpt lat="43.4853" lon="5.80934">
        <ele>319.92</ele>
        <time>2019-01-19T07:15:06Z</time>
      </trkpt>
      <trkpt lat="43.48537" lon="5.80911">
        <ele>322.89</ele>
        <time>2019-01-19T07:15:18Z</time>
      </trkpt>
      <trkpt lat="43.48546" lon="5.80889">
        <ele>324.22</ele>
        <time>2019-01-19T07:15:29Z</time>
      </trkpt>
      <trkpt lat="43.48557" lon="5.80869">
        <ele>326.89</ele>
        <time>2019-01-19T07:15:41Z</time>
      </trkpt>
      <trkpt lat="43.48574" lon="5.80859">
        <ele>328.94</ele>
        <time>2019-01-19T07:15:51Z</time>
      </trkpt>
      <trkpt lat="43.48578" lon="5.80834">
        <ele>330.24</ele>
        <time>2019-01-19T07:16:05Z</time>
      </trkpt>
      <trkpt lat="43.48592" lon="5.80818">
        <ele>332.38</ele>
        <time>2019-01-19T07:16:20Z</time>
      </trkpt>
      <trkpt lat="43.4861" lon="5.80809">
        <ele>338.35</ele>
        <time>2019-01-19T07:16:34Z</time>
      </trkpt>
      <trkpt lat="43.48626" lon="5.808">
        <ele>343.78</ele>
        <time>2019-01-19T07:16:47Z</time>
      </trkpt>
      <trkpt lat="43.48642" lon="5.80787">
        <ele>347.5</ele>
        <time>2019-01-19T07:16:59Z</time>
      </trkpt>
      <trkpt lat="43.48658" lon="5.80772">
        <ele>350.13</ele>
        <time>2019-01-19T07:17:11Z</time>
      </trkpt>
      <trkpt lat="43.48671" lon="5.80755">
        <ele>351.92</ele>
        <time>2019-01-19T07:17:21Z</time>
      </trkpt>
      <trkpt lat="43.4868" lon="5.80733">
        <ele>352.82</ele>
        <time>2019-01-19T07:17:33Z</time>
      </trkpt>
      <trkpt lat="43.48686" lon="5.80708">
        <ele>354.92</ele>
        <time>2019-01-19T07:17:44Z</time>
      </trkpt>
      <trkpt lat="43.48688" lon="5.80682">
        <ele>355.27</ele>
        <time>2019-01-19T07:17:59Z</time>
      </trkpt>
      <trkpt lat="43.48693" lon="5.80655">
        <ele>355.37</ele>
        <time>2019-01-19T07:18:11Z</time>
      </trkpt>
      <trkpt lat="43.48697" lon="5.80629">
        <ele>355.55</ele>
        <time>2019-01-19T07:18:22Z</time>
      </trkpt>
      <trkpt lat="43.487" lon="5.80604">
        <ele>357.12</ele>
        <time>2019-01-19T07:18:34Z</time>
      </trkpt>
      <trkpt lat="43.48705" lon="5.80579">
        <ele>359.13</ele>
        <time>2019-01-19T07:18:44Z</time>
      </trkpt>
      <trkpt lat="43.48709" lon="5.80553">
        <ele>360.32</ele>
        <time>2019-01-19T07:18:55Z</time>
      </trkpt>
      <trkpt lat="43.48713" lon="5.80527">
        <ele>360.83</ele>
        <time>2019-01-19T07:19:05Z</time>
      </trkpt>
      <trkpt lat="43.48716" lon="5.80503">
        <ele>361.17</ele>
        <time>2019-01-19T07:19:14Z</time>
      </trkpt>
      <trkpt lat="43.48722" lon="5.80479">
        <ele>361.85</ele>
        <time>2019-01-19T07:19:24Z</time>
      </trkpt>
      <trkpt lat="43.48728" lon="5.80454">
        <ele>361.81</ele>
        <time>2019-01-19T07:19:33Z</time>
      </trkpt>
      <trkpt lat="43.48736" lon="5.80429">
        <ele>361.95</ele>
        <time>2019-01-19T07:19:42Z</time>
      </trkpt>
      <trkpt lat="43.48745" lon="5.80405">
        <ele>361.57</ele>
        <time>2019-01-19T07:19:51Z</time>
      </trkpt>
      <trkpt lat="43.48751" lon="5.80379">
        <ele>360.77</ele>
        <time>2019-01-19T07:20:01Z</time>
      </trkpt>
      <trkpt lat="43.48759" lon="5.80355">
        <ele>360.68</ele>
        <time>2019-01-19T07:20:09Z</time>
      </trkpt>
      <trkpt lat="43.48766" lon="5.8033">
        <ele>359.98</ele>
        <time>2019-01-19T07:20:17Z</time>
      </trkpt>
      <trkpt lat="43.48771" lon="5.80303">
        <ele>357.39</ele>
        <time>2019-01-19T07:20:25Z</time>
      </trkpt>
      <trkpt lat="43.48779" lon="5.80277">
        <ele>355.04</ele>
        <time>2019-01-19T07:20:32Z</time>
      </trkpt>
      <trkpt lat="43.48786" lon="5.80253">
        <ele>353.98</ele>
        <time>2019-01-19T07:20:37Z</time>
      </trkpt>
      <trkpt lat="43.48794" lon="5.8023">
        <ele>352.75</ele>
        <time>2019-01-19T07:20:41Z</time>
      </trkpt>
      <trkpt lat="43.48802" lon="5.80199">
        <ele>350.54</ele>
        <time>2019-01-19T07:20:45Z</time>
      </trkpt>
      <trkpt lat="43.48809" lon="5.80175">
        <ele>349.9</ele>
        <time>2019-01-19T07:20:48Z</time>
      </trkpt>
      <trkpt lat="43.48817" lon="5.8015">
        <ele>348.82</ele>
        <time>2019-01-19T07:20:52Z</time>
      </trkpt>
      <trkpt lat="43.48825" lon="5.80125">
        <ele>348.24</ele>
        <time>2019-01-19T07:20:57Z</time>
      </trkpt>
      <trkpt lat="43.48832" lon="5.80099">
        <ele>348.21</ele>
        <time>2019-01-19T07:21:02Z</time>
      </trkpt>
      <trkpt lat="43.4884" lon="5.80074">
        <ele>348.27</ele>
        <time>2019-01-19T07:21:07Z</time>
      </trkpt>
      <trkpt lat="43.48847" lon="5.80051">
        <ele>348.15</ele>
        <time>2019-01-19T07:21:12Z</time>
      </trkpt>
      <trkpt lat="43.48856" lon="5.80025">
        <ele>347.47</ele>
        <time>2019-01-19T07:21:17Z</time>
      </trkpt>
      <trkpt lat="43.48863" lon="5.8">
        <ele>347.78</ele>
        <time>2019-01-19T07:21:22Z</time>
      </trkpt>
      <trkpt lat="43.4887" lon="5.79974">
        <ele>349.45</ele>
        <time>2019-01-19T07:21:29Z</time>
      </trkpt>
      <trkpt lat="43.48878" lon="5.79951">
        <ele>350.46</ele>
        <time>2019-01-19T07:21:36Z</time>
      </trkpt>
      <trkpt lat="43.48886" lon="5.79925">
        <ele>351.44</ele>
        <time>2019-01-19T07:21:43Z</time>
      </trkpt>
      <trkpt lat="43.48893" lon="5.79898">
        <ele>353.31</ele>
        <time>2019-01-19T07:21:50Z</time>
      </trkpt>
      <trkpt lat="43.489" lon="5.79874">
        <ele>354.28</ele>
        <time>2019-01-19T07:21:56Z</time>
      </trkpt>
      <trkpt lat="43.48908" lon="5.79849">
        <ele>354.71</ele>
        <time>2019-01-19T07:22:03Z</time>
      </trkpt>
      <trkpt lat="43.48916" lon="5.79824">
        <ele>353.15</ele>
        <time>2019-01-19T07:22:11Z</time>
      </trkpt>
      <trkpt lat="43.48923" lon="5.79799">
        <ele>353.01</ele>
        <time>2019-01-19T07:22:17Z</time>
      </trkpt>
      <trkpt lat="43.48931" lon="5.79775">
        <ele>351.52</ele>
        <time>2019-01-19T07:22:23Z</time>
      </trkpt>
      <trkpt lat="43.4894" lon="5.7975">
        <ele>351.11</ele>
        <time>2019-01-19T07:22:30Z</time>
      </trkpt>
      <trkpt lat="43.48948" lon="5.79726">
        <ele>351.98</ele>
        <time>2019-01-19T07:22:37Z</time>
      </trkpt>
      <trkpt lat="43.48954" lon="5.797">
        <ele>353.29</ele>
        <time>2019-01-19T07:22:44Z</time>
      </trkpt>
      <trkpt lat="43.48961" lon="5.79675">
        <ele>355.68</ele>
        <time>2019-01-19T07:22:51Z</time>
      </trkpt>
      <trkpt lat="43.48968" lon="5.79651">
        <ele>356.81</ele>
        <time>2019-01-19T07:22:58Z</time>
      </trkpt>
      <trkpt lat="43.48979" lon="5.7963">
        <ele>356.62</ele>
        <time>2019-01-19T07:23:06Z</time>
      </trkpt>
      <trkpt lat="43.48996" lon="5.79618">
        <ele>355.45</ele>
        <time>2019-01-19T07:23:38Z</time>
      </trkpt>
      <trkpt lat="43.49016" lon="5.79613">
        <ele>357.45</ele>
        <time>2019-01-19T07:23:46Z</time>
      </trkpt>
      <trkpt lat="43.49035" lon="5.79608">
        <ele>360.07</ele>
        <time>2019-01-19T07:23:53Z</time>
      </trkpt>
      <trkpt lat="43.49053" lon="5.79601">
        <ele>359.98</ele>
        <time>2019-01-19T07:23:59Z</time>
      </trkpt>
      <trkpt lat="43.49073" lon="5.79594">
        <ele>360.89</ele>
        <time>2019-01-19T07:24:06Z</time>
      </trkpt>
      <trkpt lat="43.49092" lon="5.79587">
        <ele>362.14</ele>
        <time>2019-01-19T07:24:13Z</time>
      </trkpt>
      <trkpt lat="43.49109" lon="5.79579">
        <ele>362.17</ele>
        <time>2019-01-19T07:24:19Z</time>
      </trkpt>
      <trkpt lat="43.49127" lon="5.79572">
        <ele>362.25</ele>
        <time>2019-01-19T07:24:25Z</time>
      </trkpt>
      <trkpt lat="43.49144" lon="5.79565">
        <ele>364.03</ele>
        <time>2019-01-19T07:24:31Z</time>
      </trkpt>
      <trkpt lat="43.49162" lon="5.79558">
        <ele>365.53</ele>
        <time>2019-01-19T07:24:37Z</time>
      </trkpt>
      <trkpt lat="43.49181" lon="5.7955">
        <ele>365.56</ele>
        <time>2019-01-19T07:24:43Z</time>
      </trkpt>
      <trkpt lat="43.49199" lon="5.79544">
        <ele>365.96</ele>
        <time>2019-01-19T07:24:49Z</time>
      </trkpt>
      <trkpt lat="43.49216" lon="5.79535">
        <ele>365.77</ele>
        <time>2019-01-19T07:24:55Z</time>
      </trkpt>
      <trkpt lat="43.49233" lon="5.79526">
        <ele>368.28</ele>
        <time>2019-01-19T07:25:02Z</time>
      </trkpt>
      <trkpt lat="43.49251" lon="5.79513">
        <ele>370.59</ele>
        <time>2019-01-19T07:25:10Z</time>
      </trkpt>
      <trkpt lat="43.49267" lon="5.79501">
        <ele>373</ele>
        <time>2019-01-19T07:25:17Z</time>
      </trkpt>
      <trkpt lat="43.49282" lon="5.79486">
        <ele>375.17</ele>
        <time>2019-01-19T07:25:24Z</time>
      </trkpt>
      <trkpt lat="43.49298" lon="5.79471">
        <ele>379.89</ele>
        <time>2019-01-19T07:25:32Z</time>
      </trkpt>
      <trkpt lat="43.49315" lon="5.79457">
        <ele>382.11</ele>
        <time>2019-01-19T07:25:40Z</time>
      </trkpt>
      <trkpt lat="43.49332" lon="5.79441">
        <ele>383.48</ele>
        <time>2019-01-19T07:25:48Z</time>
      </trkpt>
      <trkpt lat="43.49347" lon="5.79427">
        <ele>384.37</ele>
        <time>2019-01-19T07:25:56Z</time>
      </trkpt>
      <trkpt lat="43.49364" lon="5.79417">
        <ele>386.69</ele>
        <time>2019-01-19T07:26:05Z</time>
      </trkpt>
      <trkpt lat="43.49381" lon="5.79406">
        <ele>388.02</ele>
        <time>2019-01-19T07:26:15Z</time>
      </trkpt>
      <trkpt lat="43.49399" lon="5.79395">
        <ele>386.43</ele>
        <time>2019-01-19T07:26:25Z</time>
      </trkpt>
      <trkpt lat="43.49417" lon="5.79386">
        <ele>386.75</ele>
        <time>2019-01-19T07:26:34Z</time>
      </trkpt>
      <trkpt lat="43.49435" lon="5.79381">
        <ele>387.54</ele>
        <time>2019-01-19T07:26:44Z</time>
      </trkpt>
      <trkpt lat="43.49454" lon="5.79375">
        <ele>388.1</ele>
        <time>2019-01-19T07:26:54Z</time>
      </trkpt>
      <trkpt lat="43.49472" lon="5.79368">
        <ele>388.43</ele>
        <time>2019-01-19T07:27:03Z</time>
      </trkpt>
      <trkpt lat="43.49489" lon="5.79361">
        <ele>389.57</ele>
        <time>2019-01-19T07:27:12Z</time>
      </trkpt>
      <trkpt lat="43.49507" lon="5.79352">
        <ele>389.57</ele>
        <time>2019-01-19T07:27:21Z</time>
      </trkpt>
      <trkpt lat="43.49523" lon="5.7934">
        <ele>388.97</ele>
        <time>2019-01-19T07:27:29Z</time>
      </trkpt>
      <trkpt lat="43.49538" lon="5.79325">
        <ele>387.5</ele>
        <time>2019-01-19T07:27:38Z</time>
      </trkpt>
      <trkpt lat="43.49552" lon="5.79309">
        <ele>386.2</ele>
        <time>2019-01-19T07:27:48Z</time>
      </trkpt>
      <trkpt lat="43.49565" lon="5.7929">
        <ele>386.09</ele>
        <time>2019-01-19T07:27:58Z</time>
      </trkpt>
      <trkpt lat="43.4958" lon="5.7927">
        <ele>385.81</ele>
        <time>2019-01-19T07:28:05Z</time>
      </trkpt>
      <trkpt lat="43.49597" lon="5.79255">
        <ele>384.3</ele>
        <time>2019-01-19T07:28:10Z</time>
      </trkpt>
      <trkpt lat="43.49614" lon="5.79244">
        <ele>383.05</ele>
        <time>2019-01-19T07:28:14Z</time>
      </trkpt>
      <trkpt lat="43.49633" lon="5.79232">
        <ele>381.28</ele>
        <time>2019-01-19T07:28:18Z</time>
      </trkpt>
      <trkpt lat="43.49653" lon="5.79224">
        <ele>380.64</ele>
        <time>2019-01-19T07:28:22Z</time>
      </trkpt>
      <trkpt lat="43.49671" lon="5.79217">
        <ele>379.88</ele>
        <time>2019-01-19T07:28:26Z</time>
      </trkpt>
      <trkpt lat="43.4969" lon="5.79209">
        <ele>380.34</ele>
        <time>2019-01-19T07:28:31Z</time>
      </trkpt>
      <trkpt lat="43.4971" lon="5.79201">
        <ele>382.69</ele>
        <time>2019-01-19T07:28:38Z</time>
      </trkpt>
      <trkpt lat="43.49727" lon="5.79189">
        <ele>387.01</ele>
        <time>2019-01-19T07:28:45Z</time>
      </trkpt>
      <trkpt lat="43.49745" lon="5.79177">
        <ele>389.38</ele>
        <time>2019-01-19T07:28:52Z</time>
      </trkpt>
      <trkpt lat="43.49762" lon="5.79166">
        <ele>390.87</ele>
        <time>2019-01-19T07:28:59Z</time>
      </trkpt>
      <trkpt lat="43.4978" lon="5.79157">
        <ele>390.39</ele>
        <time>2019-01-19T07:29:06Z</time>
      </trkpt>
      <trkpt lat="43.49798" lon="5.79148">
        <ele>389.1</ele>
        <time>2019-01-19T07:29:13Z</time>
      </trkpt>
      <trkpt lat="43.49817" lon="5.79139">
        <ele>388.37</ele>
        <time>2019-01-19T07:29:20Z</time>
      </trkpt>
      <trkpt lat="43.49836" lon="5.79131">
        <ele>388.67</ele>
        <time>2019-01-19T07:29:27Z</time>
      </trkpt>
      <trkpt lat="43.49855" lon="5.79124">
        <ele>388.51</ele>
        <time>2019-01-19T07:29:34Z</time>
      </trkpt>
      <trkpt lat="43.49874" lon="5.79115">
        <ele>388.92</ele>
        <time>2019-01-19T07:29:41Z</time>
      </trkpt>
      <trkpt lat="43.49892" lon="5.79106">
        <ele>388.67</ele>
        <time>2019-01-19T07:29:48Z</time>
      </trkpt>
      <trkpt lat="43.49911" lon="5.79098">
        <ele>388.17</ele>
        <time>2019-01-19T07:29:55Z</time>
      </trkpt>
      <trkpt lat="43.4993" lon="5.79093">
        <ele>387.28</ele>
        <time>2019-01-19T07:30:02Z</time>
      </trkpt>
      <trkpt lat="43.49948" lon="5.79088">
        <ele>387.3</ele>
        <time>2019-01-19T07:30:08Z</time>
      </trkpt>
      <trkpt lat="43.49967" lon="5.7908">
        <ele>385.76</ele>
        <time>2019-01-19T07:30:14Z</time>
      </trkpt>
      <trkpt lat="43.49986" lon="5.79076">
        <ele>386.34</ele>
        <time>2019-01-19T07:30:21Z</time>
      </trkpt>
      <trkpt lat="43.50005" lon="5.79072">
        <ele>384.24</ele>
        <time>2019-01-19T07:30:28Z</time>
      </trkpt>
      <trkpt lat="43.50025" lon="5.79068">
        <ele>380.12</ele>
        <time>2019-01-19T07:30:35Z</time>
      </trkpt>
      <trkpt lat="43.50046" lon="5.79064">
        <ele>376.27</ele>
        <time>2019-01-19T07:30:40Z</time>
      </trkpt>
      <trkpt lat="43.5007" lon="5.79056">
        <ele>373.52</ele>
        <time>2019-01-19T07:30:44Z</time>
      </trkpt>
      <trkpt lat="43.50086" lon="5.7904">
        <ele>371.97</ele>
        <time>2019-01-19T07:30:47Z</time>
      </trkpt>
      <trkpt lat="43.501" lon="5.79017">
        <ele>372.26</ele>
        <time>2019-01-19T07:30:51Z</time>
      </trkpt>
      <trkpt lat="43.50115" lon="5.79002">
        <ele>373.12</ele>
        <time>2019-01-19T07:30:56Z</time>
      </trkpt>
      <trkpt lat="43.50132" lon="5.78992">
        <ele>375.19</ele>
        <time>2019-01-19T07:31:02Z</time>
      </trkpt>
      <trkpt lat="43.50151" lon="5.7898">
        <ele>377.23</ele>
        <time>2019-01-19T07:31:09Z</time>
      </trkpt>
      <trkpt lat="43.50169" lon="5.78972">
        <ele>377.1</ele>
        <time>2019-01-19T07:31:16Z</time>
      </trkpt>
      <trkpt lat="43.50188" lon="5.78968">
        <ele>376.86</ele>
        <time>2019-01-19T07:31:24Z</time>
      </trkpt>
      <trkpt lat="43.50209" lon="5.78965">
        <ele>376.93</ele>
        <time>2019-01-19T07:31:32Z</time>
      </trkpt>
      <trkpt lat="43.50229" lon="5.7896">
        <ele>375.04</ele>
        <time>2019-01-19T07:31:38Z</time>
      </trkpt>
      <trkpt lat="43.50246" lon="5.78951">
        <ele>373.36</ele>
        <time>2019-01-19T07:31:43Z</time>
      </trkpt>
      <trkpt lat="43.50264" lon="5.78933">
        <ele>371.16</ele>
        <time>2019-01-19T07:31:48Z</time>
      </trkpt>
      <trkpt lat="43.50276" lon="5.78907">
        <ele>370.11</ele>
        <time>2019-01-19T07:31:52Z</time>
      </trkpt>
      <trkpt lat="43.50283" lon="5.78877">
        <ele>369.97</ele>
        <time>2019-01-19T07:31:56Z</time>
      </trkpt>
      <trkpt lat="43.50286" lon="5.78848">
        <ele>369.43</ele>
        <time>2019-01-19T07:32:00Z</time>
      </trkpt>
      <trkpt lat="43.50285" lon="5.7882">
        <ele>368.41</ele>
        <time>2019-01-19T07:32:05Z</time>
      </trkpt>
      <trkpt lat="43.50287" lon="5.78792">
        <ele>366.64</ele>
        <time>2019-01-19T07:32:11Z</time>
      </trkpt>
      <trkpt lat="43.50304" lon="5.78781">
        <ele>367.03</ele>
        <time>2019-01-19T07:32:18Z</time>
      </trkpt>
      <trkpt lat="43.50324" lon="5.78783">
        <ele>369.03</ele>
        <time>2019-01-19T07:32:26Z</time>
      </trkpt>
      <trkpt lat="43.50343" lon="5.78784">
        <ele>371.09</ele>
        <time>2019-01-19T07:32:33Z</time>
      </trkpt>
      <trkpt lat="43.50362" lon="5.78786">
        <ele>372.52</ele>
        <time>2019-01-19T07:32:40Z</time>
      </trkpt>
      <trkpt lat="43.50383" lon="5.78791">
        <ele>372.8</ele>
        <time>2019-01-19T07:32:47Z</time>
      </trkpt>
      <trkpt lat="43.504" lon="5.78797">
        <ele>370.51</ele>
        <time>2019-01-19T07:32:53Z</time>
      </trkpt>
      <trkpt lat="43.50419" lon="5.78806">
        <ele>369.55</ele>
        <time>2019-01-19T07:32:59Z</time>
      </trkpt>
      <trkpt lat="43.50438" lon="5.78815">
        <ele>368.23</ele>
        <time>2019-01-19T07:33:05Z</time>
      </trkpt>
      <trkpt lat="43.50459" lon="5.78818">
        <ele>366.76</ele>
        <time>2019-01-19T07:33:10Z</time>
      </trkpt>
      <trkpt lat="43.50479" lon="5.78816">
        <ele>364.97</ele>
        <time>2019-01-19T07:33:14Z</time>
      </trkpt>
      <trkpt lat="43.50501" lon="5.78804">
        <ele>361.64</ele>
        <time>2019-01-19T07:33:18Z</time>
      </trkpt>
      <trkpt lat="43.50516" lon="5.78787">
        <ele>360.33</ele>
        <time>2019-01-19T07:33:21Z</time>
      </trkpt>
      <trkpt lat="43.50529" lon="5.78766">
        <ele>359.25</ele>
        <time>2019-01-19T07:33:25Z</time>
      </trkpt>
      <trkpt lat="43.50544" lon="5.78751">
        <ele>361.26</ele>
        <time>2019-01-19T07:34:21Z</time>
      </trkpt>
      <trkpt lat="43.50539" lon="5.78778">
        <ele>361.3</ele>
        <time>2019-01-19T07:34:29Z</time>
      </trkpt>
      <trkpt lat="43.50536" lon="5.78804">
        <ele>360.24</ele>
        <time>2019-01-19T07:34:34Z</time>
      </trkpt>
      <trkpt lat="43.50547" lon="5.78826">
        <ele>359.47</ele>
        <time>2019-01-19T07:34:39Z</time>
      </trkpt>
      <trkpt lat="43.50567" lon="5.78834">
        <ele>359.87</ele>
        <time>2019-01-19T07:34:45Z</time>
      </trkpt>
      <trkpt lat="43.50587" lon="5.78843">
        <ele>359.68</ele>
        <time>2019-01-19T07:34:51Z</time>
      </trkpt>
      <trkpt lat="43.50607" lon="5.78849">
        <ele>360.03</ele>
        <time>2019-01-19T07:34:57Z</time>
      </trkpt>
      <trkpt lat="43.50625" lon="5.78847">
        <ele>359.86</ele>
        <time>2019-01-19T07:35:03Z</time>
      </trkpt>
      <trkpt lat="43.50644" lon="5.78836">
        <ele>359.67</ele>
        <time>2019-01-19T07:35:09Z</time>
      </trkpt>
      <trkpt lat="43.50655" lon="5.78814">
        <ele>361.17</ele>
        <time>2019-01-19T07:35:16Z</time>
      </trkpt>
      <trkpt lat="43.50663" lon="5.78789">
        <ele>363.67</ele>
        <time>2019-01-19T07:35:23Z</time>
      </trkpt>
      <trkpt lat="43.5067" lon="5.78765">
        <ele>366.84</ele>
        <time>2019-01-19T07:35:30Z</time>
      </trkpt>
      <trkpt lat="43.50681" lon="5.78745">
        <ele>370.62</ele>
        <time>2019-01-19T07:35:37Z</time>
      </trkpt>
      <trkpt lat="43.50696" lon="5.78727">
        <ele>376.48</ele>
        <time>2019-01-19T07:35:45Z</time>
      </trkpt>
      <trkpt lat="43.50713" lon="5.78713">
        <ele>376.08</ele>
        <time>2019-01-19T07:35:52Z</time>
      </trkpt>
      <trkpt lat="43.50731" lon="5.78708">
        <ele>373.75</ele>
        <time>2019-01-19T07:35:58Z</time>
      </trkpt>
      <trkpt lat="43.50747" lon="5.7872">
        <ele>372</ele>
        <time>2019-01-19T07:36:05Z</time>
      </trkpt>
      <trkpt lat="43.50761" lon="5.7874">
        <ele>370.58</ele>
        <time>2019-01-19T07:36:12Z</time>
      </trkpt>
      <trkpt lat="43.50777" lon="5.78754">
        <ele>369.06</ele>
        <time>2019-01-19T07:36:19Z</time>
      </trkpt>
      <trkpt lat="43.50797" lon="5.78758">
        <ele>368.71</ele>
        <time>2019-01-19T07:36:27Z</time>
      </trkpt>
      <trkpt lat="43.50814" lon="5.78749">
        <ele>370.34</ele>
        <time>2019-01-19T07:36:35Z</time>
      </trkpt>
      <trkpt lat="43.5083" lon="5.78737">
        <ele>372.64</ele>
        <time>2019-01-19T07:36:42Z</time>
      </trkpt>
      <trkpt lat="43.50848" lon="5.78728">
        <ele>374.35</ele>
        <time>2019-01-19T07:36:50Z</time>
      </trkpt>
      <trkpt lat="43.50864" lon="5.78709">
        <ele>373.93</ele>
        <time>2019-01-19T07:37:35Z</time>
      </trkpt>
      <trkpt lat="43.50882" lon="5.78705">
        <ele>371.07</ele>
        <time>2019-01-19T07:37:57Z</time>
      </trkpt>
      <trkpt lat="43.50901" lon="5.78706">
        <ele>371.89</ele>
        <time>2019-01-19T07:38:05Z</time>
      </trkpt>
      <trkpt lat="43.50918" lon="5.78714">
        <ele>372.66</ele>
        <time>2019-01-19T07:38:12Z</time>
      </trkpt>
      <trkpt lat="43.50932" lon="5.7873">
        <ele>372.84</ele>
        <time>2019-01-19T07:38:19Z</time>
      </trkpt>
      <trkpt lat="43.50952" lon="5.78735">
        <ele>373.77</ele>
        <time>2019-01-19T07:38:26Z</time>
      </trkpt>
      <trkpt lat="43.5097" lon="5.78724">
        <ele>374.15</ele>
        <time>2019-01-19T07:38:33Z</time>
      </trkpt>
      <trkpt lat="43.50988" lon="5.78712">
        <ele>375.66</ele>
        <time>2019-01-19T07:38:40Z</time>
      </trkpt>
      <trkpt lat="43.51006" lon="5.78704">
        <ele>378.37</ele>
        <time>2019-01-19T07:38:47Z</time>
      </trkpt>
      <trkpt lat="43.51025" lon="5.78694">
        <ele>380.69</ele>
        <time>2019-01-19T07:38:55Z</time>
      </trkpt>
      <trkpt lat="43.51043" lon="5.78687">
        <ele>381.26</ele>
        <time>2019-01-19T07:39:01Z</time>
      </trkpt>
      <trkpt lat="43.51063" lon="5.78683">
        <ele>379.45</ele>
        <time>2019-01-19T07:39:07Z</time>
      </trkpt>
      <trkpt lat="43.51083" lon="5.7868">
        <ele>376.8</ele>
        <time>2019-01-19T07:39:13Z</time>
      </trkpt>
      <trkpt lat="43.51103" lon="5.78675">
        <ele>374.99</ele>
        <time>2019-01-19T07:39:19Z</time>
      </trkpt>
      <trkpt lat="43.51123" lon="5.78668">
        <ele>373.6</ele>
        <time>2019-01-19T07:39:25Z</time>
      </trkpt>
      <trkpt lat="43.51142" lon="5.78665">
        <ele>374.06</ele>
        <time>2019-01-19T07:39:31Z</time>
      </trkpt>
      <trkpt lat="43.5116" lon="5.78665">
        <ele>374.91</ele>
        <time>2019-01-19T07:39:37Z</time>
      </trkpt>
      <trkpt lat="43.5118" lon="5.78664">
        <ele>373.38</ele>
        <time>2019-01-19T07:39:43Z</time>
      </trkpt>
      <trkpt lat="43.51199" lon="5.78663">
        <ele>373.23</ele>
        <time>2019-01-19T07:39:49Z</time>
      </trkpt>
      <trkpt lat="43.51217" lon="5.78657">
        <ele>374.02</ele>
        <time>2019-01-19T07:39:55Z</time>
      </trkpt>
      <trkpt lat="43.51234" lon="5.78647">
        <ele>376.97</ele>
        <time>2019-01-19T07:40:02Z</time>
      </trkpt>
      <trkpt lat="43.51245" lon="5.78626">
        <ele>380.45</ele>
        <time>2019-01-19T07:40:09Z</time>
      </trkpt>
      <trkpt lat="43.51255" lon="5.78601">
        <ele>384.3</ele>
        <time>2019-01-19T07:40:16Z</time>
      </trkpt>
      <trkpt lat="43.51263" lon="5.78576">
        <ele>389.37</ele>
        <time>2019-01-19T07:40:23Z</time>
      </trkpt>
      <trkpt lat="43.51272" lon="5.78555">
        <ele>395.29</ele>
        <time>2019-01-19T07:40:30Z</time>
      </trkpt>
      <trkpt lat="43.51284" lon="5.78532">
        <ele>401.91</ele>
        <time>2019-01-19T07:40:38Z</time>
      </trkpt>
      <trkpt lat="43.51298" lon="5.78515">
        <ele>407.05</ele>
        <time>2019-01-19T07:40:45Z</time>
      </trkpt>
      <trkpt lat="43.5131" lon="5.78495">
        <ele>413.59</ele>
        <time>2019-01-19T07:40:53Z</time>
      </trkpt>
      <trkpt lat="43.51327" lon="5.78483">
        <ele>412.9</ele>
        <time>2019-01-19T07:40:59Z</time>
      </trkpt>
      <trkpt lat="43.51346" lon="5.78481">
        <ele>408.78</ele>
        <time>2019-01-19T07:41:04Z</time>
      </trkpt>
      <trkpt lat="43.51365" lon="5.7848">
        <ele>402.33</ele>
        <time>2019-01-19T07:41:09Z</time>
      </trkpt>
      <trkpt lat="43.51384" lon="5.78481">
        <ele>396.49</ele>
        <time>2019-01-19T07:41:14Z</time>
      </trkpt>
      <trkpt lat="43.51404" lon="5.78484">
        <ele>392.95</ele>
        <time>2019-01-19T07:41:20Z</time>
      </trkpt>
      <trkpt lat="43.51425" lon="5.78481">
        <ele>391.06</ele>
        <time>2019-01-19T07:41:26Z</time>
      </trkpt>
      <trkpt lat="43.51445" lon="5.78477">
        <ele>389.32</ele>
        <time>2019-01-19T07:41:32Z</time>
      </trkpt>
      <trkpt lat="43.51463" lon="5.78476">
        <ele>388.04</ele>
        <time>2019-01-19T07:41:37Z</time>
      </trkpt>
      <trkpt lat="43.51483" lon="5.78478">
        <ele>384.83</ele>
        <time>2019-01-19T07:41:43Z</time>
      </trkpt>
      <trkpt lat="43.51501" lon="5.78476">
        <ele>384.57</ele>
        <time>2019-01-19T07:41:49Z</time>
      </trkpt>
      <trkpt lat="43.5152" lon="5.78479">
        <ele>383.84</ele>
        <time>2019-01-19T07:41:55Z</time>
      </trkpt>
      <trkpt lat="43.51539" lon="5.78478">
        <ele>382.72</ele>
        <time>2019-01-19T07:42:01Z</time>
      </trkpt>
      <trkpt lat="43.51554" lon="5.78461">
        <ele>384.23</ele>
        <time>2019-01-19T07:42:08Z</time>
      </trkpt>
      <trkpt lat="43.51567" lon="5.78442">
        <ele>386.47</ele>
        <time>2019-01-19T07:42:15Z</time>
      </trkpt>
      <trkpt lat="43.5158" lon="5.78423">
        <ele>389.86</ele>
        <time>2019-01-19T07:42:22Z</time>
      </trkpt>
      <trkpt lat="43.51595" lon="5.78406">
        <ele>392.55</ele>
        <time>2019-01-19T07:42:29Z</time>
      </trkpt>
      <trkpt lat="43.5161" lon="5.78389">
        <ele>393.94</ele>
        <time>2019-01-19T07:42:35Z</time>
      </trkpt>
      <trkpt lat="43.51627" lon="5.78374">
        <ele>395.7</ele>
        <time>2019-01-19T07:42:41Z</time>
      </trkpt>
      <trkpt lat="43.51644" lon="5.78362">
        <ele>396.17</ele>
        <time>2019-01-19T07:42:47Z</time>
      </trkpt>
      <trkpt lat="43.51663" lon="5.78352">
        <ele>395.85</ele>
        <time>2019-01-19T07:42:53Z</time>
      </trkpt>
      <trkpt lat="43.51681" lon="5.78345">
        <ele>394.01</ele>
        <time>2019-01-19T07:42:59Z</time>
      </trkpt>
      <trkpt lat="43.517" lon="5.78342">
        <ele>393.33</ele>
        <time>2019-01-19T07:43:05Z</time>
      </trkpt>
      <trkpt lat="43.51718" lon="5.78347">
        <ele>392.5</ele>
        <time>2019-01-19T07:43:11Z</time>
      </trkpt>
      <trkpt lat="43.51731" lon="5.78366">
        <ele>393.3</ele>
        <time>2019-01-19T07:43:18Z</time>
      </trkpt>
      <trkpt lat="43.5174" lon="5.78389">
        <ele>393.94</ele>
        <time>2019-01-19T07:43:25Z</time>
      </trkpt>
      <trkpt lat="43.51746" lon="5.78415">
        <ele>394.63</ele>
        <time>2019-01-19T07:43:32Z</time>
      </trkpt>
      <trkpt lat="43.51757" lon="5.78438">
        <ele>395.7</ele>
        <time>2019-01-19T07:43:39Z</time>
      </trkpt>
      <trkpt lat="43.51772" lon="5.78453">
        <ele>397.26</ele>
        <time>2019-01-19T07:43:45Z</time>
      </trkpt>
      <trkpt lat="43.51787" lon="5.78466">
        <ele>398.41</ele>
        <time>2019-01-19T07:43:51Z</time>
      </trkpt>
      <trkpt lat="43.51806" lon="5.78473">
        <ele>398.18</ele>
        <time>2019-01-19T07:43:59Z</time>
      </trkpt>
      <trkpt lat="43.51826" lon="5.7847">
        <ele>398.06</ele>
        <time>2019-01-19T07:44:08Z</time>
      </trkpt>
      <trkpt lat="43.51846" lon="5.78467">
        <ele>398.07</ele>
        <time>2019-01-19T07:44:16Z</time>
      </trkpt>
      <trkpt lat="43.51864" lon="5.78469">
        <ele>396.03</ele>
        <time>2019-01-19T07:44:22Z</time>
      </trkpt>
      <trkpt lat="43.51883" lon="5.78475">
        <ele>395.02</ele>
        <time>2019-01-19T07:44:28Z</time>
      </trkpt>
      <trkpt lat="43.51901" lon="5.78479">
        <ele>393.64</ele>
        <time>2019-01-19T07:44:34Z</time>
      </trkpt>
      <trkpt lat="43.5192" lon="5.78479">
        <ele>394.38</ele>
        <time>2019-01-19T07:44:40Z</time>
      </trkpt>
      <trkpt lat="43.5194" lon="5.78474">
        <ele>395.48</ele>
        <time>2019-01-19T07:44:47Z</time>
      </trkpt>
      <trkpt lat="43.51958" lon="5.78469">
        <ele>396.42</ele>
        <time>2019-01-19T07:44:53Z</time>
      </trkpt>
      <trkpt lat="43.51977" lon="5.78467">
        <ele>398.7</ele>
        <time>2019-01-19T07:44:59Z</time>
      </trkpt>
      <trkpt lat="43.51995" lon="5.78462">
        <ele>398.89</ele>
        <time>2019-01-19T07:45:05Z</time>
      </trkpt>
      <trkpt lat="43.52013" lon="5.7846">
        <ele>399.36</ele>
        <time>2019-01-19T07:45:11Z</time>
      </trkpt>
      <trkpt lat="43.52033" lon="5.78455">
        <ele>402.56</ele>
        <time>2019-01-19T07:45:18Z</time>
      </trkpt>
      <trkpt lat="43.52052" lon="5.78447">
        <ele>404.64</ele>
        <time>2019-01-19T07:45:25Z</time>
      </trkpt>
      <trkpt lat="43.52071" lon="5.78448">
        <ele>404.27</ele>
        <time>2019-01-19T07:45:31Z</time>
      </trkpt>
      <trkpt lat="43.5209" lon="5.78448">
        <ele>402.22</ele>
        <time>2019-01-19T07:45:37Z</time>
      </trkpt>
      <trkpt lat="43.52108" lon="5.78451">
        <ele>400.84</ele>
        <time>2019-01-19T07:45:42Z</time>
      </trkpt>
      <trkpt lat="43.52127" lon="5.78458">
        <ele>400.56</ele>
        <time>2019-01-19T07:45:48Z</time>
      </trkpt>
      <trkpt lat="43.52145" lon="5.78467">
        <ele>399.06</ele>
        <time>2019-01-19T07:45:54Z</time>
      </trkpt>
      <trkpt lat="43.52163" lon="5.78479">
        <ele>399.76</ele>
        <time>2019-01-19T07:46:01Z</time>
      </trkpt>
      <trkpt lat="43.52182" lon="5.7849">
        <ele>402.39</ele>
        <time>2019-01-19T07:46:08Z</time>
      </trkpt>
      <trkpt lat="43.52199" lon="5.78507">
        <ele>403.3</ele>
        <time>2019-01-19T07:46:15Z</time>
      </trkpt>
      <trkpt lat="43.52212" lon="5.78528">
        <ele>404.75</ele>
        <time>2019-01-19T07:46:22Z</time>
      </trkpt>
      <trkpt lat="43.52228" lon="5.78539">
        <ele>404.71</ele>
        <time>2019-01-19T07:46:28Z</time>
      </trkpt>
      <trkpt lat="43.52241" lon="5.78558">
        <ele>405.31</ele>
        <time>2019-01-19T07:46:34Z</time>
      </trkpt>
      <trkpt lat="43.52252" lon="5.7858">
        <ele>404.46</ele>
        <time>2019-01-19T07:46:40Z</time>
      </trkpt>
      <trkpt lat="43.52263" lon="5.78604">
        <ele>404.74</ele>
        <time>2019-01-19T07:46:47Z</time>
      </trkpt>
      <trkpt lat="43.52277" lon="5.78622">
        <ele>406.36</ele>
        <time>2019-01-19T07:46:54Z</time>
      </trkpt>
      <trkpt lat="43.52294" lon="5.78638">
        <ele>407.9</ele>
        <time>2019-01-19T07:47:01Z</time>
      </trkpt>
      <trkpt lat="43.52308" lon="5.78657">
        <ele>408.64</ele>
        <time>2019-01-19T07:47:08Z</time>
      </trkpt>
      <trkpt lat="43.52321" lon="5.78679">
        <ele>409.54</ele>
        <time>2019-01-19T07:47:15Z</time>
      </trkpt>
      <trkpt lat="43.52342" lon="5.78685">
        <ele>411.07</ele>
        <time>2019-01-19T07:47:22Z</time>
      </trkpt>
      <trkpt lat="43.52362" lon="5.78679">
        <ele>410.76</ele>
        <time>2019-01-19T07:47:29Z</time>
      </trkpt>
      <trkpt lat="43.52381" lon="5.78674">
        <ele>412.1</ele>
        <time>2019-01-19T07:47:36Z</time>
      </trkpt>
      <trkpt lat="43.52399" lon="5.78681">
        <ele>414.24</ele>
        <time>2019-01-19T07:47:43Z</time>
      </trkpt>
      <trkpt lat="43.52419" lon="5.78686">
        <ele>416.08</ele>
        <time>2019-01-19T07:47:50Z</time>
      </trkpt>
      <trkpt lat="43.52437" lon="5.78688">
        <ele>415.69</ele>
        <time>2019-01-19T07:47:56Z</time>
      </trkpt>
      <trkpt lat="43.52458" lon="5.78693">
        <ele>415.48</ele>
        <time>2019-01-19T07:48:03Z</time>
      </trkpt>
      <trkpt lat="43.52478" lon="5.787">
        <ele>415.09</ele>
        <time>2019-01-19T07:48:09Z</time>
      </trkpt>
      <trkpt lat="43.52496" lon="5.78708">
        <ele>416.2</ele>
        <time>2019-01-19T07:48:15Z</time>
      </trkpt>
      <trkpt lat="43.52513" lon="5.7872">
        <ele>416.01</ele>
        <time>2019-01-19T07:48:21Z</time>
      </trkpt>
      <trkpt lat="43.52531" lon="5.78735">
        <ele>415.42</ele>
        <time>2019-01-19T07:48:27Z</time>
      </trkpt>
      <trkpt lat="43.52546" lon="5.78748">
        <ele>414.76</ele>
        <time>2019-01-19T07:48:33Z</time>
      </trkpt>
      <trkpt lat="43.52563" lon="5.78762">
        <ele>414.97</ele>
        <time>2019-01-19T07:48:40Z</time>
      </trkpt>
      <trkpt lat="43.52581" lon="5.78773">
        <ele>410.77</ele>
        <time>2019-01-19T07:51:51Z</time>
      </trkpt>
      <trkpt lat="43.52597" lon="5.78783">
        <ele>411.29</ele>
        <time>2019-01-19T07:52:00Z</time>
      </trkpt>
      <trkpt lat="43.52612" lon="5.78802">
        <ele>414.52</ele>
        <time>2019-01-19T07:52:33Z</time>
      </trkpt>
      <trkpt lat="43.52622" lon="5.78825">
        <ele>414.95</ele>
        <time>2019-01-19T07:52:42Z</time>
      </trkpt>
      <trkpt lat="43.52633" lon="5.78849">
        <ele>415.43</ele>
        <time>2019-01-19T07:52:49Z</time>
      </trkpt>
      <trkpt lat="43.52646" lon="5.78871">
        <ele>416.92</ele>
        <time>2019-01-19T07:52:56Z</time>
      </trkpt>
      <trkpt lat="43.52659" lon="5.78888">
        <ele>418.13</ele>
        <time>2019-01-19T07:53:02Z</time>
      </trkpt>
      <trkpt lat="43.52672" lon="5.78907">
        <ele>419</ele>
        <time>2019-01-19T07:53:08Z</time>
      </trkpt>
      <trkpt lat="43.52687" lon="5.78927">
        <ele>421.49</ele>
        <time>2019-01-19T07:53:15Z</time>
      </trkpt>
      <trkpt lat="43.52705" lon="5.78938">
        <ele>424.78</ele>
        <time>2019-01-19T07:53:22Z</time>
      </trkpt>
      <trkpt lat="43.52722" lon="5.78948">
        <ele>424.56</ele>
        <time>2019-01-19T07:53:28Z</time>
      </trkpt>
      <trkpt lat="43.5274" lon="5.78956">
        <ele>424.08</ele>
        <time>2019-01-19T07:53:34Z</time>
      </trkpt>
      <trkpt lat="43.52759" lon="5.78966">
        <ele>423.72</ele>
        <time>2019-01-19T07:53:40Z</time>
      </trkpt>
      <trkpt lat="43.52776" lon="5.78974">
        <ele>425.09</ele>
        <time>2019-01-19T07:53:46Z</time>
      </trkpt>
      <trkpt lat="43.52796" lon="5.78976">
        <ele>425.33</ele>
        <time>2019-01-19T07:53:53Z</time>
      </trkpt>
      <trkpt lat="43.52817" lon="5.78981">
        <ele>425.3</ele>
        <time>2019-01-19T07:54:01Z</time>
      </trkpt>
      <trkpt lat="43.52837" lon="5.78989">
        <ele>423.24</ele>
        <time>2019-01-19T07:54:08Z</time>
      </trkpt>
      <trkpt lat="43.52854" lon="5.78999">
        <ele>424.2</ele>
        <time>2019-01-19T07:54:15Z</time>
      </trkpt>
      <trkpt lat="43.52871" lon="5.79008">
        <ele>424.34</ele>
        <time>2019-01-19T07:54:22Z</time>
      </trkpt>
      <trkpt lat="43.52888" lon="5.79018">
        <ele>424.21</ele>
        <time>2019-01-19T07:54:29Z</time>
      </trkpt>
      <trkpt lat="43.52905" lon="5.79033">
        <ele>423.68</ele>
        <time>2019-01-19T07:54:37Z</time>
      </trkpt>
      <trkpt lat="43.5292" lon="5.7905">
        <ele>425.63</ele>
        <time>2019-01-19T07:54:45Z</time>
      </trkpt>
      <trkpt lat="43.52937" lon="5.79066">
        <ele>426.74</ele>
        <time>2019-01-19T07:54:53Z</time>
      </trkpt>
      <trkpt lat="43.52953" lon="5.79079">
        <ele>427.27</ele>
        <time>2019-01-19T07:55:00Z</time>
      </trkpt>
      <trkpt lat="43.52969" lon="5.79094">
        <ele>428.17</ele>
        <time>2019-01-19T07:55:08Z</time>
      </trkpt>
      <trkpt lat="43.52982" lon="5.79114">
        <ele>429.84</ele>
        <time>2019-01-19T07:55:16Z</time>
      </trkpt>
      <trkpt lat="43.52996" lon="5.79132">
        <ele>429.99</ele>
        <time>2019-01-19T07:56:04Z</time>
      </trkpt>
      <trkpt lat="43.53001" lon="5.79107">
        <ele>431.04</ele>
        <time>2019-01-19T07:56:14Z</time>
      </trkpt>
      <trkpt lat="43.52997" lon="5.79082">
        <ele>433.27</ele>
        <time>2019-01-19T07:56:21Z</time>
      </trkpt>
      <trkpt lat="43.52993" lon="5.79055">
        <ele>437.61</ele>
        <time>2019-01-19T07:56:29Z</time>
      </trkpt>
      <trkpt lat="43.52989" lon="5.7903">
        <ele>440.94</ele>
        <time>2019-01-19T07:56:35Z</time>
      </trkpt>
      <trkpt lat="43.52987" lon="5.79003">
        <ele>440.63</ele>
        <time>2019-01-19T07:56:42Z</time>
      </trkpt>
      <trkpt lat="43.52985" lon="5.78975">
        <ele>441.14</ele>
        <time>2019-01-19T07:56:49Z</time>
      </trkpt>
      <trkpt lat="43.52981" lon="5.78947">
        <ele>442.52</ele>
        <time>2019-01-19T07:56:56Z</time>
      </trkpt>
      <trkpt lat="43.52978" lon="5.7892">
        <ele>444.2</ele>
        <time>2019-01-19T07:57:02Z</time>
      </trkpt>
      <trkpt lat="43.52975" lon="5.78891">
        <ele>446.02</ele>
        <time>2019-01-19T07:57:08Z</time>
      </trkpt>
      <trkpt lat="43.52972" lon="5.78863">
        <ele>448.55</ele>
        <time>2019-01-19T07:57:14Z</time>
      </trkpt>
      <trkpt lat="43.52968" lon="5.78839">
        <ele>450.94</ele>
        <time>2019-01-19T07:57:19Z</time>
      </trkpt>
      <trkpt lat="43.52965" lon="5.78813">
        <ele>453.43</ele>
        <time>2019-01-19T07:57:24Z</time>
      </trkpt>
      <trkpt lat="43.5296" lon="5.78784">
        <ele>455.39</ele>
        <time>2019-01-19T07:57:29Z</time>
      </trkpt>
      <trkpt lat="43.52955" lon="5.78759">
        <ele>456.57</ele>
        <time>2019-01-19T07:57:33Z</time>
      </trkpt>
      <trkpt lat="43.52952" lon="5.78733">
        <ele>457.64</ele>
        <time>2019-01-19T07:57:37Z</time>
      </trkpt>
      <trkpt lat="43.52953" lon="5.78708">
        <ele>457.72</ele>
        <time>2019-01-19T07:57:42Z</time>
      </trkpt>
      <trkpt lat="43.52951" lon="5.78683">
        <ele>458.66</ele>
        <time>2019-01-19T07:57:50Z</time>
      </trkpt>
      <trkpt lat="43.52937" lon="5.78663">
        <ele>441.71</ele>
        <time>2019-01-19T07:58:39Z</time>
      </trkpt>
      <trkpt lat="43.52916" lon="5.78658">
        <ele>438.89</ele>
        <time>2019-01-19T07:58:45Z</time>
      </trkpt>
      <trkpt lat="43.52896" lon="5.78653">
        <ele>432.6</ele>
        <time>2019-01-19T07:58:51Z</time>
      </trkpt>
      <trkpt lat="43.52887" lon="5.7863">
        <ele>430.87</ele>
        <time>2019-01-19T07:58:58Z</time>
      </trkpt>
      <trkpt lat="43.52887" lon="5.78602">
        <ele>431.92</ele>
        <time>2019-01-19T07:59:04Z</time>
      </trkpt>
      <trkpt lat="43.52887" lon="5.78576">
        <ele>432.61</ele>
        <time>2019-01-19T07:59:09Z</time>
      </trkpt>
      <trkpt lat="43.52888" lon="5.78549">
        <ele>432.48</ele>
        <time>2019-01-19T07:59:14Z</time>
      </trkpt>
      <trkpt lat="43.52888" lon="5.78523">
        <ele>432.25</ele>
        <time>2019-01-19T07:59:19Z</time>
      </trkpt>
      <trkpt lat="43.52888" lon="5.78495">
        <ele>432.79</ele>
        <time>2019-01-19T07:59:24Z</time>
      </trkpt>
      <trkpt lat="43.52888" lon="5.78469">
        <ele>433.35</ele>
        <time>2019-01-19T07:59:29Z</time>
      </trkpt>
      <trkpt lat="43.52889" lon="5.78441">
        <ele>432.93</ele>
        <time>2019-01-19T07:59:34Z</time>
      </trkpt>
      <trkpt lat="43.52889" lon="5.78415">
        <ele>432.99</ele>
        <time>2019-01-19T07:59:39Z</time>
      </trkpt>
      <trkpt lat="43.5289" lon="5.78385">
        <ele>431.71</ele>
        <time>2019-01-19T07:59:46Z</time>
      </trkpt>
      <trkpt lat="43.52891" lon="5.78358">
        <ele>430.75</ele>
        <time>2019-01-19T07:59:51Z</time>
      </trkpt>
      <trkpt lat="43.52891" lon="5.78328">
        <ele>430.01</ele>
        <time>2019-01-19T07:59:56Z</time>
      </trkpt>
      <trkpt lat="43.52891" lon="5.78299">
        <ele>431.55</ele>
        <time>2019-01-19T08:00:01Z</time>
      </trkpt>
      <trkpt lat="43.5289" lon="5.78269">
        <ele>433.32</ele>
        <time>2019-01-19T08:00:07Z</time>
      </trkpt>
      <trkpt lat="43.52891" lon="5.78243">
        <ele>434.82</ele>
        <time>2019-01-19T08:00:13Z</time>
      </trkpt>
      <trkpt lat="43.52892" lon="5.78215">
        <ele>434.57</ele>
        <time>2019-01-19T08:00:19Z</time>
      </trkpt>
      <trkpt lat="43.52894" lon="5.78186">
        <ele>434.51</ele>
        <time>2019-01-19T08:00:25Z</time>
      </trkpt>
      <trkpt lat="43.52895" lon="5.78157">
        <ele>434.92</ele>
        <time>2019-01-19T08:00:31Z</time>
      </trkpt>
      <trkpt lat="43.52895" lon="5.7813">
        <ele>435.29</ele>
        <time>2019-01-19T08:00:36Z</time>
      </trkpt>
      <trkpt lat="43.52897" lon="5.78102">
        <ele>432.02</ele>
        <time>2019-01-19T08:00:41Z</time>
      </trkpt>
      <trkpt lat="43.52897" lon="5.78073">
        <ele>433.34</ele>
        <time>2019-01-19T08:00:47Z</time>
      </trkpt>
      <trkpt lat="43.52897" lon="5.78047">
        <ele>433.73</ele>
        <time>2019-01-19T08:00:52Z</time>
      </trkpt>
      <trkpt lat="43.52897" lon="5.7802">
        <ele>434.21</ele>
        <time>2019-01-19T08:00:57Z</time>
      </trkpt>
      <trkpt lat="43.52898" lon="5.7799">
        <ele>432.81</ele>
        <time>2019-01-19T08:01:02Z</time>
      </trkpt>
      <trkpt lat="43.529" lon="5.77963">
        <ele>430.62</ele>
        <time>2019-01-19T08:01:07Z</time>
      </trkpt>
      <trkpt lat="43.52917" lon="5.77952">
        <ele>429.37</ele>
        <time>2019-01-19T08:01:15Z</time>
      </trkpt>
      <trkpt lat="43.52936" lon="5.7795">
        <ele>427.37</ele>
        <time>2019-01-19T08:01:21Z</time>
      </trkpt>
      <trkpt lat="43.52956" lon="5.77951">
        <ele>425.72</ele>
        <time>2019-01-19T08:01:27Z</time>
      </trkpt>
      <trkpt lat="43.52976" lon="5.77951">
        <ele>424.62</ele>
        <time>2019-01-19T08:01:33Z</time>
      </trkpt>
      <trkpt lat="43.52997" lon="5.77952">
        <ele>424.18</ele>
        <time>2019-01-19T08:01:39Z</time>
      </trkpt>
      <trkpt lat="43.53016" lon="5.77951">
        <ele>423.39</ele>
        <time>2019-01-19T08:01:45Z</time>
      </trkpt>
      <trkpt lat="43.53035" lon="5.77952">
        <ele>422.87</ele>
        <time>2019-01-19T08:01:51Z</time>
      </trkpt>
      <trkpt lat="43.53054" lon="5.77953">
        <ele>422.79</ele>
        <time>2019-01-19T08:01:57Z</time>
      </trkpt>
      <trkpt lat="43.53073" lon="5.77955">
        <ele>422.79</ele>
        <time>2019-01-19T08:02:04Z</time>
      </trkpt>
      <trkpt lat="43.53093" lon="5.77956">
        <ele>423.28</ele>
        <time>2019-01-19T08:02:12Z</time>
      </trkpt>
      <trkpt lat="43.53112" lon="5.77957">
        <ele>423.43</ele>
        <time>2019-01-19T08:02:19Z</time>
      </trkpt>
      <trkpt lat="43.53131" lon="5.77957">
        <ele>423.74</ele>
        <time>2019-01-19T08:02:26Z</time>
      </trkpt>
      <trkpt lat="43.53149" lon="5.77957">
        <ele>423.67</ele>
        <time>2019-01-19T08:02:33Z</time>
      </trkpt>
      <trkpt lat="43.5317" lon="5.77956">
        <ele>423.18</ele>
        <time>2019-01-19T08:02:40Z</time>
      </trkpt>
      <trkpt lat="43.53188" lon="5.77956">
        <ele>424.17</ele>
        <time>2019-01-19T08:02:47Z</time>
      </trkpt>
      <trkpt lat="43.53207" lon="5.77956">
        <ele>425.99</ele>
        <time>2019-01-19T08:02:55Z</time>
      </trkpt>
      <trkpt lat="43.53225" lon="5.77961">
        <ele>429.36</ele>
        <time>2019-01-19T08:03:03Z</time>
      </trkpt>
      <trkpt lat="43.53244" lon="5.77963">
        <ele>431.74</ele>
        <time>2019-01-19T08:03:14Z</time>
      </trkpt>
      <trkpt lat="43.53263" lon="5.77957">
        <ele>433.67</ele>
        <time>2019-01-19T08:03:44Z</time>
      </trkpt>
      <trkpt lat="43.53282" lon="5.77954">
        <ele>438.62</ele>
        <time>2019-01-19T08:05:15Z</time>
      </trkpt>
      <trkpt lat="43.53299" lon="5.77959">
        <ele>441.29</ele>
        <time>2019-01-19T08:05:25Z</time>
      </trkpt>
      <trkpt lat="43.53317" lon="5.77956">
        <ele>443.5</ele>
        <time>2019-01-19T08:05:34Z</time>
      </trkpt>
      <trkpt lat="43.53335" lon="5.77951">
        <ele>446.35</ele>
        <time>2019-01-19T08:05:42Z</time>
      </trkpt>
      <trkpt lat="43.53354" lon="5.77947">
        <ele>445.87</ele>
        <time>2019-01-19T08:05:50Z</time>
      </trkpt>
      <trkpt lat="43.53372" lon="5.77943">
        <ele>446.5</ele>
        <time>2019-01-19T08:05:58Z</time>
      </trkpt>
      <trkpt lat="43.53391" lon="5.7794">
        <ele>448.98</ele>
        <time>2019-01-19T08:06:09Z</time>
      </trkpt>
      <trkpt lat="43.5341" lon="5.77945">
        <ele>453.59</ele>
        <time>2019-01-19T08:06:23Z</time>
      </trkpt>
      <trkpt lat="43.53427" lon="5.77954">
        <ele>457.45</ele>
        <time>2019-01-19T08:06:33Z</time>
      </trkpt>
      <trkpt lat="43.53445" lon="5.77961">
        <ele>460.33</ele>
        <time>2019-01-19T08:06:43Z</time>
      </trkpt>
      <trkpt lat="43.53462" lon="5.7797">
        <ele>462.71</ele>
        <time>2019-01-19T08:06:54Z</time>
      </trkpt>
      <trkpt lat="43.53477" lon="5.77988">
        <ele>466.73</ele>
        <time>2019-01-19T08:07:06Z</time>
      </trkpt>
      <trkpt lat="43.53491" lon="5.78004">
        <ele>468.39</ele>
        <time>2019-01-19T08:07:16Z</time>
      </trkpt>
      <trkpt lat="43.53505" lon="5.78022">
        <ele>471.77</ele>
        <time>2019-01-19T08:07:28Z</time>
      </trkpt>
      <trkpt lat="43.53519" lon="5.78038">
        <ele>476.47</ele>
        <time>2019-01-19T08:07:40Z</time>
      </trkpt>
      <trkpt lat="43.53532" lon="5.78056">
        <ele>480.09</ele>
        <time>2019-01-19T08:07:51Z</time>
      </trkpt>
      <trkpt lat="43.53546" lon="5.78073">
        <ele>480.87</ele>
        <time>2019-01-19T08:08:01Z</time>
      </trkpt>
      <trkpt lat="43.5356" lon="5.7809">
        <ele>481.53</ele>
        <time>2019-01-19T08:08:12Z</time>
      </trkpt>
      <trkpt lat="43.53573" lon="5.7811">
        <ele>482.91</ele>
        <time>2019-01-19T08:08:23Z</time>
      </trkpt>
      <trkpt lat="43.53586" lon="5.78127">
        <ele>484.44</ele>
        <time>2019-01-19T08:08:34Z</time>
      </trkpt>
      <trkpt lat="43.53601" lon="5.78142">
        <ele>483.43</ele>
        <time>2019-01-19T08:08:44Z</time>
      </trkpt>
      <trkpt lat="43.53615" lon="5.78159">
        <ele>484.86</ele>
        <time>2019-01-19T08:08:59Z</time>
      </trkpt>
      <trkpt lat="43.53631" lon="5.78171">
        <ele>487.39</ele>
        <time>2019-01-19T08:09:12Z</time>
      </trkpt>
      <trkpt lat="43.53647" lon="5.78185">
        <ele>487.87</ele>
        <time>2019-01-19T08:09:24Z</time>
      </trkpt>
      <trkpt lat="43.53665" lon="5.78193">
        <ele>490.23</ele>
        <time>2019-01-19T08:09:37Z</time>
      </trkpt>
      <trkpt lat="43.53683" lon="5.78207">
        <ele>489.16</ele>
        <time>2019-01-19T08:09:53Z</time>
      </trkpt>
      <trkpt lat="43.53699" lon="5.7822">
        <ele>487.73</ele>
        <time>2019-01-19T08:10:14Z</time>
      </trkpt>
      <trkpt lat="43.53714" lon="5.78234">
        <ele>487.41</ele>
        <time>2019-01-19T08:10:36Z</time>
      </trkpt>
      <trkpt lat="43.53723" lon="5.78212">
        <ele>488.77</ele>
        <time>2019-01-19T08:11:08Z</time>
      </trkpt>
      <trkpt lat="43.53725" lon="5.78187">
        <ele>490.99</ele>
        <time>2019-01-19T08:11:20Z</time>
      </trkpt>
      <trkpt lat="43.53724" lon="5.7816">
        <ele>494.89</ele>
        <time>2019-01-19T08:11:31Z</time>
      </trkpt>
      <trkpt lat="43.5372" lon="5.78136">
        <ele>498.87</ele>
        <time>2019-01-19T08:11:45Z</time>
      </trkpt>
      <trkpt lat="43.53716" lon="5.7811">
        <ele>502.79</ele>
        <time>2019-01-19T08:11:56Z</time>
      </trkpt>
      <trkpt lat="43.5372" lon="5.78084">
        <ele>506.49</ele>
        <time>2019-01-19T08:12:07Z</time>
      </trkpt>
      <trkpt lat="43.53729" lon="5.78063">
        <ele>509.34</ele>
        <time>2019-01-19T08:12:19Z</time>
      </trkpt>
      <trkpt lat="43.53741" lon="5.78043">
        <ele>512.1</ele>
        <time>2019-01-19T08:12:30Z</time>
      </trkpt>
      <trkpt lat="43.53755" lon="5.78024">
        <ele>513.32</ele>
        <time>2019-01-19T08:12:40Z</time>
      </trkpt>
      <trkpt lat="43.53769" lon="5.78007">
        <ele>513.22</ele>
        <time>2019-01-19T08:12:49Z</time>
      </trkpt>
      <trkpt lat="43.53782" lon="5.77988">
        <ele>513.67</ele>
        <time>2019-01-19T08:12:58Z</time>
      </trkpt>
      <trkpt lat="43.53794" lon="5.7797">
        <ele>515.51</ele>
        <time>2019-01-19T08:13:06Z</time>
      </trkpt>
      <trkpt lat="43.53808" lon="5.77952">
        <ele>515.36</ele>
        <time>2019-01-19T08:13:15Z</time>
      </trkpt>
      <trkpt lat="43.53827" lon="5.77941">
        <ele>504.17</ele>
        <time>2019-01-19T08:15:35Z</time>
      </trkpt>
      <trkpt lat="43.53836" lon="5.77918">
        <ele>502.94</ele>
        <time>2019-01-19T08:15:45Z</time>
      </trkpt>
      <trkpt lat="43.53839" lon="5.77894">
        <ele>505.97</ele>
        <time>2019-01-19T08:15:54Z</time>
      </trkpt>
      <trkpt lat="43.53835" lon="5.77868">
        <ele>510.94</ele>
        <time>2019-01-19T08:16:04Z</time>
      </trkpt>
      <trkpt lat="43.53826" lon="5.77844">
        <ele>516.27</ele>
        <time>2019-01-19T08:16:13Z</time>
      </trkpt>
      <trkpt lat="43.53816" lon="5.77821">
        <ele>518.01</ele>
        <time>2019-01-19T08:16:21Z</time>
      </trkpt>
      <trkpt lat="43.53807" lon="5.77797">
        <ele>518.62</ele>
        <time>2019-01-19T08:16:28Z</time>
      </trkpt>
      <trkpt lat="43.538" lon="5.77774">
        <ele>516.36</ele>
        <time>2019-01-19T08:16:35Z</time>
      </trkpt>
      <trkpt lat="43.53795" lon="5.7775">
        <ele>513.72</ele>
        <time>2019-01-19T08:16:42Z</time>
      </trkpt>
      <trkpt lat="43.53798" lon="5.77725">
        <ele>513.28</ele>
        <time>2019-01-19T08:16:50Z</time>
      </trkpt>
      <trkpt lat="43.53809" lon="5.77702">
        <ele>513.35</ele>
        <time>2019-01-19T08:16:58Z</time>
      </trkpt>
      <trkpt lat="43.53822" lon="5.77682">
        <ele>511.36</ele>
        <time>2019-01-19T08:17:21Z</time>
      </trkpt>
      <trkpt lat="43.53814" lon="5.77658">
        <ele>503.89</ele>
        <time>2019-01-19T08:34:53Z</time>
      </trkpt>
      <trkpt lat="43.53798" lon="5.77644">
        <ele>503.31</ele>
        <time>2019-01-19T08:34:58Z</time>
      </trkpt>
      <trkpt lat="43.5378" lon="5.77631">
        <ele>502.6</ele>
        <time>2019-01-19T08:35:02Z</time>
      </trkpt>
      <trkpt lat="43.53765" lon="5.77614">
        <ele>501.74</ele>
        <time>2019-01-19T08:35:05Z</time>
      </trkpt>
      <trkpt lat="43.53751" lon="5.77597">
        <ele>500.76</ele>
        <time>2019-01-19T08:35:08Z</time>
      </trkpt>
      <trkpt lat="43.53736" lon="5.77575">
        <ele>499.83</ele>
        <time>2019-01-19T08:35:11Z</time>
      </trkpt>
      <trkpt lat="43.53723" lon="5.77551">
        <ele>499.22</ele>
        <time>2019-01-19T08:35:14Z</time>
      </trkpt>
      <trkpt lat="43.53709" lon="5.77522">
        <ele>498.62</ele>
        <time>2019-01-19T08:35:17Z</time>
      </trkpt>
      <trkpt lat="43.53697" lon="5.77491">
        <ele>497.92</ele>
        <time>2019-01-19T08:35:20Z</time>
      </trkpt>
      <trkpt lat="43.53687" lon="5.77464">
        <ele>497.14</ele>
        <time>2019-01-19T08:35:23Z</time>
      </trkpt>
      <trkpt lat="43.53693" lon="5.77437">
        <ele>496.34</ele>
        <time>2019-01-19T08:35:27Z</time>
      </trkpt>
      <trkpt lat="43.53709" lon="5.77423">
        <ele>495.4</ele>
        <time>2019-01-19T08:35:32Z</time>
      </trkpt>
      <trkpt lat="43.53724" lon="5.77408">
        <ele>493.46</ele>
        <time>2019-01-19T08:35:38Z</time>
      </trkpt>
      <trkpt lat="43.53742" lon="5.77392">
        <ele>492.29</ele>
        <time>2019-01-19T08:35:44Z</time>
      </trkpt>
      <trkpt lat="43.53758" lon="5.77373">
        <ele>490.74</ele>
        <time>2019-01-19T08:35:49Z</time>
      </trkpt>
      <trkpt lat="43.53772" lon="5.7735">
        <ele>489.89</ele>
        <time>2019-01-19T08:35:54Z</time>
      </trkpt>
      <trkpt lat="43.53784" lon="5.77331">
        <ele>489.95</ele>
        <time>2019-01-19T08:35:58Z</time>
      </trkpt>
      <trkpt lat="43.53798" lon="5.77312">
        <ele>489.78</ele>
        <time>2019-01-19T08:36:02Z</time>
      </trkpt>
      <trkpt lat="43.53814" lon="5.77291">
        <ele>489.08</ele>
        <time>2019-01-19T08:36:06Z</time>
      </trkpt>
      <trkpt lat="43.5383" lon="5.77272">
        <ele>488.79</ele>
        <time>2019-01-19T08:36:10Z</time>
      </trkpt>
      <trkpt lat="43.53847" lon="5.77253">
        <ele>488.41</ele>
        <time>2019-01-19T08:36:14Z</time>
      </trkpt>
      <trkpt lat="43.53861" lon="5.77232">
        <ele>487.38</ele>
        <time>2019-01-19T08:36:18Z</time>
      </trkpt>
      <trkpt lat="43.53872" lon="5.7721">
        <ele>485.95</ele>
        <time>2019-01-19T08:36:22Z</time>
      </trkpt>
      <trkpt lat="43.53886" lon="5.77193">
        <ele>470.86</ele>
        <time>2019-01-19T08:39:22Z</time>
      </trkpt>
      <trkpt lat="43.53903" lon="5.77181">
        <ele>472.25</ele>
        <time>2019-01-19T08:39:36Z</time>
      </trkpt>
      <trkpt lat="43.53921" lon="5.77177">
        <ele>473.32</ele>
        <time>2019-01-19T08:39:48Z</time>
      </trkpt>
      <trkpt lat="43.5394" lon="5.77171">
        <ele>475.38</ele>
        <time>2019-01-19T08:39:57Z</time>
      </trkpt>
      <trkpt lat="43.53958" lon="5.77166">
        <ele>476.39</ele>
        <time>2019-01-19T08:40:06Z</time>
      </trkpt>
      <trkpt lat="43.53976" lon="5.7716">
        <ele>477.93</ele>
        <time>2019-01-19T08:40:16Z</time>
      </trkpt>
      <trkpt lat="43.53994" lon="5.77153">
        <ele>480.38</ele>
        <time>2019-01-19T08:40:27Z</time>
      </trkpt>
      <trkpt lat="43.54012" lon="5.77146">
        <ele>484</ele>
        <time>2019-01-19T08:40:39Z</time>
      </trkpt>
      <trkpt lat="43.54029" lon="5.77136">
        <ele>487.24</ele>
        <time>2019-01-19T08:40:52Z</time>
      </trkpt>
      <trkpt lat="43.54045" lon="5.77123">
        <ele>490.81</ele>
        <time>2019-01-19T08:41:05Z</time>
      </trkpt>
      <trkpt lat="43.54061" lon="5.77107">
        <ele>492.64</ele>
        <time>2019-01-19T08:41:17Z</time>
      </trkpt>
      <trkpt lat="43.54075" lon="5.77091">
        <ele>493.56</ele>
        <time>2019-01-19T08:41:27Z</time>
      </trkpt>
      <trkpt lat="43.54088" lon="5.77073">
        <ele>494.44</ele>
        <time>2019-01-19T08:41:37Z</time>
      </trkpt>
      <trkpt lat="43.541" lon="5.77053">
        <ele>495.94</ele>
        <time>2019-01-19T08:41:48Z</time>
      </trkpt>
      <trkpt lat="43.54112" lon="5.77032">
        <ele>496.92</ele>
        <time>2019-01-19T08:41:58Z</time>
      </trkpt>
      <trkpt lat="43.54122" lon="5.77011">
        <ele>498.02</ele>
        <time>2019-01-19T08:42:06Z</time>
      </trkpt>
      <trkpt lat="43.54131" lon="5.76986">
        <ele>498.82</ele>
        <time>2019-01-19T08:42:14Z</time>
      </trkpt>
      <trkpt lat="43.54139" lon="5.76963">
        <ele>499.93</ele>
        <time>2019-01-19T08:42:21Z</time>
      </trkpt>
      <trkpt lat="43.54143" lon="5.76937">
        <ele>500.62</ele>
        <time>2019-01-19T08:42:28Z</time>
      </trkpt>
      <trkpt lat="43.54147" lon="5.76912">
        <ele>500.81</ele>
        <time>2019-01-19T08:42:34Z</time>
      </trkpt>
      <trkpt lat="43.54151" lon="5.76883">
        <ele>500.89</ele>
        <time>2019-01-19T08:42:40Z</time>
      </trkpt>
      <trkpt lat="43.54153" lon="5.76857">
        <ele>500.75</ele>
        <time>2019-01-19T08:42:45Z</time>
      </trkpt>
      <trkpt lat="43.54157" lon="5.76831">
        <ele>500.29</ele>
        <time>2019-01-19T08:42:50Z</time>
      </trkpt>
      <trkpt lat="43.54163" lon="5.76804">
        <ele>500.27</ele>
        <time>2019-01-19T08:42:55Z</time>
      </trkpt>
      <trkpt lat="43.54169" lon="5.76778">
        <ele>499.84</ele>
        <time>2019-01-19T08:43:00Z</time>
      </trkpt>
      <trkpt lat="43.54176" lon="5.76754">
        <ele>500.51</ele>
        <time>2019-01-19T08:43:05Z</time>
      </trkpt>
      <trkpt lat="43.54185" lon="5.76731">
        <ele>501.71</ele>
        <time>2019-01-19T08:43:10Z</time>
      </trkpt>
      <trkpt lat="43.54193" lon="5.76707">
        <ele>501.49</ele>
        <time>2019-01-19T08:43:15Z</time>
      </trkpt>
      <trkpt lat="43.542" lon="5.76683">
        <ele>500.28</ele>
        <time>2019-01-19T08:43:20Z</time>
      </trkpt>
      <trkpt lat="43.54208" lon="5.76658">
        <ele>500.92</ele>
        <time>2019-01-19T08:43:25Z</time>
      </trkpt>
      <trkpt lat="43.54216" lon="5.76631">
        <ele>500.72</ele>
        <time>2019-01-19T08:43:31Z</time>
      </trkpt>
      <trkpt lat="43.5422" lon="5.76606">
        <ele>501.55</ele>
        <time>2019-01-19T08:43:37Z</time>
      </trkpt>
      <trkpt lat="43.54223" lon="5.76579">
        <ele>502.54</ele>
        <time>2019-01-19T08:43:44Z</time>
      </trkpt>
      <trkpt lat="43.54221" lon="5.76552">
        <ele>503.76</ele>
        <time>2019-01-19T08:43:51Z</time>
      </trkpt>
      <trkpt lat="43.54219" lon="5.76527">
        <ele>504.56</ele>
        <time>2019-01-19T08:43:58Z</time>
      </trkpt>
      <trkpt lat="43.54211" lon="5.76501">
        <ele>503.06</ele>
        <time>2019-01-19T08:44:06Z</time>
      </trkpt>
      <trkpt lat="43.54194" lon="5.76491">
        <ele>501.56</ele>
        <time>2019-01-19T08:44:12Z</time>
      </trkpt>
      <trkpt lat="43.54175" lon="5.76509">
        <ele>497.8</ele>
        <time>2019-01-19T08:44:17Z</time>
      </trkpt>
      <trkpt lat="43.54156" lon="5.76526">
        <ele>494.68</ele>
        <time>2019-01-19T08:44:21Z</time>
      </trkpt>
      <trkpt lat="43.54139" lon="5.76541">
        <ele>491.64</ele>
        <time>2019-01-19T08:44:24Z</time>
      </trkpt>
      <trkpt lat="43.54119" lon="5.76555">
        <ele>488.19</ele>
        <time>2019-01-19T08:44:27Z</time>
      </trkpt>
      <trkpt lat="43.541" lon="5.7657">
        <ele>486.16</ele>
        <time>2019-01-19T08:44:30Z</time>
      </trkpt>
      <trkpt lat="43.54082" lon="5.76578">
        <ele>483.2</ele>
        <time>2019-01-19T08:44:33Z</time>
      </trkpt>
      <trkpt lat="43.54062" lon="5.7658">
        <ele>480.71</ele>
        <time>2019-01-19T08:44:36Z</time>
      </trkpt>
      <trkpt lat="43.54043" lon="5.76573">
        <ele>478.49</ele>
        <time>2019-01-19T08:44:39Z</time>
      </trkpt>
      <trkpt lat="43.54021" lon="5.76559">
        <ele>476.62</ele>
        <time>2019-01-19T08:44:42Z</time>
      </trkpt>
      <trkpt lat="43.54006" lon="5.7654">
        <ele>475.27</ele>
        <time>2019-01-19T08:44:45Z</time>
      </trkpt>
      <trkpt lat="43.54003" lon="5.76515">
        <ele>474.38</ele>
        <time>2019-01-19T08:44:48Z</time>
      </trkpt>
      <trkpt lat="43.54001" lon="5.76488">
        <ele>473.43</ele>
        <time>2019-01-19T08:44:51Z</time>
      </trkpt>
      <trkpt lat="43.53998" lon="5.76459">
        <ele>473.17</ele>
        <time>2019-01-19T08:44:54Z</time>
      </trkpt>
      <trkpt lat="43.53996" lon="5.76432">
        <ele>472.61</ele>
        <time>2019-01-19T08:44:57Z</time>
      </trkpt>
      <trkpt lat="43.53991" lon="5.76405">
        <ele>472.01</ele>
        <time>2019-01-19T08:45:00Z</time>
      </trkpt>
      <trkpt lat="43.53986" lon="5.76378">
        <ele>470.95</ele>
        <time>2019-01-19T08:45:03Z</time>
      </trkpt>
      <trkpt lat="43.53985" lon="5.76351">
        <ele>469.87</ele>
        <time>2019-01-19T08:45:06Z</time>
      </trkpt>
      <trkpt lat="43.53982" lon="5.76322">
        <ele>468.78</ele>
        <time>2019-01-19T08:45:10Z</time>
      </trkpt>
      <trkpt lat="43.53974" lon="5.76299">
        <ele>467.07</ele>
        <time>2019-01-19T08:45:14Z</time>
      </trkpt>
      <trkpt lat="43.53966" lon="5.76273">
        <ele>465.37</ele>
        <time>2019-01-19T08:45:18Z</time>
      </trkpt>
      <trkpt lat="43.53957" lon="5.76247">
        <ele>464.32</ele>
        <time>2019-01-19T08:45:22Z</time>
      </trkpt>
      <trkpt lat="43.53946" lon="5.76226">
        <ele>463.69</ele>
        <time>2019-01-19T08:45:26Z</time>
      </trkpt>
      <trkpt lat="43.53935" lon="5.76204">
        <ele>463.3</ele>
        <time>2019-01-19T08:45:30Z</time>
      </trkpt>
      <trkpt lat="43.53928" lon="5.7618">
        <ele>463.11</ele>
        <time>2019-01-19T08:45:34Z</time>
      </trkpt>
      <trkpt lat="43.53922" lon="5.76147">
        <ele>462.82</ele>
        <time>2019-01-19T08:45:38Z</time>
      </trkpt>
      <trkpt lat="43.53918" lon="5.76121">
        <ele>461.39</ele>
        <time>2019-01-19T08:45:41Z</time>
      </trkpt>
      <trkpt lat="43.53914" lon="5.76092">
        <ele>458.97</ele>
        <time>2019-01-19T08:45:44Z</time>
      </trkpt>
      <trkpt lat="43.53909" lon="5.76064">
        <ele>456.6</ele>
        <time>2019-01-19T08:45:47Z</time>
      </trkpt>
      <trkpt lat="43.53905" lon="5.76038">
        <ele>454.03</ele>
        <time>2019-01-19T08:45:50Z</time>
      </trkpt>
      <trkpt lat="43.539" lon="5.76013">
        <ele>451.22</ele>
        <time>2019-01-19T08:45:53Z</time>
      </trkpt>
      <trkpt lat="43.53895" lon="5.75986">
        <ele>447.62</ele>
        <time>2019-01-19T08:45:57Z</time>
      </trkpt>
      <trkpt lat="43.53895" lon="5.75958">
        <ele>438.79</ele>
        <time>2019-01-19T08:54:02Z</time>
      </trkpt>
      <trkpt lat="43.53909" lon="5.75937">
        <ele>438.67</ele>
        <time>2019-01-19T08:54:12Z</time>
      </trkpt>
      <trkpt lat="43.53922" lon="5.75916">
        <ele>439.74</ele>
        <time>2019-01-19T08:54:20Z</time>
      </trkpt>
      <trkpt lat="43.53933" lon="5.75894">
        <ele>440.42</ele>
        <time>2019-01-19T08:54:29Z</time>
      </trkpt>
      <trkpt lat="43.53945" lon="5.75875">
        <ele>441.25</ele>
        <time>2019-01-19T08:54:36Z</time>
      </trkpt>
      <trkpt lat="43.53959" lon="5.75855">
        <ele>442.53</ele>
        <time>2019-01-19T08:54:44Z</time>
      </trkpt>
      <trkpt lat="43.53972" lon="5.75835">
        <ele>443.23</ele>
        <time>2019-01-19T08:54:53Z</time>
      </trkpt>
      <trkpt lat="43.53984" lon="5.75815">
        <ele>443.11</ele>
        <time>2019-01-19T08:55:03Z</time>
      </trkpt>
      <trkpt lat="43.53998" lon="5.75795">
        <ele>443.12</ele>
        <time>2019-01-19T08:55:13Z</time>
      </trkpt>
      <trkpt lat="43.54008" lon="5.75774">
        <ele>444.44</ele>
        <time>2019-01-19T08:55:23Z</time>
      </trkpt>
      <trkpt lat="43.5402" lon="5.75752">
        <ele>444.63</ele>
        <time>2019-01-19T08:55:32Z</time>
      </trkpt>
      <trkpt lat="43.54031" lon="5.75732">
        <ele>444.68</ele>
        <time>2019-01-19T08:55:40Z</time>
      </trkpt>
      <trkpt lat="43.54039" lon="5.75707">
        <ele>444.37</ele>
        <time>2019-01-19T08:55:49Z</time>
      </trkpt>
      <trkpt lat="43.5405" lon="5.75686">
        <ele>444.1</ele>
        <time>2019-01-19T08:55:57Z</time>
      </trkpt>
      <trkpt lat="43.5406" lon="5.75661">
        <ele>443.15</ele>
        <time>2019-01-19T08:56:07Z</time>
      </trkpt>
      <trkpt lat="43.54069" lon="5.7564">
        <ele>442.19</ele>
        <time>2019-01-19T08:56:18Z</time>
      </trkpt>
      <trkpt lat="43.54076" lon="5.75615">
        <ele>440.99</ele>
        <time>2019-01-19T08:56:29Z</time>
      </trkpt>
      <trkpt lat="43.54082" lon="5.75591">
        <ele>440.76</ele>
        <time>2019-01-19T08:56:39Z</time>
      </trkpt>
      <trkpt lat="43.54088" lon="5.75565">
        <ele>440.47</ele>
        <time>2019-01-19T08:56:50Z</time>
      </trkpt>
      <trkpt lat="43.54094" lon="5.75539">
        <ele>440.88</ele>
        <time>2019-01-19T08:56:59Z</time>
      </trkpt>
      <trkpt lat="43.54097" lon="5.75514">
        <ele>440.65</ele>
        <time>2019-01-19T08:57:07Z</time>
      </trkpt>
      <trkpt lat="43.54098" lon="5.75488">
        <ele>438.27</ele>
        <time>2019-01-19T08:57:57Z</time>
      </trkpt>
      <trkpt lat="43.54099" lon="5.7546">
        <ele>439.04</ele>
        <time>2019-01-19T08:58:21Z</time>
      </trkpt>
      <trkpt lat="43.54097" lon="5.75434">
        <ele>439.35</ele>
        <time>2019-01-19T08:58:30Z</time>
      </trkpt>
      <trkpt lat="43.541" lon="5.75406">
        <ele>439.79</ele>
        <time>2019-01-19T08:58:38Z</time>
      </trkpt>
      <trkpt lat="43.54102" lon="5.75381">
        <ele>438.46</ele>
        <time>2019-01-19T08:58:44Z</time>
      </trkpt>
      <trkpt lat="43.54105" lon="5.75355">
        <ele>438.09</ele>
        <time>2019-01-19T08:58:50Z</time>
      </trkpt>
      <trkpt lat="43.54106" lon="5.75328">
        <ele>437.21</ele>
        <time>2019-01-19T08:58:56Z</time>
      </trkpt>
      <trkpt lat="43.54108" lon="5.75302">
        <ele>436.88</ele>
        <time>2019-01-19T08:59:01Z</time>
      </trkpt>
      <trkpt lat="43.54102" lon="5.75278">
        <ele>436.65</ele>
        <time>2019-01-19T08:59:08Z</time>
      </trkpt>
      <trkpt lat="43.5409" lon="5.75258">
        <ele>439.8</ele>
        <time>2019-01-19T08:59:18Z</time>
      </trkpt>
      <trkpt lat="43.54074" lon="5.75243">
        <ele>442.79</ele>
        <time>2019-01-19T08:59:29Z</time>
      </trkpt>
      <trkpt lat="43.5406" lon="5.75226">
        <ele>448.66</ele>
        <time>2019-01-19T08:59:44Z</time>
      </trkpt>
      <trkpt lat="43.54044" lon="5.75214">
        <ele>454.77</ele>
        <time>2019-01-19T08:59:57Z</time>
      </trkpt>
      <trkpt lat="43.54024" lon="5.75208">
        <ele>459.25</ele>
        <time>2019-01-19T09:00:07Z</time>
      </trkpt>
      <trkpt lat="43.5401" lon="5.7519">
        <ele>465.94</ele>
        <time>2019-01-19T09:00:20Z</time>
      </trkpt>
      <trkpt lat="43.53993" lon="5.75183">
        <ele>470.28</ele>
        <time>2019-01-19T09:00:30Z</time>
      </trkpt>
      <trkpt lat="43.53975" lon="5.75179">
        <ele>471.91</ele>
        <time>2019-01-19T09:00:40Z</time>
      </trkpt>
      <trkpt lat="43.53959" lon="5.75165">
        <ele>469.49</ele>
        <time>2019-01-19T09:00:51Z</time>
      </trkpt>
      <trkpt lat="43.53949" lon="5.75144">
        <ele>469.21</ele>
        <time>2019-01-19T09:01:04Z</time>
      </trkpt>
      <trkpt lat="43.53933" lon="5.75132">
        <ele>469.95</ele>
        <time>2019-01-19T09:01:20Z</time>
      </trkpt>
      <trkpt lat="43.53915" lon="5.75125">
        <ele>473.61</ele>
        <time>2019-01-19T09:01:36Z</time>
      </trkpt>
      <trkpt lat="43.53896" lon="5.75122">
        <ele>474.36</ele>
        <time>2019-01-19T09:01:56Z</time>
      </trkpt>
      <trkpt lat="43.53878" lon="5.75124">
        <ele>472.27</ele>
        <time>2019-01-19T09:02:27Z</time>
      </trkpt>
      <trkpt lat="43.5386" lon="5.75121">
        <ele>472.24</ele>
        <time>2019-01-19T09:02:48Z</time>
      </trkpt>
      <trkpt lat="43.53842" lon="5.75116">
        <ele>473.06</ele>
        <time>2019-01-19T09:03:06Z</time>
      </trkpt>
      <trkpt lat="43.53825" lon="5.75108">
        <ele>474.55</ele>
        <time>2019-01-19T09:03:24Z</time>
      </trkpt>
      <trkpt lat="43.53812" lon="5.75086">
        <ele>473.39</ele>
        <time>2019-01-19T09:07:20Z</time>
      </trkpt>
      <trkpt lat="43.53796" lon="5.75071">
        <ele>471.67</ele>
        <time>2019-01-19T09:07:26Z</time>
      </trkpt>
      <trkpt lat="43.53781" lon="5.75051">
        <ele>468.05</ele>
        <time>2019-01-19T09:07:31Z</time>
      </trkpt>
      <trkpt lat="43.53768" lon="5.75028">
        <ele>463.9</ele>
        <time>2019-01-19T09:07:36Z</time>
      </trkpt>
      <trkpt lat="43.53755" lon="5.75004">
        <ele>459.01</ele>
        <time>2019-01-19T09:07:41Z</time>
      </trkpt>
      <trkpt lat="43.53744" lon="5.74981">
        <ele>455.75</ele>
        <time>2019-01-19T09:07:45Z</time>
      </trkpt>
      <trkpt lat="43.53733" lon="5.74953">
        <ele>452.21</ele>
        <time>2019-01-19T09:07:49Z</time>
      </trkpt>
      <trkpt lat="43.53722" lon="5.74927">
        <ele>448.7</ele>
        <time>2019-01-19T09:07:53Z</time>
      </trkpt>
      <trkpt lat="43.53704" lon="5.74928">
        <ele>443.43</ele>
        <time>2019-01-19T09:08:00Z</time>
      </trkpt>
      <trkpt lat="43.53687" lon="5.7494">
        <ele>441.01</ele>
        <time>2019-01-19T09:08:05Z</time>
      </trkpt>
      <trkpt lat="43.53663" lon="5.74941">
        <ele>439.31</ele>
        <time>2019-01-19T09:08:09Z</time>
      </trkpt>
      <trkpt lat="43.53642" lon="5.74943">
        <ele>437.72</ele>
        <time>2019-01-19T09:08:12Z</time>
      </trkpt>
      <trkpt lat="43.5362" lon="5.74945">
        <ele>436.47</ele>
        <time>2019-01-19T09:08:15Z</time>
      </trkpt>
      <trkpt lat="43.53599" lon="5.74942">
        <ele>434.98</ele>
        <time>2019-01-19T09:08:18Z</time>
      </trkpt>
      <trkpt lat="43.5358" lon="5.74938">
        <ele>433.93</ele>
        <time>2019-01-19T09:08:22Z</time>
      </trkpt>
      <trkpt lat="43.53563" lon="5.74927">
        <ele>434.75</ele>
        <time>2019-01-19T09:09:17Z</time>
      </trkpt>
      <trkpt lat="43.53571" lon="5.74904">
        <ele>436.54</ele>
        <time>2019-01-19T09:09:30Z</time>
      </trkpt>
      <trkpt lat="43.53579" lon="5.74879">
        <ele>438.54</ele>
        <time>2019-01-19T09:09:41Z</time>
      </trkpt>
      <trkpt lat="43.53585" lon="5.74853">
        <ele>440.14</ele>
        <time>2019-01-19T09:09:51Z</time>
      </trkpt>
      <trkpt lat="43.53594" lon="5.74829">
        <ele>441.92</ele>
        <time>2019-01-19T09:09:59Z</time>
      </trkpt>
      <trkpt lat="43.53602" lon="5.74806">
        <ele>443.11</ele>
        <time>2019-01-19T09:10:07Z</time>
      </trkpt>
      <trkpt lat="43.53612" lon="5.74781">
        <ele>444.74</ele>
        <time>2019-01-19T09:10:15Z</time>
      </trkpt>
      <trkpt lat="43.53623" lon="5.74756">
        <ele>445.35</ele>
        <time>2019-01-19T09:10:22Z</time>
      </trkpt>
      <trkpt lat="43.53634" lon="5.74734">
        <ele>446.67</ele>
        <time>2019-01-19T09:10:29Z</time>
      </trkpt>
      <trkpt lat="43.53647" lon="5.74714">
        <ele>448.35</ele>
        <time>2019-01-19T09:10:36Z</time>
      </trkpt>
      <trkpt lat="43.53661" lon="5.74694">
        <ele>450.43</ele>
        <time>2019-01-19T09:10:44Z</time>
      </trkpt>
      <trkpt lat="43.53674" lon="5.74675">
        <ele>453.62</ele>
        <time>2019-01-19T09:10:52Z</time>
      </trkpt>
      <trkpt lat="43.53685" lon="5.74656">
        <ele>455.57</ele>
        <time>2019-01-19T09:11:00Z</time>
      </trkpt>
      <trkpt lat="43.53699" lon="5.74635">
        <ele>458.18</ele>
        <time>2019-01-19T09:11:08Z</time>
      </trkpt>
      <trkpt lat="43.53712" lon="5.74616">
        <ele>459.6</ele>
        <time>2019-01-19T09:11:15Z</time>
      </trkpt>
      <trkpt lat="43.53725" lon="5.74598">
        <ele>460.19</ele>
        <time>2019-01-19T09:11:23Z</time>
      </trkpt>
      <trkpt lat="43.53739" lon="5.74579">
        <ele>461.62</ele>
        <time>2019-01-19T09:11:31Z</time>
      </trkpt>
      <trkpt lat="43.5375" lon="5.74557">
        <ele>462.34</ele>
        <time>2019-01-19T09:11:37Z</time>
      </trkpt>
      <trkpt lat="43.53758" lon="5.74534">
        <ele>461.26</ele>
        <time>2019-01-19T09:11:43Z</time>
      </trkpt>
      <trkpt lat="43.53747" lon="5.74509">
        <ele>457.86</ele>
        <time>2019-01-19T09:11:49Z</time>
      </trkpt>
      <trkpt lat="43.53734" lon="5.74488">
        <ele>456.58</ele>
        <time>2019-01-19T09:11:54Z</time>
      </trkpt>
      <trkpt lat="43.53721" lon="5.7447">
        <ele>455.43</ele>
        <time>2019-01-19T09:11:57Z</time>
      </trkpt>
      <trkpt lat="43.53713" lon="5.74443">
        <ele>453.79</ele>
        <time>2019-01-19T09:12:00Z</time>
      </trkpt>
      <trkpt lat="43.53708" lon="5.74414">
        <ele>452.65</ele>
        <time>2019-01-19T09:12:03Z</time>
      </trkpt>
      <trkpt lat="43.53704" lon="5.74386">
        <ele>449.75</ele>
        <time>2019-01-19T09:12:06Z</time>
      </trkpt>
      <trkpt lat="43.53693" lon="5.74361">
        <ele>447.14</ele>
        <time>2019-01-19T09:12:10Z</time>
      </trkpt>
      <trkpt lat="43.53676" lon="5.74343">
        <ele>443.36</ele>
        <time>2019-01-19T09:12:15Z</time>
      </trkpt>
      <trkpt lat="43.53661" lon="5.74323">
        <ele>441.49</ele>
        <time>2019-01-19T09:12:19Z</time>
      </trkpt>
      <trkpt lat="43.53648" lon="5.743">
        <ele>439.04</ele>
        <time>2019-01-19T09:12:23Z</time>
      </trkpt>
      <trkpt lat="43.53633" lon="5.74279">
        <ele>436.7</ele>
        <time>2019-01-19T09:12:27Z</time>
      </trkpt>
      <trkpt lat="43.53614" lon="5.74265">
        <ele>435.26</ele>
        <time>2019-01-19T09:12:31Z</time>
      </trkpt>
      <trkpt lat="43.53596" lon="5.74245">
        <ele>433.55</ele>
        <time>2019-01-19T09:12:35Z</time>
      </trkpt>
      <trkpt lat="43.53582" lon="5.74227">
        <ele>432.26</ele>
        <time>2019-01-19T09:12:39Z</time>
      </trkpt>
      <trkpt lat="43.53569" lon="5.74205">
        <ele>431.34</ele>
        <time>2019-01-19T09:12:43Z</time>
      </trkpt>
      <trkpt lat="43.53555" lon="5.74186">
        <ele>430.07</ele>
        <time>2019-01-19T09:12:46Z</time>
      </trkpt>
      <trkpt lat="43.53541" lon="5.74163">
        <ele>429.08</ele>
        <time>2019-01-19T09:12:50Z</time>
      </trkpt>
      <trkpt lat="43.53523" lon="5.74153">
        <ele>427.41</ele>
        <time>2019-01-19T09:12:56Z</time>
      </trkpt>
      <trkpt lat="43.53506" lon="5.74135">
        <ele>426.62</ele>
        <time>2019-01-19T09:13:00Z</time>
      </trkpt>
      <trkpt lat="43.53489" lon="5.7412">
        <ele>425.75</ele>
        <time>2019-01-19T09:13:03Z</time>
      </trkpt>
      <trkpt lat="43.53483" lon="5.74091">
        <ele>423.67</ele>
        <time>2019-01-19T09:13:08Z</time>
      </trkpt>
      <trkpt lat="43.53473" lon="5.7407">
        <ele>422.62</ele>
        <time>2019-01-19T09:13:12Z</time>
      </trkpt>
      <trkpt lat="43.53453" lon="5.74059">
        <ele>421.24</ele>
        <time>2019-01-19T09:13:18Z</time>
      </trkpt>
      <trkpt lat="43.53437" lon="5.74041">
        <ele>419.56</ele>
        <time>2019-01-19T09:13:22Z</time>
      </trkpt>
      <trkpt lat="43.53425" lon="5.74015">
        <ele>418.2</ele>
        <time>2019-01-19T09:13:27Z</time>
      </trkpt>
      <trkpt lat="43.53412" lon="5.73997">
        <ele>416.2</ele>
        <time>2019-01-19T09:13:32Z</time>
      </trkpt>
      <trkpt lat="43.53391" lon="5.73989">
        <ele>413.93</ele>
        <time>2019-01-19T09:13:38Z</time>
      </trkpt>
      <trkpt lat="43.5337" lon="5.73982">
        <ele>412.72</ele>
        <time>2019-01-19T09:13:42Z</time>
      </trkpt>
      <trkpt lat="43.53344" lon="5.73974">
        <ele>411.3</ele>
        <time>2019-01-19T09:13:46Z</time>
      </trkpt>
      <trkpt lat="43.53326" lon="5.73972">
        <ele>410.52</ele>
        <time>2019-01-19T09:13:49Z</time>
      </trkpt>
      <trkpt lat="43.53303" lon="5.73973">
        <ele>408.33</ele>
        <time>2019-01-19T09:14:01Z</time>
      </trkpt>
      <trkpt lat="43.53287" lon="5.73955">
        <ele>406.32</ele>
        <time>2019-01-19T09:14:21Z</time>
      </trkpt>
      <trkpt lat="43.53283" lon="5.73927">
        <ele>405.9</ele>
        <time>2019-01-19T09:14:27Z</time>
      </trkpt>
      <trkpt lat="43.53274" lon="5.73901">
        <ele>405.29</ele>
        <time>2019-01-19T09:14:32Z</time>
      </trkpt>
      <trkpt lat="43.53256" lon="5.73908">
        <ele>402.82</ele>
        <time>2019-01-19T09:14:42Z</time>
      </trkpt>
      <trkpt lat="43.53238" lon="5.73894">
        <ele>402.39</ele>
        <time>2019-01-19T09:14:47Z</time>
      </trkpt>
      <trkpt lat="43.53228" lon="5.73873">
        <ele>403.08</ele>
        <time>2019-01-19T09:14:52Z</time>
      </trkpt>
      <trkpt lat="43.53218" lon="5.7385">
        <ele>402.57</ele>
        <time>2019-01-19T09:14:57Z</time>
      </trkpt>
      <trkpt lat="43.53207" lon="5.73828">
        <ele>400</ele>
        <time>2019-01-19T09:15:03Z</time>
      </trkpt>
      <trkpt lat="43.53187" lon="5.73828">
        <ele>398.8</ele>
        <time>2019-01-19T09:15:08Z</time>
      </trkpt>
      <trkpt lat="43.53167" lon="5.73819">
        <ele>398.13</ele>
        <time>2019-01-19T09:15:12Z</time>
      </trkpt>
      <trkpt lat="43.53146" lon="5.73812">
        <ele>397.87</ele>
        <time>2019-01-19T09:15:16Z</time>
      </trkpt>
      <trkpt lat="43.53131" lon="5.73792">
        <ele>397.85</ele>
        <time>2019-01-19T09:15:20Z</time>
      </trkpt>
      <trkpt lat="43.53114" lon="5.73768">
        <ele>397.78</ele>
        <time>2019-01-19T09:15:24Z</time>
      </trkpt>
      <trkpt lat="43.531" lon="5.73743">
        <ele>397.55</ele>
        <time>2019-01-19T09:15:28Z</time>
      </trkpt>
      <trkpt lat="43.53085" lon="5.7372">
        <ele>397.77</ele>
        <time>2019-01-19T09:15:32Z</time>
      </trkpt>
      <trkpt lat="43.53071" lon="5.73704">
        <ele>397.85</ele>
        <time>2019-01-19T09:15:35Z</time>
      </trkpt>
      <trkpt lat="43.53062" lon="5.73678">
        <ele>397.75</ele>
        <time>2019-01-19T09:15:38Z</time>
      </trkpt>
      <trkpt lat="43.53055" lon="5.73651">
        <ele>398.22</ele>
        <time>2019-01-19T09:15:41Z</time>
      </trkpt>
      <trkpt lat="43.53053" lon="5.73625">
        <ele>398.44</ele>
        <time>2019-01-19T09:15:44Z</time>
      </trkpt>
      <trkpt lat="43.53053" lon="5.73597">
        <ele>398.74</ele>
        <time>2019-01-19T09:15:47Z</time>
      </trkpt>
      <trkpt lat="43.53056" lon="5.73569">
        <ele>398.89</ele>
        <time>2019-01-19T09:15:50Z</time>
      </trkpt>
      <trkpt lat="43.53061" lon="5.73541">
        <ele>398.01</ele>
        <time>2019-01-19T09:15:53Z</time>
      </trkpt>
      <trkpt lat="43.53049" lon="5.73516">
        <ele>397.79</ele>
        <time>2019-01-19T09:15:58Z</time>
      </trkpt>
      <trkpt lat="43.53042" lon="5.73488">
        <ele>394.73</ele>
        <time>2019-01-19T09:16:07Z</time>
      </trkpt>
      <trkpt lat="43.53021" lon="5.7348">
        <ele>387.54</ele>
        <time>2019-01-19T09:16:16Z</time>
      </trkpt>
      <trkpt lat="43.52998" lon="5.7348">
        <ele>386.64</ele>
        <time>2019-01-19T09:16:20Z</time>
      </trkpt>
      <trkpt lat="43.52973" lon="5.73478">
        <ele>385.94</ele>
        <time>2019-01-19T09:16:23Z</time>
      </trkpt>
      <trkpt lat="43.52947" lon="5.73471">
        <ele>384.78</ele>
        <time>2019-01-19T09:16:25Z</time>
      </trkpt>
      <trkpt lat="43.52928" lon="5.73459">
        <ele>383.55</ele>
        <time>2019-01-19T09:16:27Z</time>
      </trkpt>
      <trkpt lat="43.5291" lon="5.73442">
        <ele>382.82</ele>
        <time>2019-01-19T09:16:30Z</time>
      </trkpt>
      <trkpt lat="43.5289" lon="5.73441">
        <ele>379.96</ele>
        <time>2019-01-19T09:16:34Z</time>
      </trkpt>
      <trkpt lat="43.52873" lon="5.73452">
        <ele>378.55</ele>
        <time>2019-01-19T09:16:37Z</time>
      </trkpt>
      <trkpt lat="43.52851" lon="5.73447">
        <ele>377.29</ele>
        <time>2019-01-19T09:16:40Z</time>
      </trkpt>
      <trkpt lat="43.52827" lon="5.73444">
        <ele>375.68</ele>
        <time>2019-01-19T09:16:43Z</time>
      </trkpt>
      <trkpt lat="43.52806" lon="5.73447">
        <ele>373.56</ele>
        <time>2019-01-19T09:16:46Z</time>
      </trkpt>
      <trkpt lat="43.52789" lon="5.73462">
        <ele>371.99</ele>
        <time>2019-01-19T09:16:49Z</time>
      </trkpt>
      <trkpt lat="43.52773" lon="5.7348">
        <ele>370.35</ele>
        <time>2019-01-19T09:16:53Z</time>
      </trkpt>
      <trkpt lat="43.52757" lon="5.73508">
        <ele>367.6</ele>
        <time>2019-01-19T09:16:57Z</time>
      </trkpt>
      <trkpt lat="43.52759" lon="5.73539">
        <ele>365.56</ele>
        <time>2019-01-19T09:17:01Z</time>
      </trkpt>
      <trkpt lat="43.52752" lon="5.73564">
        <ele>363.1</ele>
        <time>2019-01-19T09:17:05Z</time>
      </trkpt>
      <trkpt lat="43.52732" lon="5.73566">
        <ele>360.5</ele>
        <time>2019-01-19T09:17:10Z</time>
      </trkpt>
      <trkpt lat="43.52717" lon="5.73581">
        <ele>342.99</ele>
        <time>2019-01-19T09:18:11Z</time>
      </trkpt>
      <trkpt lat="43.52719" lon="5.73606">
        <ele>342.45</ele>
        <time>2019-01-19T09:18:24Z</time>
      </trkpt>
      <trkpt lat="43.52718" lon="5.73632">
        <ele>342.58</ele>
        <time>2019-01-19T09:18:36Z</time>
      </trkpt>
      <trkpt lat="43.52709" lon="5.73653">
        <ele>342.07</ele>
        <time>2019-01-19T09:18:53Z</time>
      </trkpt>
      <trkpt lat="43.52709" lon="5.7368">
        <ele>341.75</ele>
        <time>2019-01-19T09:19:10Z</time>
      </trkpt>
      <trkpt lat="43.52716" lon="5.73704">
        <ele>341.01</ele>
        <time>2019-01-19T09:19:20Z</time>
      </trkpt>
      <trkpt lat="43.52707" lon="5.73726">
        <ele>342.64</ele>
        <time>2019-01-19T09:19:53Z</time>
      </trkpt>
      <trkpt lat="43.52713" lon="5.7375">
        <ele>343.27</ele>
        <time>2019-01-19T09:20:16Z</time>
      </trkpt>
      <trkpt lat="43.52728" lon="5.73766">
        <ele>343.37</ele>
        <time>2019-01-19T09:20:32Z</time>
      </trkpt>
      <trkpt lat="43.52743" lon="5.73779">
        <ele>344.59</ele>
        <time>2019-01-19T09:20:59Z</time>
      </trkpt>
      <trkpt lat="43.52756" lon="5.73797">
        <ele>344.46</ele>
        <time>2019-01-19T09:21:15Z</time>
      </trkpt>
      <trkpt lat="43.52762" lon="5.73822">
        <ele>344.77</ele>
        <time>2019-01-19T09:21:28Z</time>
      </trkpt>
      <trkpt lat="43.5276" lon="5.73847">
        <ele>344.85</ele>
        <time>2019-01-19T09:21:42Z</time>
      </trkpt>
      <trkpt lat="43.52762" lon="5.73873">
        <ele>345.82</ele>
        <time>2019-01-19T09:21:51Z</time>
      </trkpt>
      <trkpt lat="43.52763" lon="5.73899">
        <ele>346.7</ele>
        <time>2019-01-19T09:22:01Z</time>
      </trkpt>
      <trkpt lat="43.52765" lon="5.73927">
        <ele>348.16</ele>
        <time>2019-01-19T09:22:10Z</time>
      </trkpt>
      <trkpt lat="43.52755" lon="5.7395">
        <ele>350.91</ele>
        <time>2019-01-19T09:22:21Z</time>
      </trkpt>
      <trkpt lat="43.52745" lon="5.73971">
        <ele>354.79</ele>
        <time>2019-01-19T09:22:32Z</time>
      </trkpt>
      <trkpt lat="43.52731" lon="5.73989">
        <ele>359.07</ele>
        <time>2019-01-19T09:22:43Z</time>
      </trkpt>
      <trkpt lat="43.52717" lon="5.74007">
        <ele>364.47</ele>
        <time>2019-01-19T09:22:55Z</time>
      </trkpt>
      <trkpt lat="43.52726" lon="5.7403">
        <ele>369.35</ele>
        <time>2019-01-19T09:23:17Z</time>
      </trkpt>
      <trkpt lat="43.52744" lon="5.7404">
        <ele>372.3</ele>
        <time>2019-01-19T09:23:31Z</time>
      </trkpt>
      <trkpt lat="43.52763" lon="5.74042">
        <ele>377.28</ele>
        <time>2019-01-19T09:23:43Z</time>
      </trkpt>
      <trkpt lat="43.52782" lon="5.74042">
        <ele>382.21</ele>
        <time>2019-01-19T09:23:56Z</time>
      </trkpt>
      <trkpt lat="43.52801" lon="5.74044">
        <ele>385</ele>
        <time>2019-01-19T09:24:07Z</time>
      </trkpt>
      <trkpt lat="43.52818" lon="5.74054">
        <ele>387.15</ele>
        <time>2019-01-19T09:24:21Z</time>
      </trkpt>
      <trkpt lat="43.52834" lon="5.74067">
        <ele>387.31</ele>
        <time>2019-01-19T09:24:34Z</time>
      </trkpt>
      <trkpt lat="43.5285" lon="5.74078">
        <ele>386.07</ele>
        <time>2019-01-19T09:24:45Z</time>
      </trkpt>
      <trkpt lat="43.52864" lon="5.74096">
        <ele>385.38</ele>
        <time>2019-01-19T09:25:03Z</time>
      </trkpt>
      <trkpt lat="43.52868" lon="5.7412">
        <ele>385.14</ele>
        <time>2019-01-19T09:25:12Z</time>
      </trkpt>
      <trkpt lat="43.52865" lon="5.74145">
        <ele>387.84</ele>
        <time>2019-01-19T09:25:22Z</time>
      </trkpt>
      <trkpt lat="43.52864" lon="5.74173">
        <ele>388.97</ele>
        <time>2019-01-19T09:25:32Z</time>
      </trkpt>
      <trkpt lat="43.52862" lon="5.74198">
        <ele>388.87</ele>
        <time>2019-01-19T09:25:42Z</time>
      </trkpt>
      <trkpt lat="43.52846" lon="5.74212">
        <ele>390</ele>
        <time>2019-01-19T09:25:53Z</time>
      </trkpt>
      <trkpt lat="43.52847" lon="5.74238">
        <ele>389.8</ele>
        <time>2019-01-19T09:26:02Z</time>
      </trkpt>
      <trkpt lat="43.52843" lon="5.74265">
        <ele>390.09</ele>
        <time>2019-01-19T09:26:11Z</time>
      </trkpt>
      <trkpt lat="43.52839" lon="5.74289">
        <ele>391.34</ele>
        <time>2019-01-19T09:26:20Z</time>
      </trkpt>
      <trkpt lat="43.52827" lon="5.74309">
        <ele>393.42</ele>
        <time>2019-01-19T09:26:30Z</time>
      </trkpt>
      <trkpt lat="43.52818" lon="5.74333">
        <ele>395.32</ele>
        <time>2019-01-19T09:26:41Z</time>
      </trkpt>
      <trkpt lat="43.52809" lon="5.74356">
        <ele>398.13</ele>
        <time>2019-01-19T09:26:50Z</time>
      </trkpt>
      <trkpt lat="43.528" lon="5.74378">
        <ele>399.9</ele>
        <time>2019-01-19T09:27:00Z</time>
      </trkpt>
      <trkpt lat="43.52792" lon="5.74401">
        <ele>401.42</ele>
        <time>2019-01-19T09:27:09Z</time>
      </trkpt>
      <trkpt lat="43.52781" lon="5.74423">
        <ele>402.68</ele>
        <time>2019-01-19T09:27:18Z</time>
      </trkpt>
      <trkpt lat="43.52769" lon="5.74443">
        <ele>403.85</ele>
        <time>2019-01-19T09:27:28Z</time>
      </trkpt>
      <trkpt lat="43.52757" lon="5.74473">
        <ele>401.19</ele>
        <time>2019-01-19T09:29:29Z</time>
      </trkpt>
      <trkpt lat="43.52755" lon="5.74499">
        <ele>399.77</ele>
        <time>2019-01-19T09:29:41Z</time>
      </trkpt>
      <trkpt lat="43.52751" lon="5.74524">
        <ele>400.36</ele>
        <time>2019-01-19T09:29:52Z</time>
      </trkpt>
      <trkpt lat="43.52739" lon="5.74545">
        <ele>401.55</ele>
        <time>2019-01-19T09:30:04Z</time>
      </trkpt>
      <trkpt lat="43.52734" lon="5.74572">
        <ele>402.76</ele>
        <time>2019-01-19T09:30:15Z</time>
      </trkpt>
      <trkpt lat="43.52731" lon="5.74599">
        <ele>403.45</ele>
        <time>2019-01-19T09:30:24Z</time>
      </trkpt>
      <trkpt lat="43.52728" lon="5.74623">
        <ele>404.46</ele>
        <time>2019-01-19T09:30:33Z</time>
      </trkpt>
      <trkpt lat="43.52719" lon="5.74646">
        <ele>405.84</ele>
        <time>2019-01-19T09:30:44Z</time>
      </trkpt>
      <trkpt lat="43.52707" lon="5.74666">
        <ele>405.27</ele>
        <time>2019-01-19T09:31:44Z</time>
      </trkpt>
      <trkpt lat="43.52697" lon="5.74688">
        <ele>405.53</ele>
        <time>2019-01-19T09:31:54Z</time>
      </trkpt>
      <trkpt lat="43.52687" lon="5.74712">
        <ele>406.84</ele>
        <time>2019-01-19T09:32:04Z</time>
      </trkpt>
      <trkpt lat="43.52676" lon="5.74731">
        <ele>407.62</ele>
        <time>2019-01-19T09:32:12Z</time>
      </trkpt>
      <trkpt lat="43.52665" lon="5.74751">
        <ele>409.19</ele>
        <time>2019-01-19T09:32:20Z</time>
      </trkpt>
      <trkpt lat="43.52654" lon="5.74771">
        <ele>410.98</ele>
        <time>2019-01-19T09:32:28Z</time>
      </trkpt>
      <trkpt lat="43.52645" lon="5.74794">
        <ele>413.7</ele>
        <time>2019-01-19T09:32:37Z</time>
      </trkpt>
      <trkpt lat="43.52637" lon="5.74819">
        <ele>417.35</ele>
        <time>2019-01-19T09:32:47Z</time>
      </trkpt>
      <trkpt lat="43.52629" lon="5.74841">
        <ele>419.08</ele>
        <time>2019-01-19T09:32:54Z</time>
      </trkpt>
      <trkpt lat="43.52623" lon="5.74865">
        <ele>421.65</ele>
        <time>2019-01-19T09:33:01Z</time>
      </trkpt>
      <trkpt lat="43.52613" lon="5.74889">
        <ele>423.22</ele>
        <time>2019-01-19T09:33:08Z</time>
      </trkpt>
      <trkpt lat="43.52601" lon="5.74912">
        <ele>424</ele>
        <time>2019-01-19T09:33:15Z</time>
      </trkpt>
      <trkpt lat="43.52589" lon="5.74937">
        <ele>425.72</ele>
        <time>2019-01-19T09:33:21Z</time>
      </trkpt>
      <trkpt lat="43.52582" lon="5.74962">
        <ele>426.26</ele>
        <time>2019-01-19T09:33:27Z</time>
      </trkpt>
      <trkpt lat="43.52573" lon="5.74985">
        <ele>425.14</ele>
        <time>2019-01-19T09:33:33Z</time>
      </trkpt>
      <trkpt lat="43.52565" lon="5.7501">
        <ele>422.95</ele>
        <time>2019-01-19T09:33:40Z</time>
      </trkpt>
      <trkpt lat="43.52558" lon="5.75034">
        <ele>418.26</ele>
        <time>2019-01-19T09:33:47Z</time>
      </trkpt>
      <trkpt lat="43.52552" lon="5.7506">
        <ele>416.08</ele>
        <time>2019-01-19T09:33:55Z</time>
      </trkpt>
      <trkpt lat="43.52545" lon="5.75085">
        <ele>412.62</ele>
        <time>2019-01-19T09:34:02Z</time>
      </trkpt>
      <trkpt lat="43.52539" lon="5.75109">
        <ele>410.34</ele>
        <time>2019-01-19T09:34:10Z</time>
      </trkpt>
      <trkpt lat="43.52534" lon="5.75134">
        <ele>409.37</ele>
        <time>2019-01-19T09:34:17Z</time>
      </trkpt>
      <trkpt lat="43.52529" lon="5.75161">
        <ele>408.52</ele>
        <time>2019-01-19T09:34:24Z</time>
      </trkpt>
      <trkpt lat="43.52524" lon="5.75186">
        <ele>406.98</ele>
        <time>2019-01-19T09:34:31Z</time>
      </trkpt>
      <trkpt lat="43.52517" lon="5.75212">
        <ele>405.97</ele>
        <time>2019-01-19T09:34:38Z</time>
      </trkpt>
      <trkpt lat="43.52509" lon="5.75237">
        <ele>405.18</ele>
        <time>2019-01-19T09:34:45Z</time>
      </trkpt>
      <trkpt lat="43.52495" lon="5.75261">
        <ele>405.36</ele>
        <time>2019-01-19T09:34:51Z</time>
      </trkpt>
      <trkpt lat="43.52486" lon="5.75286">
        <ele>404.84</ele>
        <time>2019-01-19T09:34:58Z</time>
      </trkpt>
      <trkpt lat="43.52474" lon="5.75309">
        <ele>404.32</ele>
        <time>2019-01-19T09:35:05Z</time>
      </trkpt>
      <trkpt lat="43.52466" lon="5.75335">
        <ele>403.91</ele>
        <time>2019-01-19T09:35:13Z</time>
      </trkpt>
      <trkpt lat="43.52455" lon="5.75356">
        <ele>405.59</ele>
        <time>2019-01-19T09:37:30Z</time>
      </trkpt>
      <trkpt lat="43.52474" lon="5.75366">
        <ele>407.34</ele>
        <time>2019-01-19T09:37:42Z</time>
      </trkpt>
      <trkpt lat="43.52492" lon="5.75372">
        <ele>408.74</ele>
        <time>2019-01-19T09:37:51Z</time>
      </trkpt>
      <trkpt lat="43.52511" lon="5.7538">
        <ele>409.88</ele>
        <time>2019-01-19T09:38:00Z</time>
      </trkpt>
      <trkpt lat="43.5253" lon="5.75387">
        <ele>410.45</ele>
        <time>2019-01-19T09:38:09Z</time>
      </trkpt>
      <trkpt lat="43.52548" lon="5.75397">
        <ele>410.8</ele>
        <time>2019-01-19T09:38:18Z</time>
      </trkpt>
      <trkpt lat="43.52562" lon="5.75415">
        <ele>408.36</ele>
        <time>2019-01-19T09:38:29Z</time>
      </trkpt>
      <trkpt lat="43.52577" lon="5.75434">
        <ele>405.54</ele>
        <time>2019-01-19T09:38:38Z</time>
      </trkpt>
      <trkpt lat="43.5259" lon="5.75456">
        <ele>403.68</ele>
        <time>2019-01-19T09:38:45Z</time>
      </trkpt>
      <trkpt lat="43.52601" lon="5.75478">
        <ele>401.23</ele>
        <time>2019-01-19T09:38:52Z</time>
      </trkpt>
      <trkpt lat="43.52609" lon="5.75502">
        <ele>399.06</ele>
        <time>2019-01-19T09:38:58Z</time>
      </trkpt>
      <trkpt lat="43.52617" lon="5.7553">
        <ele>397.9</ele>
        <time>2019-01-19T09:39:03Z</time>
      </trkpt>
      <trkpt lat="43.52621" lon="5.75555">
        <ele>396.76</ele>
        <time>2019-01-19T09:39:07Z</time>
      </trkpt>
      <trkpt lat="43.52627" lon="5.75581">
        <ele>396.13</ele>
        <time>2019-01-19T09:39:11Z</time>
      </trkpt>
      <trkpt lat="43.52634" lon="5.75604">
        <ele>396.01</ele>
        <time>2019-01-19T09:39:15Z</time>
      </trkpt>
      <trkpt lat="43.52641" lon="5.75632">
        <ele>396.11</ele>
        <time>2019-01-19T09:39:19Z</time>
      </trkpt>
      <trkpt lat="43.52648" lon="5.75659">
        <ele>396.02</ele>
        <time>2019-01-19T09:39:23Z</time>
      </trkpt>
      <trkpt lat="43.52653" lon="5.75685">
        <ele>394.56</ele>
        <time>2019-01-19T09:39:28Z</time>
      </trkpt>
      <trkpt lat="43.52663" lon="5.75708">
        <ele>392.47</ele>
        <time>2019-01-19T09:39:34Z</time>
      </trkpt>
      <trkpt lat="43.52676" lon="5.75726">
        <ele>391.68</ele>
        <time>2019-01-19T09:39:39Z</time>
      </trkpt>
      <trkpt lat="43.52693" lon="5.75739">
        <ele>391.02</ele>
        <time>2019-01-19T09:39:45Z</time>
      </trkpt>
      <trkpt lat="43.52708" lon="5.75756">
        <ele>390.87</ele>
        <time>2019-01-19T09:39:50Z</time>
      </trkpt>
      <trkpt lat="43.52725" lon="5.75773">
        <ele>389.82</ele>
        <time>2019-01-19T09:39:56Z</time>
      </trkpt>
      <trkpt lat="43.52741" lon="5.75787">
        <ele>387.51</ele>
        <time>2019-01-19T09:40:03Z</time>
      </trkpt>
      <trkpt lat="43.52757" lon="5.75802">
        <ele>385.44</ele>
        <time>2019-01-19T09:40:10Z</time>
      </trkpt>
      <trkpt lat="43.52772" lon="5.75819">
        <ele>385.49</ele>
        <time>2019-01-19T09:40:16Z</time>
      </trkpt>
      <trkpt lat="43.52786" lon="5.75835">
        <ele>385.17</ele>
        <time>2019-01-19T09:40:22Z</time>
      </trkpt>
      <trkpt lat="43.52803" lon="5.75848">
        <ele>382.64</ele>
        <time>2019-01-19T09:40:31Z</time>
      </trkpt>
      <trkpt lat="43.52819" lon="5.75863">
        <ele>381.27</ele>
        <time>2019-01-19T09:40:40Z</time>
      </trkpt>
      <trkpt lat="43.52835" lon="5.75878">
        <ele>377.55</ele>
        <time>2019-01-19T09:40:49Z</time>
      </trkpt>
      <trkpt lat="43.52849" lon="5.75897">
        <ele>378.52</ele>
        <time>2019-01-19T09:40:55Z</time>
      </trkpt>
      <trkpt lat="43.52866" lon="5.75914">
        <ele>375.67</ele>
        <time>2019-01-19T09:41:04Z</time>
      </trkpt>
      <trkpt lat="43.52883" lon="5.75929">
        <ele>373.34</ele>
        <time>2019-01-19T09:41:13Z</time>
      </trkpt>
      <trkpt lat="43.52901" lon="5.75939">
        <ele>371.22</ele>
        <time>2019-01-19T09:41:21Z</time>
      </trkpt>
      <trkpt lat="43.5292" lon="5.7595">
        <ele>372.64</ele>
        <time>2019-01-19T09:41:29Z</time>
      </trkpt>
      <trkpt lat="43.52933" lon="5.75968">
        <ele>371.54</ele>
        <time>2019-01-19T09:41:38Z</time>
      </trkpt>
      <trkpt lat="43.52945" lon="5.75988">
        <ele>370.52</ele>
        <time>2019-01-19T09:41:45Z</time>
      </trkpt>
      <trkpt lat="43.5296" lon="5.76004">
        <ele>369.32</ele>
        <time>2019-01-19T09:41:52Z</time>
      </trkpt>
      <trkpt lat="43.52976" lon="5.76019">
        <ele>368.84</ele>
        <time>2019-01-19T09:41:58Z</time>
      </trkpt>
      <trkpt lat="43.52993" lon="5.76035">
        <ele>368.41</ele>
        <time>2019-01-19T09:42:04Z</time>
      </trkpt>
      <trkpt lat="43.53007" lon="5.76054">
        <ele>368.16</ele>
        <time>2019-01-19T09:42:09Z</time>
      </trkpt>
      <trkpt lat="43.53021" lon="5.76074">
        <ele>368.19</ele>
        <time>2019-01-19T09:42:14Z</time>
      </trkpt>
      <trkpt lat="43.53039" lon="5.76091">
        <ele>369.76</ele>
        <time>2019-01-19T09:42:19Z</time>
      </trkpt>
      <trkpt lat="43.53053" lon="5.76113">
        <ele>371.17</ele>
        <time>2019-01-19T09:42:24Z</time>
      </trkpt>
      <trkpt lat="43.53066" lon="5.76139">
        <ele>370.3</ele>
        <time>2019-01-19T09:42:29Z</time>
      </trkpt>
      <trkpt lat="43.53079" lon="5.76163">
        <ele>370.82</ele>
        <time>2019-01-19T09:42:34Z</time>
      </trkpt>
      <trkpt lat="43.53087" lon="5.76187">
        <ele>370.72</ele>
        <time>2019-01-19T09:42:40Z</time>
      </trkpt>
      <trkpt lat="43.53093" lon="5.76211">
        <ele>375.07</ele>
        <time>2019-01-19T09:42:46Z</time>
      </trkpt>
      <trkpt lat="43.53106" lon="5.76233">
        <ele>403.17</ele>
        <time>2019-01-19T09:44:31Z</time>
      </trkpt>
      <trkpt lat="43.53087" lon="5.76233">
        <ele>408.26</ele>
        <time>2019-01-19T09:44:48Z</time>
      </trkpt>
      <trkpt lat="43.5307" lon="5.76246">
        <ele>408.52</ele>
        <time>2019-01-19T09:44:53Z</time>
      </trkpt>
      <trkpt lat="43.53052" lon="5.76261">
        <ele>408.67</ele>
        <time>2019-01-19T09:44:58Z</time>
      </trkpt>
      <trkpt lat="43.53034" lon="5.76273">
        <ele>408.94</ele>
        <time>2019-01-19T09:45:03Z</time>
      </trkpt>
      <trkpt lat="43.53016" lon="5.76283">
        <ele>409.54</ele>
        <time>2019-01-19T09:45:08Z</time>
      </trkpt>
      <trkpt lat="43.52999" lon="5.76298">
        <ele>409.35</ele>
        <time>2019-01-19T09:45:13Z</time>
      </trkpt>
      <trkpt lat="43.52983" lon="5.76311">
        <ele>409.19</ele>
        <time>2019-01-19T09:45:17Z</time>
      </trkpt>
      <trkpt lat="43.52965" lon="5.76321">
        <ele>409.45</ele>
        <time>2019-01-19T09:45:22Z</time>
      </trkpt>
      <trkpt lat="43.52949" lon="5.7634">
        <ele>409.65</ele>
        <time>2019-01-19T09:45:27Z</time>
      </trkpt>
      <trkpt lat="43.52932" lon="5.76361">
        <ele>409.39</ele>
        <time>2019-01-19T09:45:32Z</time>
      </trkpt>
      <trkpt lat="43.52916" lon="5.76379">
        <ele>408.99</ele>
        <time>2019-01-19T09:45:37Z</time>
      </trkpt>
      <trkpt lat="43.52901" lon="5.76394">
        <ele>409.24</ele>
        <time>2019-01-19T09:45:42Z</time>
      </trkpt>
      <trkpt lat="43.52886" lon="5.76414">
        <ele>408.35</ele>
        <time>2019-01-19T09:45:47Z</time>
      </trkpt>
      <trkpt lat="43.5287" lon="5.76432">
        <ele>407.97</ele>
        <time>2019-01-19T09:45:52Z</time>
      </trkpt>
      <trkpt lat="43.52852" lon="5.76447">
        <ele>407.38</ele>
        <time>2019-01-19T09:45:57Z</time>
      </trkpt>
      <trkpt lat="43.52838" lon="5.76464">
        <ele>407.19</ele>
        <time>2019-01-19T09:46:01Z</time>
      </trkpt>
      <trkpt lat="43.52824" lon="5.76486">
        <ele>406</ele>
        <time>2019-01-19T09:46:06Z</time>
      </trkpt>
      <trkpt lat="43.52804" lon="5.76494">
        <ele>405.59</ele>
        <time>2019-01-19T09:46:11Z</time>
      </trkpt>
      <trkpt lat="43.52786" lon="5.76499">
        <ele>406.34</ele>
        <time>2019-01-19T09:46:16Z</time>
      </trkpt>
      <trkpt lat="43.52765" lon="5.76504">
        <ele>406.18</ele>
        <time>2019-01-19T09:46:21Z</time>
      </trkpt>
      <trkpt lat="43.52745" lon="5.76505">
        <ele>406.62</ele>
        <time>2019-01-19T09:46:25Z</time>
      </trkpt>
      <trkpt lat="43.52727" lon="5.76511">
        <ele>406.03</ele>
        <time>2019-01-19T09:46:29Z</time>
      </trkpt>
      <trkpt lat="43.52705" lon="5.76516">
        <ele>405</ele>
        <time>2019-01-19T09:46:34Z</time>
      </trkpt>
      <trkpt lat="43.52684" lon="5.76522">
        <ele>405.04</ele>
        <time>2019-01-19T09:46:39Z</time>
      </trkpt>
      <trkpt lat="43.52665" lon="5.76527">
        <ele>404.41</ele>
        <time>2019-01-19T09:46:44Z</time>
      </trkpt>
      <trkpt lat="43.52648" lon="5.76538">
        <ele>403.64</ele>
        <time>2019-01-19T09:46:50Z</time>
      </trkpt>
      <trkpt lat="43.5263" lon="5.76541">
        <ele>403.05</ele>
        <time>2019-01-19T09:46:56Z</time>
      </trkpt>
      <trkpt lat="43.52611" lon="5.76553">
        <ele>398.81</ele>
        <time>2019-01-19T09:47:48Z</time>
      </trkpt>
      <trkpt lat="43.52592" lon="5.76545">
        <ele>398.74</ele>
        <time>2019-01-19T09:48:06Z</time>
      </trkpt>
      <trkpt lat="43.52573" lon="5.76538">
        <ele>399.44</ele>
        <time>2019-01-19T09:48:14Z</time>
      </trkpt>
      <trkpt lat="43.52557" lon="5.76524">
        <ele>399.84</ele>
        <time>2019-01-19T09:48:20Z</time>
      </trkpt>
      <trkpt lat="43.52539" lon="5.7651">
        <ele>402.07</ele>
        <time>2019-01-19T09:48:25Z</time>
      </trkpt>
      <trkpt lat="43.52519" lon="5.765">
        <ele>403.43</ele>
        <time>2019-01-19T09:48:32Z</time>
      </trkpt>
      <trkpt lat="43.52501" lon="5.7649">
        <ele>404.27</ele>
        <time>2019-01-19T09:48:39Z</time>
      </trkpt>
      <trkpt lat="43.52482" lon="5.76484">
        <ele>404.68</ele>
        <time>2019-01-19T09:48:45Z</time>
      </trkpt>
      <trkpt lat="43.5246" lon="5.76485">
        <ele>404.35</ele>
        <time>2019-01-19T09:48:52Z</time>
      </trkpt>
      <trkpt lat="43.5244" lon="5.76482">
        <ele>403.22</ele>
        <time>2019-01-19T09:48:58Z</time>
      </trkpt>
      <trkpt lat="43.5242" lon="5.76484">
        <ele>401.91</ele>
        <time>2019-01-19T09:49:04Z</time>
      </trkpt>
      <trkpt lat="43.52401" lon="5.76483">
        <ele>401.69</ele>
        <time>2019-01-19T09:49:11Z</time>
      </trkpt>
      <trkpt lat="43.52381" lon="5.76484">
        <ele>400.99</ele>
        <time>2019-01-19T09:49:18Z</time>
      </trkpt>
      <trkpt lat="43.52361" lon="5.76493">
        <ele>400.51</ele>
        <time>2019-01-19T09:49:25Z</time>
      </trkpt>
      <trkpt lat="43.52341" lon="5.76502">
        <ele>400.07</ele>
        <time>2019-01-19T09:49:31Z</time>
      </trkpt>
      <trkpt lat="43.52324" lon="5.76512">
        <ele>398.8</ele>
        <time>2019-01-19T09:49:38Z</time>
      </trkpt>
      <trkpt lat="43.52305" lon="5.76517">
        <ele>398.69</ele>
        <time>2019-01-19T09:49:44Z</time>
      </trkpt>
      <trkpt lat="43.52284" lon="5.76518">
        <ele>398.81</ele>
        <time>2019-01-19T09:49:51Z</time>
      </trkpt>
      <trkpt lat="43.52264" lon="5.76511">
        <ele>398.48</ele>
        <time>2019-01-19T09:49:58Z</time>
      </trkpt>
      <trkpt lat="43.52247" lon="5.76504">
        <ele>398.47</ele>
        <time>2019-01-19T09:50:03Z</time>
      </trkpt>
      <trkpt lat="43.52229" lon="5.76496">
        <ele>399.48</ele>
        <time>2019-01-19T09:50:08Z</time>
      </trkpt>
      <trkpt lat="43.52211" lon="5.7649">
        <ele>399.48</ele>
        <time>2019-01-19T09:50:13Z</time>
      </trkpt>
      <trkpt lat="43.52193" lon="5.76479">
        <ele>399.09</ele>
        <time>2019-01-19T09:50:21Z</time>
      </trkpt>
      <trkpt lat="43.52175" lon="5.76472">
        <ele>398.81</ele>
        <time>2019-01-19T09:50:27Z</time>
      </trkpt>
      <trkpt lat="43.52157" lon="5.7647">
        <ele>398.86</ele>
        <time>2019-01-19T09:50:32Z</time>
      </trkpt>
      <trkpt lat="43.52139" lon="5.76474">
        <ele>398.98</ele>
        <time>2019-01-19T09:50:38Z</time>
      </trkpt>
      <trkpt lat="43.52123" lon="5.76487">
        <ele>396.61</ele>
        <time>2019-01-19T09:50:47Z</time>
      </trkpt>
      <trkpt lat="43.52108" lon="5.76503">
        <ele>395.97</ele>
        <time>2019-01-19T09:50:54Z</time>
      </trkpt>
      <trkpt lat="43.52089" lon="5.76517">
        <ele>395.19</ele>
        <time>2019-01-19T09:51:00Z</time>
      </trkpt>
      <trkpt lat="43.52073" lon="5.76529">
        <ele>394.67</ele>
        <time>2019-01-19T09:51:05Z</time>
      </trkpt>
      <trkpt lat="43.52058" lon="5.76544">
        <ele>394.37</ele>
        <time>2019-01-19T09:51:13Z</time>
      </trkpt>
      <trkpt lat="43.52052" lon="5.76572">
        <ele>394.49</ele>
        <time>2019-01-19T09:51:22Z</time>
      </trkpt>
      <trkpt lat="43.52041" lon="5.76592">
        <ele>394.04</ele>
        <time>2019-01-19T09:51:30Z</time>
      </trkpt>
      <trkpt lat="43.52041" lon="5.76621">
        <ele>401.27</ele>
        <time>2019-01-19T09:51:49Z</time>
      </trkpt>
      <trkpt lat="43.5204" lon="5.76646">
        <ele>403.17</ele>
        <time>2019-01-19T09:52:17Z</time>
      </trkpt>
      <trkpt lat="43.52039" lon="5.76675">
        <ele>400.88</ele>
        <time>2019-01-19T09:52:24Z</time>
      </trkpt>
      <trkpt lat="43.52034" lon="5.76698">
        <ele>398.22</ele>
        <time>2019-01-19T09:52:31Z</time>
      </trkpt>
      <trkpt lat="43.52019" lon="5.76716">
        <ele>397.13</ele>
        <time>2019-01-19T09:52:39Z</time>
      </trkpt>
      <trkpt lat="43.52003" lon="5.76728">
        <ele>396.21</ele>
        <time>2019-01-19T09:52:47Z</time>
      </trkpt>
      <trkpt lat="43.51983" lon="5.76734">
        <ele>396.49</ele>
        <time>2019-01-19T09:52:54Z</time>
      </trkpt>
      <trkpt lat="43.51967" lon="5.76746">
        <ele>396.39</ele>
        <time>2019-01-19T09:52:59Z</time>
      </trkpt>
      <trkpt lat="43.5195" lon="5.76759">
        <ele>395.94</ele>
        <time>2019-01-19T09:53:06Z</time>
      </trkpt>
      <trkpt lat="43.51932" lon="5.7677">
        <ele>395.99</ele>
        <time>2019-01-19T09:53:11Z</time>
      </trkpt>
      <trkpt lat="43.51916" lon="5.7678">
        <ele>395.99</ele>
        <time>2019-01-19T09:53:16Z</time>
      </trkpt>
      <trkpt lat="43.51898" lon="5.76788">
        <ele>395.22</ele>
        <time>2019-01-19T09:53:21Z</time>
      </trkpt>
      <trkpt lat="43.51884" lon="5.76804">
        <ele>394.67</ele>
        <time>2019-01-19T09:53:29Z</time>
      </trkpt>
      <trkpt lat="43.51879" lon="5.7683">
        <ele>394.19</ele>
        <time>2019-01-19T09:53:38Z</time>
      </trkpt>
      <trkpt lat="43.51877" lon="5.76859">
        <ele>392.92</ele>
        <time>2019-01-19T09:53:47Z</time>
      </trkpt>
      <trkpt lat="43.51877" lon="5.76889">
        <ele>391.44</ele>
        <time>2019-01-19T09:53:52Z</time>
      </trkpt>
      <trkpt lat="43.51878" lon="5.76922">
        <ele>390.39</ele>
        <time>2019-01-19T09:53:56Z</time>
      </trkpt>
      <trkpt lat="43.51869" lon="5.76947">
        <ele>392.45</ele>
        <time>2019-01-19T09:54:03Z</time>
      </trkpt>
      <trkpt lat="43.5186" lon="5.7697">
        <ele>393.04</ele>
        <time>2019-01-19T09:54:08Z</time>
      </trkpt>
      <trkpt lat="43.51848" lon="5.76991">
        <ele>393.35</ele>
        <time>2019-01-19T09:54:14Z</time>
      </trkpt>
      <trkpt lat="43.51835" lon="5.77011">
        <ele>390.76</ele>
        <time>2019-01-19T09:54:20Z</time>
      </trkpt>
      <trkpt lat="43.51816" lon="5.77022">
        <ele>388.77</ele>
        <time>2019-01-19T09:54:27Z</time>
      </trkpt>
      <trkpt lat="43.51797" lon="5.77026">
        <ele>388</ele>
        <time>2019-01-19T09:54:33Z</time>
      </trkpt>
      <trkpt lat="43.51777" lon="5.77023">
        <ele>387</ele>
        <time>2019-01-19T09:54:39Z</time>
      </trkpt>
      <trkpt lat="43.51757" lon="5.77015">
        <ele>385.34</ele>
        <time>2019-01-19T09:54:48Z</time>
      </trkpt>
      <trkpt lat="43.51738" lon="5.77016">
        <ele>384.04</ele>
        <time>2019-01-19T09:54:54Z</time>
      </trkpt>
      <trkpt lat="43.51717" lon="5.7702">
        <ele>383.49</ele>
        <time>2019-01-19T09:55:01Z</time>
      </trkpt>
      <trkpt lat="43.51695" lon="5.77023">
        <ele>383.56</ele>
        <time>2019-01-19T09:55:07Z</time>
      </trkpt>
      <trkpt lat="43.51674" lon="5.77022">
        <ele>383.79</ele>
        <time>2019-01-19T09:55:11Z</time>
      </trkpt>
      <trkpt lat="43.51655" lon="5.77036">
        <ele>383.18</ele>
        <time>2019-01-19T09:55:16Z</time>
      </trkpt>
      <trkpt lat="43.51638" lon="5.77053">
        <ele>382.39</ele>
        <time>2019-01-19T09:55:22Z</time>
      </trkpt>
      <trkpt lat="43.51627" lon="5.77076">
        <ele>381.92</ele>
        <time>2019-01-19T09:55:28Z</time>
      </trkpt>
      <trkpt lat="43.51615" lon="5.77097">
        <ele>380.85</ele>
        <time>2019-01-19T09:55:35Z</time>
      </trkpt>
      <trkpt lat="43.51607" lon="5.77119">
        <ele>379.73</ele>
        <time>2019-01-19T09:55:39Z</time>
      </trkpt>
      <trkpt lat="43.51597" lon="5.77142">
        <ele>379.01</ele>
        <time>2019-01-19T09:55:44Z</time>
      </trkpt>
      <trkpt lat="43.51582" lon="5.77156">
        <ele>378</ele>
        <time>2019-01-19T09:55:50Z</time>
      </trkpt>
      <trkpt lat="43.51562" lon="5.77162">
        <ele>376.98</ele>
        <time>2019-01-19T09:55:56Z</time>
      </trkpt>
      <trkpt lat="43.51543" lon="5.7717">
        <ele>376.49</ele>
        <time>2019-01-19T09:56:01Z</time>
      </trkpt>
      <trkpt lat="43.51524" lon="5.77178">
        <ele>376.55</ele>
        <time>2019-01-19T09:56:07Z</time>
      </trkpt>
      <trkpt lat="43.51504" lon="5.77189">
        <ele>375.66</ele>
        <time>2019-01-19T09:56:12Z</time>
      </trkpt>
      <trkpt lat="43.51487" lon="5.77202">
        <ele>374.06</ele>
        <time>2019-01-19T09:56:17Z</time>
      </trkpt>
      <trkpt lat="43.51469" lon="5.77216">
        <ele>372.82</ele>
        <time>2019-01-19T09:56:22Z</time>
      </trkpt>
      <trkpt lat="43.51457" lon="5.77237">
        <ele>371.26</ele>
        <time>2019-01-19T09:56:28Z</time>
      </trkpt>
      <trkpt lat="43.51458" lon="5.77264">
        <ele>370.59</ele>
        <time>2019-01-19T09:56:39Z</time>
      </trkpt>
      <trkpt lat="43.51468" lon="5.77287">
        <ele>370.74</ele>
        <time>2019-01-19T09:56:47Z</time>
      </trkpt>
      <trkpt lat="43.51482" lon="5.77304">
        <ele>371.64</ele>
        <time>2019-01-19T09:56:53Z</time>
      </trkpt>
      <trkpt lat="43.51492" lon="5.77326">
        <ele>373.38</ele>
        <time>2019-01-19T09:57:00Z</time>
      </trkpt>
      <trkpt lat="43.51491" lon="5.77353">
        <ele>373.92</ele>
        <time>2019-01-19T09:57:07Z</time>
      </trkpt>
      <trkpt lat="43.51486" lon="5.77378">
        <ele>373.69</ele>
        <time>2019-01-19T09:57:14Z</time>
      </trkpt>
      <trkpt lat="43.51484" lon="5.77403">
        <ele>372.56</ele>
        <time>2019-01-19T09:57:23Z</time>
      </trkpt>
      <trkpt lat="43.51489" lon="5.77432">
        <ele>371.35</ele>
        <time>2019-01-19T09:57:33Z</time>
      </trkpt>
      <trkpt lat="43.51508" lon="5.77429">
        <ele>372.53</ele>
        <time>2019-01-19T10:02:38Z</time>
      </trkpt>
      <trkpt lat="43.51525" lon="5.77423">
        <ele>373.64</ele>
        <time>2019-01-19T10:02:50Z</time>
      </trkpt>
      <trkpt lat="43.51543" lon="5.77417">
        <ele>375.8</ele>
        <time>2019-01-19T10:03:06Z</time>
      </trkpt>
      <trkpt lat="43.51561" lon="5.7741">
        <ele>377.14</ele>
        <time>2019-01-19T10:03:17Z</time>
      </trkpt>
      <trkpt lat="43.51579" lon="5.77401">
        <ele>378.74</ele>
        <time>2019-01-19T10:03:29Z</time>
      </trkpt>
      <trkpt lat="43.51598" lon="5.77389">
        <ele>380.1</ele>
        <time>2019-01-19T10:03:39Z</time>
      </trkpt>
      <trkpt lat="43.51616" lon="5.7738">
        <ele>382.14</ele>
        <time>2019-01-19T10:03:50Z</time>
      </trkpt>
      <trkpt lat="43.51634" lon="5.77375">
        <ele>383.64</ele>
        <time>2019-01-19T10:03:59Z</time>
      </trkpt>
      <trkpt lat="43.51655" lon="5.77367">
        <ele>385.99</ele>
        <time>2019-01-19T10:05:29Z</time>
      </trkpt>
      <trkpt lat="43.51675" lon="5.77361">
        <ele>386.94</ele>
        <time>2019-01-19T10:05:52Z</time>
      </trkpt>
      <trkpt lat="43.51691" lon="5.77352">
        <ele>387.86</ele>
        <time>2019-01-19T10:06:02Z</time>
      </trkpt>
      <trkpt lat="43.51709" lon="5.77346">
        <ele>390.57</ele>
        <time>2019-01-19T10:06:13Z</time>
      </trkpt>
      <trkpt lat="43.51728" lon="5.77338">
        <ele>393.29</ele>
        <time>2019-01-19T10:06:22Z</time>
      </trkpt>
      <trkpt lat="43.51746" lon="5.77331">
        <ele>396.01</ele>
        <time>2019-01-19T10:06:30Z</time>
      </trkpt>
      <trkpt lat="43.51763" lon="5.77321">
        <ele>399.87</ele>
        <time>2019-01-19T10:06:41Z</time>
      </trkpt>
      <trkpt lat="43.51781" lon="5.7732">
        <ele>404.06</ele>
        <time>2019-01-19T10:06:50Z</time>
      </trkpt>
      <trkpt lat="43.518" lon="5.77322">
        <ele>410.99</ele>
        <time>2019-01-19T10:07:01Z</time>
      </trkpt>
      <trkpt lat="43.51819" lon="5.77326">
        <ele>415</ele>
        <time>2019-01-19T10:07:13Z</time>
      </trkpt>
      <trkpt lat="43.51837" lon="5.77327">
        <ele>419.93</ele>
        <time>2019-01-19T10:07:22Z</time>
      </trkpt>
      <trkpt lat="43.51856" lon="5.77333">
        <ele>428.95</ele>
        <time>2019-01-19T10:07:33Z</time>
      </trkpt>
      <trkpt lat="43.51873" lon="5.77346">
        <ele>436.82</ele>
        <time>2019-01-19T10:07:45Z</time>
      </trkpt>
      <trkpt lat="43.51892" lon="5.77352">
        <ele>443.66</ele>
        <time>2019-01-19T10:07:57Z</time>
      </trkpt>
      <trkpt lat="43.51911" lon="5.77357">
        <ele>447.34</ele>
        <time>2019-01-19T10:08:09Z</time>
      </trkpt>
      <trkpt lat="43.51928" lon="5.77364">
        <ele>449.18</ele>
        <time>2019-01-19T10:08:20Z</time>
      </trkpt>
      <trkpt lat="43.51947" lon="5.77369">
        <ele>452.25</ele>
        <time>2019-01-19T10:08:29Z</time>
      </trkpt>
      <trkpt lat="43.51965" lon="5.77381">
        <ele>451.99</ele>
        <time>2019-01-19T10:08:40Z</time>
      </trkpt>
      <trkpt lat="43.51983" lon="5.77386">
        <ele>451.16</ele>
        <time>2019-01-19T10:08:52Z</time>
      </trkpt>
      <trkpt lat="43.52" lon="5.77399">
        <ele>449.67</ele>
        <time>2019-01-19T10:09:02Z</time>
      </trkpt>
      <trkpt lat="43.52018" lon="5.77403">
        <ele>450.55</ele>
        <time>2019-01-19T10:09:12Z</time>
      </trkpt>
      <trkpt lat="43.52036" lon="5.77412">
        <ele>454.03</ele>
        <time>2019-01-19T10:09:24Z</time>
      </trkpt>
      <trkpt lat="43.52055" lon="5.77422">
        <ele>455.47</ele>
        <time>2019-01-19T10:09:34Z</time>
      </trkpt>
      <trkpt lat="43.52073" lon="5.77428">
        <ele>457.67</ele>
        <time>2019-01-19T10:09:46Z</time>
      </trkpt>
      <trkpt lat="43.52089" lon="5.77444">
        <ele>460.26</ele>
        <time>2019-01-19T10:09:56Z</time>
      </trkpt>
      <trkpt lat="43.52108" lon="5.77447">
        <ele>461.84</ele>
        <time>2019-01-19T10:10:09Z</time>
      </trkpt>
      <trkpt lat="43.52127" lon="5.77453">
        <ele>461.13</ele>
        <time>2019-01-19T10:10:21Z</time>
      </trkpt>
      <trkpt lat="43.52145" lon="5.77454">
        <ele>460.98</ele>
        <time>2019-01-19T10:10:33Z</time>
      </trkpt>
      <trkpt lat="43.52163" lon="5.77452">
        <ele>454.01</ele>
        <time>2019-01-19T10:10:46Z</time>
      </trkpt>
      <trkpt lat="43.52178" lon="5.77437">
        <ele>449.71</ele>
        <time>2019-01-19T10:10:58Z</time>
      </trkpt>
      <trkpt lat="43.52193" lon="5.77422">
        <ele>449.11</ele>
        <time>2019-01-19T10:11:06Z</time>
      </trkpt>
      <trkpt lat="43.52211" lon="5.7742">
        <ele>441.43</ele>
        <time>2019-01-19T10:11:17Z</time>
      </trkpt>
      <trkpt lat="43.52229" lon="5.7741">
        <ele>440.14</ele>
        <time>2019-01-19T10:11:28Z</time>
      </trkpt>
      <trkpt lat="43.52248" lon="5.77405">
        <ele>442.65</ele>
        <time>2019-01-19T10:11:39Z</time>
      </trkpt>
      <trkpt lat="43.52266" lon="5.77399">
        <ele>429.39</ele>
        <time>2019-01-19T10:12:00Z</time>
      </trkpt>
      <trkpt lat="43.5228" lon="5.77381">
        <ele>426.17</ele>
        <time>2019-01-19T10:12:09Z</time>
      </trkpt>
      <trkpt lat="43.52297" lon="5.77367">
        <ele>415.83</ele>
        <time>2019-01-19T10:16:55Z</time>
      </trkpt>
      <trkpt lat="43.52315" lon="5.77367">
        <ele>414.54</ele>
        <time>2019-01-19T10:17:07Z</time>
      </trkpt>
      <trkpt lat="43.52334" lon="5.77378">
        <ele>415.88</ele>
        <time>2019-01-19T10:17:16Z</time>
      </trkpt>
      <trkpt lat="43.52353" lon="5.77383">
        <ele>417.28</ele>
        <time>2019-01-19T10:17:23Z</time>
      </trkpt>
      <trkpt lat="43.52373" lon="5.77391">
        <ele>417.66</ele>
        <time>2019-01-19T10:17:30Z</time>
      </trkpt>
      <trkpt lat="43.52392" lon="5.77395">
        <ele>417.58</ele>
        <time>2019-01-19T10:17:38Z</time>
      </trkpt>
      <trkpt lat="43.5241" lon="5.77387">
        <ele>418.55</ele>
        <time>2019-01-19T10:17:45Z</time>
      </trkpt>
      <trkpt lat="43.52429" lon="5.7738">
        <ele>417.96</ele>
        <time>2019-01-19T10:17:52Z</time>
      </trkpt>
      <trkpt lat="43.52437" lon="5.77357">
        <ele>420.1</ele>
        <time>2019-01-19T10:18:04Z</time>
      </trkpt>
      <trkpt lat="43.52452" lon="5.77341">
        <ele>420.51</ele>
        <time>2019-01-19T10:18:09Z</time>
      </trkpt>
      <trkpt lat="43.52467" lon="5.77321">
        <ele>422.08</ele>
        <time>2019-01-19T10:18:16Z</time>
      </trkpt>
      <trkpt lat="43.52477" lon="5.773">
        <ele>422.92</ele>
        <time>2019-01-19T10:18:25Z</time>
      </trkpt>
      <trkpt lat="43.52488" lon="5.7728">
        <ele>422.34</ele>
        <time>2019-01-19T10:18:31Z</time>
      </trkpt>
      <trkpt lat="43.52506" lon="5.77264">
        <ele>423.67</ele>
        <time>2019-01-19T10:18:36Z</time>
      </trkpt>
      <trkpt lat="43.52527" lon="5.77262">
        <ele>426.53</ele>
        <time>2019-01-19T10:18:42Z</time>
      </trkpt>
      <trkpt lat="43.52545" lon="5.77272">
        <ele>430.1</ele>
        <time>2019-01-19T10:18:50Z</time>
      </trkpt>
      <trkpt lat="43.5256" lon="5.77289">
        <ele>435.12</ele>
        <time>2019-01-19T10:18:59Z</time>
      </trkpt>
      <trkpt lat="43.52574" lon="5.77306">
        <ele>439.62</ele>
        <time>2019-01-19T10:19:06Z</time>
      </trkpt>
      <trkpt lat="43.52585" lon="5.77326">
        <ele>443.1</ele>
        <time>2019-01-19T10:19:14Z</time>
      </trkpt>
      <trkpt lat="43.52598" lon="5.77344">
        <ele>446.08</ele>
        <time>2019-01-19T10:19:20Z</time>
      </trkpt>
      <trkpt lat="43.52611" lon="5.77367">
        <ele>448.1</ele>
        <time>2019-01-19T10:19:27Z</time>
      </trkpt>
      <trkpt lat="43.52626" lon="5.77385">
        <ele>449.7</ele>
        <time>2019-01-19T10:19:33Z</time>
      </trkpt>
      <trkpt lat="43.52632" lon="5.77409">
        <ele>451.02</ele>
        <time>2019-01-19T10:19:40Z</time>
      </trkpt>
      <trkpt lat="43.52635" lon="5.77437">
        <ele>451.08</ele>
        <time>2019-01-19T10:19:48Z</time>
      </trkpt>
      <trkpt lat="43.52631" lon="5.77466">
        <ele>448.7</ele>
        <time>2019-01-19T10:19:54Z</time>
      </trkpt>
      <trkpt lat="43.52624" lon="5.7749">
        <ele>445.59</ele>
        <time>2019-01-19T10:19:59Z</time>
      </trkpt>
      <trkpt lat="43.52616" lon="5.77514">
        <ele>440.85</ele>
        <time>2019-01-19T10:20:07Z</time>
      </trkpt>
      <trkpt lat="43.52616" lon="5.77549">
        <ele>431.45</ele>
        <time>2019-01-19T10:20:48Z</time>
      </trkpt>
      <trkpt lat="43.52621" lon="5.77574">
        <ele>429.45</ele>
        <time>2019-01-19T10:21:02Z</time>
      </trkpt>
      <trkpt lat="43.52623" lon="5.77601">
        <ele>429.92</ele>
        <time>2019-01-19T10:21:10Z</time>
      </trkpt>
      <trkpt lat="43.52618" lon="5.77628">
        <ele>431.62</ele>
        <time>2019-01-19T10:21:17Z</time>
      </trkpt>
      <trkpt lat="43.52616" lon="5.77654">
        <ele>433</ele>
        <time>2019-01-19T10:21:24Z</time>
      </trkpt>
      <trkpt lat="43.52612" lon="5.77685">
        <ele>434.27</ele>
        <time>2019-01-19T10:21:29Z</time>
      </trkpt>
      <trkpt lat="43.52604" lon="5.77708">
        <ele>433.66</ele>
        <time>2019-01-19T10:21:33Z</time>
      </trkpt>
      <trkpt lat="43.52592" lon="5.77731">
        <ele>433.06</ele>
        <time>2019-01-19T10:21:37Z</time>
      </trkpt>
      <trkpt lat="43.52592" lon="5.7776">
        <ele>419.45</ele>
        <time>2019-01-19T10:23:24Z</time>
      </trkpt>
      <trkpt lat="43.52575" lon="5.77766">
        <ele>417.89</ele>
        <time>2019-01-19T10:23:59Z</time>
      </trkpt>
      <trkpt lat="43.52557" lon="5.77774">
        <ele>418.23</ele>
        <time>2019-01-19T10:24:06Z</time>
      </trkpt>
      <trkpt lat="43.52538" lon="5.77781">
        <ele>419.52</ele>
        <time>2019-01-19T10:24:13Z</time>
      </trkpt>
      <trkpt lat="43.52518" lon="5.77789">
        <ele>420.11</ele>
        <time>2019-01-19T10:24:21Z</time>
      </trkpt>
      <trkpt lat="43.52499" lon="5.77797">
        <ele>418.42</ele>
        <time>2019-01-19T10:24:27Z</time>
      </trkpt>
      <trkpt lat="43.52481" lon="5.77805">
        <ele>418.86</ele>
        <time>2019-01-19T10:24:32Z</time>
      </trkpt>
      <trkpt lat="43.52463" lon="5.77818">
        <ele>419.8</ele>
        <time>2019-01-19T10:24:38Z</time>
      </trkpt>
      <trkpt lat="43.52446" lon="5.77829">
        <ele>420.13</ele>
        <time>2019-01-19T10:24:43Z</time>
      </trkpt>
      <trkpt lat="43.52429" lon="5.77844">
        <ele>420.02</ele>
        <time>2019-01-19T10:24:48Z</time>
      </trkpt>
      <trkpt lat="43.52412" lon="5.7786">
        <ele>419.92</ele>
        <time>2019-01-19T10:24:53Z</time>
      </trkpt>
      <trkpt lat="43.52396" lon="5.7788">
        <ele>421.27</ele>
        <time>2019-01-19T10:24:59Z</time>
      </trkpt>
      <trkpt lat="43.52384" lon="5.779">
        <ele>423.58</ele>
        <time>2019-01-19T10:25:05Z</time>
      </trkpt>
      <trkpt lat="43.52373" lon="5.77924">
        <ele>424.35</ele>
        <time>2019-01-19T10:25:11Z</time>
      </trkpt>
      <trkpt lat="43.52357" lon="5.77941">
        <ele>425.38</ele>
        <time>2019-01-19T10:25:17Z</time>
      </trkpt>
      <trkpt lat="43.52339" lon="5.77954">
        <ele>426.57</ele>
        <time>2019-01-19T10:25:24Z</time>
      </trkpt>
      <trkpt lat="43.52322" lon="5.77963">
        <ele>429.94</ele>
        <time>2019-01-19T10:25:30Z</time>
      </trkpt>
      <trkpt lat="43.52307" lon="5.7798">
        <ele>430.48</ele>
        <time>2019-01-19T10:25:34Z</time>
      </trkpt>
      <trkpt lat="43.5229" lon="5.77995">
        <ele>433.2</ele>
        <time>2019-01-19T10:25:39Z</time>
      </trkpt>
      <trkpt lat="43.52271" lon="5.78011">
        <ele>433.24</ele>
        <time>2019-01-19T10:25:44Z</time>
      </trkpt>
      <trkpt lat="43.52251" lon="5.78023">
        <ele>432.86</ele>
        <time>2019-01-19T10:25:49Z</time>
      </trkpt>
      <trkpt lat="43.52233" lon="5.78038">
        <ele>434.08</ele>
        <time>2019-01-19T10:25:54Z</time>
      </trkpt>
      <trkpt lat="43.52215" lon="5.78054">
        <ele>434.86</ele>
        <time>2019-01-19T10:25:59Z</time>
      </trkpt>
      <trkpt lat="43.52196" lon="5.78069">
        <ele>434.48</ele>
        <time>2019-01-19T10:26:04Z</time>
      </trkpt>
      <trkpt lat="43.52177" lon="5.7808">
        <ele>432.84</ele>
        <time>2019-01-19T10:26:08Z</time>
      </trkpt>
      <trkpt lat="43.5216" lon="5.78094">
        <ele>433.02</ele>
        <time>2019-01-19T10:26:12Z</time>
      </trkpt>
      <trkpt lat="43.52143" lon="5.7811">
        <ele>433.91</ele>
        <time>2019-01-19T10:26:16Z</time>
      </trkpt>
      <trkpt lat="43.52126" lon="5.78126">
        <ele>433.31</ele>
        <time>2019-01-19T10:26:21Z</time>
      </trkpt>
      <trkpt lat="43.5211" lon="5.78141">
        <ele>432.74</ele>
        <time>2019-01-19T10:26:26Z</time>
      </trkpt>
      <trkpt lat="43.52092" lon="5.78155">
        <ele>434.02</ele>
        <time>2019-01-19T10:26:32Z</time>
      </trkpt>
      <trkpt lat="43.52075" lon="5.7816">
        <ele>435.77</ele>
        <time>2019-01-19T10:26:36Z</time>
      </trkpt>
      <trkpt lat="43.52051" lon="5.7816">
        <ele>427.43</ele>
        <time>2019-01-19T10:26:51Z</time>
      </trkpt>
      <trkpt lat="43.52033" lon="5.78156">
        <ele>403.1</ele>
        <time>2019-01-19T10:28:25Z</time>
      </trkpt>
      <trkpt lat="43.52019" lon="5.78174">
        <ele>402.23</ele>
        <time>2019-01-19T10:28:38Z</time>
      </trkpt>
      <trkpt lat="43.52006" lon="5.78193">
        <ele>401.43</ele>
        <time>2019-01-19T10:28:52Z</time>
      </trkpt>
      <trkpt lat="43.51999" lon="5.78217">
        <ele>398.37</ele>
        <time>2019-01-19T10:29:36Z</time>
      </trkpt>
      <trkpt lat="43.51981" lon="5.78228">
        <ele>398.24</ele>
        <time>2019-01-19T10:30:19Z</time>
      </trkpt>
      <trkpt lat="43.51963" lon="5.78217">
        <ele>399.32</ele>
        <time>2019-01-19T10:30:28Z</time>
      </trkpt>
      <trkpt lat="43.51945" lon="5.78207">
        <ele>400.6</ele>
        <time>2019-01-19T10:30:35Z</time>
      </trkpt>
      <trkpt lat="43.51926" lon="5.78194">
        <ele>401.94</ele>
        <time>2019-01-19T10:30:42Z</time>
      </trkpt>
      <trkpt lat="43.51909" lon="5.78184">
        <ele>403.49</ele>
        <time>2019-01-19T10:30:47Z</time>
      </trkpt>
      <trkpt lat="43.51891" lon="5.78171">
        <ele>404.45</ele>
        <time>2019-01-19T10:30:53Z</time>
      </trkpt>
      <trkpt lat="43.51872" lon="5.78156">
        <ele>405.57</ele>
        <time>2019-01-19T10:31:00Z</time>
      </trkpt>
      <trkpt lat="43.51857" lon="5.7814">
        <ele>407.08</ele>
        <time>2019-01-19T10:31:06Z</time>
      </trkpt>
      <trkpt lat="43.51841" lon="5.78124">
        <ele>407.73</ele>
        <time>2019-01-19T10:31:12Z</time>
      </trkpt>
      <trkpt lat="43.51824" lon="5.7811">
        <ele>406.98</ele>
        <time>2019-01-19T10:31:17Z</time>
      </trkpt>
      <trkpt lat="43.51806" lon="5.78096">
        <ele>406.36</ele>
        <time>2019-01-19T10:31:22Z</time>
      </trkpt>
      <trkpt lat="43.51787" lon="5.78088">
        <ele>406.65</ele>
        <time>2019-01-19T10:31:27Z</time>
      </trkpt>
      <trkpt lat="43.51768" lon="5.7808">
        <ele>406.18</ele>
        <time>2019-01-19T10:31:32Z</time>
      </trkpt>
      <trkpt lat="43.51751" lon="5.78071">
        <ele>406.1</ele>
        <time>2019-01-19T10:31:37Z</time>
      </trkpt>
      <trkpt lat="43.51732" lon="5.78062">
        <ele>405.18</ele>
        <time>2019-01-19T10:31:42Z</time>
      </trkpt>
      <trkpt lat="43.51714" lon="5.78053">
        <ele>405.17</ele>
        <time>2019-01-19T10:31:47Z</time>
      </trkpt>
      <trkpt lat="43.51697" lon="5.78044">
        <ele>404.61</ele>
        <time>2019-01-19T10:31:51Z</time>
      </trkpt>
      <trkpt lat="43.51677" lon="5.78034">
        <ele>403.44</ele>
        <time>2019-01-19T10:31:56Z</time>
      </trkpt>
      <trkpt lat="43.51659" lon="5.78025">
        <ele>402.58</ele>
        <time>2019-01-19T10:32:01Z</time>
      </trkpt>
      <trkpt lat="43.5164" lon="5.78016">
        <ele>402.12</ele>
        <time>2019-01-19T10:32:07Z</time>
      </trkpt>
      <trkpt lat="43.51622" lon="5.78007">
        <ele>401.55</ele>
        <time>2019-01-19T10:32:12Z</time>
      </trkpt>
      <trkpt lat="43.51604" lon="5.77999">
        <ele>400.75</ele>
        <time>2019-01-19T10:32:17Z</time>
      </trkpt>
      <trkpt lat="43.51586" lon="5.77992">
        <ele>401.54</ele>
        <time>2019-01-19T10:32:22Z</time>
      </trkpt>
      <trkpt lat="43.51569" lon="5.77983">
        <ele>402.72</ele>
        <time>2019-01-19T10:32:27Z</time>
      </trkpt>
      <trkpt lat="43.5155" lon="5.77973">
        <ele>403.2</ele>
        <time>2019-01-19T10:32:32Z</time>
      </trkpt>
      <trkpt lat="43.51528" lon="5.77963">
        <ele>403.18</ele>
        <time>2019-01-19T10:32:36Z</time>
      </trkpt>
      <trkpt lat="43.5151" lon="5.77955">
        <ele>402.92</ele>
        <time>2019-01-19T10:32:39Z</time>
      </trkpt>
      <trkpt lat="43.51492" lon="5.77948">
        <ele>402.58</ele>
        <time>2019-01-19T10:32:42Z</time>
      </trkpt>
      <trkpt lat="43.51474" lon="5.77939">
        <ele>402.84</ele>
        <time>2019-01-19T10:32:46Z</time>
      </trkpt>
      <trkpt lat="43.51453" lon="5.7793">
        <ele>403.74</ele>
        <time>2019-01-19T10:32:51Z</time>
      </trkpt>
      <trkpt lat="43.51434" lon="5.7792">
        <ele>404.28</ele>
        <time>2019-01-19T10:32:56Z</time>
      </trkpt>
      <trkpt lat="43.51415" lon="5.7791">
        <ele>405.16</ele>
        <time>2019-01-19T10:33:02Z</time>
      </trkpt>
      <trkpt lat="43.51398" lon="5.77902">
        <ele>406.31</ele>
        <time>2019-01-19T10:33:07Z</time>
      </trkpt>
      <trkpt lat="43.5138" lon="5.77896">
        <ele>407.12</ele>
        <time>2019-01-19T10:33:11Z</time>
      </trkpt>
      <trkpt lat="43.5136" lon="5.7789">
        <ele>408.62</ele>
        <time>2019-01-19T10:33:17Z</time>
      </trkpt>
      <trkpt lat="43.51343" lon="5.77884">
        <ele>409.81</ele>
        <time>2019-01-19T10:33:22Z</time>
      </trkpt>
      <trkpt lat="43.51325" lon="5.77878">
        <ele>411.32</ele>
        <time>2019-01-19T10:33:27Z</time>
      </trkpt>
      <trkpt lat="43.51305" lon="5.77873">
        <ele>413.56</ele>
        <time>2019-01-19T10:33:34Z</time>
      </trkpt>
      <trkpt lat="43.51287" lon="5.77868">
        <ele>414.51</ele>
        <time>2019-01-19T10:33:37Z</time>
      </trkpt>
      <trkpt lat="43.51265" lon="5.77855">
        <ele>415</ele>
        <time>2019-01-19T10:33:41Z</time>
      </trkpt>
      <trkpt lat="43.51246" lon="5.77846">
        <ele>414.6</ele>
        <time>2019-01-19T10:33:46Z</time>
      </trkpt>
      <trkpt lat="43.51226" lon="5.77843">
        <ele>413.94</ele>
        <time>2019-01-19T10:33:49Z</time>
      </trkpt>
      <trkpt lat="43.51207" lon="5.77842">
        <ele>413.91</ele>
        <time>2019-01-19T10:33:52Z</time>
      </trkpt>
      <trkpt lat="43.51188" lon="5.77846">
        <ele>412.77</ele>
        <time>2019-01-19T10:33:55Z</time>
      </trkpt>
      <trkpt lat="43.51169" lon="5.77848">
        <ele>410.14</ele>
        <time>2019-01-19T10:33:58Z</time>
      </trkpt>
      <trkpt lat="43.51148" lon="5.77853">
        <ele>407.65</ele>
        <time>2019-01-19T10:34:02Z</time>
      </trkpt>
      <trkpt lat="43.5113" lon="5.77858">
        <ele>405.98</ele>
        <time>2019-01-19T10:34:06Z</time>
      </trkpt>
      <trkpt lat="43.51112" lon="5.7787">
        <ele>402.9</ele>
        <time>2019-01-19T10:34:12Z</time>
      </trkpt>
      <trkpt lat="43.51093" lon="5.7788">
        <ele>399.77</ele>
        <time>2019-01-19T10:34:18Z</time>
      </trkpt>
      <trkpt lat="43.51076" lon="5.77889">
        <ele>397.95</ele>
        <time>2019-01-19T10:34:23Z</time>
      </trkpt>
      <trkpt lat="43.51059" lon="5.77901">
        <ele>395.57</ele>
        <time>2019-01-19T10:34:29Z</time>
      </trkpt>
      <trkpt lat="43.51041" lon="5.77915">
        <ele>391.99</ele>
        <time>2019-01-19T10:34:37Z</time>
      </trkpt>
      <trkpt lat="43.51024" lon="5.77927">
        <ele>390.23</ele>
        <time>2019-01-19T10:34:45Z</time>
      </trkpt>
      <trkpt lat="43.51008" lon="5.77941">
        <ele>388.03</ele>
        <time>2019-01-19T10:34:53Z</time>
      </trkpt>
      <trkpt lat="43.50989" lon="5.77952">
        <ele>385.81</ele>
        <time>2019-01-19T10:35:01Z</time>
      </trkpt>
      <trkpt lat="43.50973" lon="5.77965">
        <ele>380.77</ele>
        <time>2019-01-19T10:35:10Z</time>
      </trkpt>
      <trkpt lat="43.50959" lon="5.7798">
        <ele>379.81</ele>
        <time>2019-01-19T10:35:18Z</time>
      </trkpt>
      <trkpt lat="43.50942" lon="5.77995">
        <ele>381.29</ele>
        <time>2019-01-19T10:35:25Z</time>
      </trkpt>
      <trkpt lat="43.50926" lon="5.78006">
        <ele>381.79</ele>
        <time>2019-01-19T10:35:32Z</time>
      </trkpt>
      <trkpt lat="43.50908" lon="5.78016">
        <ele>382.96</ele>
        <time>2019-01-19T10:35:39Z</time>
      </trkpt>
      <trkpt lat="43.50891" lon="5.78028">
        <ele>383.64</ele>
        <time>2019-01-19T10:35:46Z</time>
      </trkpt>
      <trkpt lat="43.50874" lon="5.78043">
        <ele>382.52</ele>
        <time>2019-01-19T10:35:55Z</time>
      </trkpt>
      <trkpt lat="43.50856" lon="5.78053">
        <ele>381.6</ele>
        <time>2019-01-19T10:36:02Z</time>
      </trkpt>
      <trkpt lat="43.50837" lon="5.78066">
        <ele>381.47</ele>
        <time>2019-01-19T10:36:09Z</time>
      </trkpt>
      <trkpt lat="43.50821" lon="5.78078">
        <ele>381.62</ele>
        <time>2019-01-19T10:36:14Z</time>
      </trkpt>
      <trkpt lat="43.50802" lon="5.78093">
        <ele>380.7</ele>
        <time>2019-01-19T10:36:19Z</time>
      </trkpt>
      <trkpt lat="43.50785" lon="5.78106">
        <ele>379.7</ele>
        <time>2019-01-19T10:36:23Z</time>
      </trkpt>
      <trkpt lat="43.50767" lon="5.78121">
        <ele>378.97</ele>
        <time>2019-01-19T10:36:27Z</time>
      </trkpt>
      <trkpt lat="43.50748" lon="5.78137">
        <ele>378.14</ele>
        <time>2019-01-19T10:36:31Z</time>
      </trkpt>
      <trkpt lat="43.50729" lon="5.78154">
        <ele>376.97</ele>
        <time>2019-01-19T10:36:35Z</time>
      </trkpt>
      <trkpt lat="43.50712" lon="5.78168">
        <ele>375.19</ele>
        <time>2019-01-19T10:36:39Z</time>
      </trkpt>
      <trkpt lat="43.50695" lon="5.78181">
        <ele>373.67</ele>
        <time>2019-01-19T10:36:43Z</time>
      </trkpt>
      <trkpt lat="43.50677" lon="5.78195">
        <ele>372.81</ele>
        <time>2019-01-19T10:36:48Z</time>
      </trkpt>
      <trkpt lat="43.50661" lon="5.7821">
        <ele>370.17</ele>
        <time>2019-01-19T10:36:54Z</time>
      </trkpt>
      <trkpt lat="43.50643" lon="5.78222">
        <ele>369.39</ele>
        <time>2019-01-19T10:36:59Z</time>
      </trkpt>
      <trkpt lat="43.50628" lon="5.78237">
        <ele>368.59</ele>
        <time>2019-01-19T10:37:04Z</time>
      </trkpt>
      <trkpt lat="43.50612" lon="5.78251">
        <ele>368.63</ele>
        <time>2019-01-19T10:37:12Z</time>
      </trkpt>
      <trkpt lat="43.50594" lon="5.78255">
        <ele>374.45</ele>
        <time>2019-01-19T10:38:08Z</time>
      </trkpt>
      <trkpt lat="43.50576" lon="5.78267">
        <ele>374.47</ele>
        <time>2019-01-19T10:38:16Z</time>
      </trkpt>
      <trkpt lat="43.5056" lon="5.78277">
        <ele>374.55</ele>
        <time>2019-01-19T10:38:21Z</time>
      </trkpt>
      <trkpt lat="43.50543" lon="5.78291">
        <ele>375.09</ele>
        <time>2019-01-19T10:38:27Z</time>
      </trkpt>
      <trkpt lat="43.50525" lon="5.78304">
        <ele>375.46</ele>
        <time>2019-01-19T10:38:33Z</time>
      </trkpt>
      <trkpt lat="43.50508" lon="5.78314">
        <ele>375.17</ele>
        <time>2019-01-19T10:38:38Z</time>
      </trkpt>
      <trkpt lat="43.50491" lon="5.78325">
        <ele>375.38</ele>
        <time>2019-01-19T10:38:43Z</time>
      </trkpt>
      <trkpt lat="43.50474" lon="5.78339">
        <ele>375.19</ele>
        <time>2019-01-19T10:38:48Z</time>
      </trkpt>
      <trkpt lat="43.50456" lon="5.78349">
        <ele>374.71</ele>
        <time>2019-01-19T10:38:52Z</time>
      </trkpt>
      <trkpt lat="43.50437" lon="5.78362">
        <ele>373.9</ele>
        <time>2019-01-19T10:38:57Z</time>
      </trkpt>
      <trkpt lat="43.50419" lon="5.78373">
        <ele>373.77</ele>
        <time>2019-01-19T10:39:01Z</time>
      </trkpt>
      <trkpt lat="43.50401" lon="5.78385">
        <ele>373.96</ele>
        <time>2019-01-19T10:39:05Z</time>
      </trkpt>
      <trkpt lat="43.50381" lon="5.784">
        <ele>373.49</ele>
        <time>2019-01-19T10:39:10Z</time>
      </trkpt>
      <trkpt lat="43.50362" lon="5.78415">
        <ele>373.5</ele>
        <time>2019-01-19T10:39:15Z</time>
      </trkpt>
      <trkpt lat="43.50344" lon="5.78427">
        <ele>373.57</ele>
        <time>2019-01-19T10:39:20Z</time>
      </trkpt>
      <trkpt lat="43.50328" lon="5.7844">
        <ele>372.62</ele>
        <time>2019-01-19T10:39:26Z</time>
      </trkpt>
      <trkpt lat="43.50313" lon="5.78453">
        <ele>372.09</ele>
        <time>2019-01-19T10:39:32Z</time>
      </trkpt>
      <trkpt lat="43.50293" lon="5.78466">
        <ele>372.48</ele>
        <time>2019-01-19T10:39:38Z</time>
      </trkpt>
      <trkpt lat="43.50274" lon="5.78478">
        <ele>371.94</ele>
        <time>2019-01-19T10:39:44Z</time>
      </trkpt>
      <trkpt lat="43.50257" lon="5.78489">
        <ele>372.6</ele>
        <time>2019-01-19T10:39:49Z</time>
      </trkpt>
      <trkpt lat="43.50239" lon="5.78502">
        <ele>372.91</ele>
        <time>2019-01-19T10:39:54Z</time>
      </trkpt>
      <trkpt lat="43.5022" lon="5.78515">
        <ele>373.08</ele>
        <time>2019-01-19T10:39:59Z</time>
      </trkpt>
      <trkpt lat="43.50202" lon="5.78527">
        <ele>373.05</ele>
        <time>2019-01-19T10:40:04Z</time>
      </trkpt>
      <trkpt lat="43.50186" lon="5.78539">
        <ele>373.33</ele>
        <time>2019-01-19T10:40:09Z</time>
      </trkpt>
      <trkpt lat="43.50167" lon="5.78551">
        <ele>374.55</ele>
        <time>2019-01-19T10:40:14Z</time>
      </trkpt>
      <trkpt lat="43.50148" lon="5.78564">
        <ele>374.65</ele>
        <time>2019-01-19T10:40:18Z</time>
      </trkpt>
      <trkpt lat="43.50131" lon="5.78576">
        <ele>373.77</ele>
        <time>2019-01-19T10:40:22Z</time>
      </trkpt>
      <trkpt lat="43.50114" lon="5.78588">
        <ele>372.27</ele>
        <time>2019-01-19T10:40:26Z</time>
      </trkpt>
      <trkpt lat="43.50097" lon="5.78601">
        <ele>371.54</ele>
        <time>2019-01-19T10:40:30Z</time>
      </trkpt>
      <trkpt lat="43.5008" lon="5.78614">
        <ele>370.26</ele>
        <time>2019-01-19T10:40:34Z</time>
      </trkpt>
      <trkpt lat="43.50062" lon="5.78626">
        <ele>368.86</ele>
        <time>2019-01-19T10:40:38Z</time>
      </trkpt>
      <trkpt lat="43.50044" lon="5.78639">
        <ele>368.13</ele>
        <time>2019-01-19T10:40:42Z</time>
      </trkpt>
      <trkpt lat="43.50026" lon="5.78652">
        <ele>367.5</ele>
        <time>2019-01-19T10:40:46Z</time>
      </trkpt>
      <trkpt lat="43.50007" lon="5.78665">
        <ele>367.11</ele>
        <time>2019-01-19T10:40:51Z</time>
      </trkpt>
      <trkpt lat="43.49991" lon="5.78675">
        <ele>366.56</ele>
        <time>2019-01-19T10:40:56Z</time>
      </trkpt>
      <trkpt lat="43.49972" lon="5.7869">
        <ele>366.29</ele>
        <time>2019-01-19T10:41:01Z</time>
      </trkpt>
      <trkpt lat="43.49961" lon="5.78716">
        <ele>365.85</ele>
        <time>2019-01-19T10:41:06Z</time>
      </trkpt>
      <trkpt lat="43.49953" lon="5.78741">
        <ele>366.48</ele>
        <time>2019-01-19T10:41:10Z</time>
      </trkpt>
      <trkpt lat="43.49944" lon="5.78765">
        <ele>367.48</ele>
        <time>2019-01-19T10:41:14Z</time>
      </trkpt>
      <trkpt lat="43.49929" lon="5.78793">
        <ele>368.26</ele>
        <time>2019-01-19T10:41:18Z</time>
      </trkpt>
      <trkpt lat="43.49918" lon="5.78817">
        <ele>368</ele>
        <time>2019-01-19T10:41:21Z</time>
      </trkpt>
      <trkpt lat="43.49907" lon="5.78839">
        <ele>367.42</ele>
        <time>2019-01-19T10:41:24Z</time>
      </trkpt>
      <trkpt lat="43.49888" lon="5.78833">
        <ele>366.45</ele>
        <time>2019-01-19T10:41:38Z</time>
      </trkpt>
      <trkpt lat="43.49875" lon="5.78816">
        <ele>369.14</ele>
        <time>2019-01-19T10:41:44Z</time>
      </trkpt>
      <trkpt lat="43.49862" lon="5.78799">
        <ele>372.59</ele>
        <time>2019-01-19T10:41:51Z</time>
      </trkpt>
      <trkpt lat="43.49843" lon="5.78788">
        <ele>375.87</ele>
        <time>2019-01-19T10:41:59Z</time>
      </trkpt>
      <trkpt lat="43.49825" lon="5.78781">
        <ele>378.55</ele>
        <time>2019-01-19T10:42:06Z</time>
      </trkpt>
      <trkpt lat="43.49805" lon="5.78775">
        <ele>380.69</ele>
        <time>2019-01-19T10:42:14Z</time>
      </trkpt>
      <trkpt lat="43.49786" lon="5.7877">
        <ele>381.92</ele>
        <time>2019-01-19T10:42:20Z</time>
      </trkpt>
      <trkpt lat="43.49769" lon="5.78757">
        <ele>383.89</ele>
        <time>2019-01-19T10:42:29Z</time>
      </trkpt>
      <trkpt lat="43.49757" lon="5.78737">
        <ele>387.76</ele>
        <time>2019-01-19T10:42:40Z</time>
      </trkpt>
      <trkpt lat="43.49741" lon="5.78722">
        <ele>390.63</ele>
        <time>2019-01-19T10:42:47Z</time>
      </trkpt>
      <trkpt lat="43.4973" lon="5.78698">
        <ele>391.11</ele>
        <time>2019-01-19T10:42:58Z</time>
      </trkpt>
      <trkpt lat="43.49717" lon="5.78681">
        <ele>389.62</ele>
        <time>2019-01-19T10:43:07Z</time>
      </trkpt>
      <trkpt lat="43.49698" lon="5.78672">
        <ele>389.33</ele>
        <time>2019-01-19T10:43:10Z</time>
      </trkpt>
      <trkpt lat="43.49678" lon="5.78666">
        <ele>388.32</ele>
        <time>2019-01-19T10:43:16Z</time>
      </trkpt>
      <trkpt lat="43.49658" lon="5.78668">
        <ele>386.07</ele>
        <time>2019-01-19T10:43:20Z</time>
      </trkpt>
      <trkpt lat="43.49639" lon="5.78675">
        <ele>384.53</ele>
        <time>2019-01-19T10:43:24Z</time>
      </trkpt>
      <trkpt lat="43.49624" lon="5.7869">
        <ele>384.6</ele>
        <time>2019-01-19T10:43:30Z</time>
      </trkpt>
      <trkpt lat="43.49612" lon="5.7871">
        <ele>384.83</ele>
        <time>2019-01-19T10:43:37Z</time>
      </trkpt>
      <trkpt lat="43.49594" lon="5.78729">
        <ele>383.16</ele>
        <time>2019-01-19T10:43:43Z</time>
      </trkpt>
      <trkpt lat="43.49577" lon="5.78738">
        <ele>381.72</ele>
        <time>2019-01-19T10:43:47Z</time>
      </trkpt>
      <trkpt lat="43.49557" lon="5.78748">
        <ele>380.82</ele>
        <time>2019-01-19T10:43:52Z</time>
      </trkpt>
      <trkpt lat="43.49539" lon="5.78759">
        <ele>379.54</ele>
        <time>2019-01-19T10:43:58Z</time>
      </trkpt>
      <trkpt lat="43.49519" lon="5.78764">
        <ele>377.61</ele>
        <time>2019-01-19T10:44:06Z</time>
      </trkpt>
      <trkpt lat="43.49501" lon="5.78772">
        <ele>376.92</ele>
        <time>2019-01-19T10:44:10Z</time>
      </trkpt>
      <trkpt lat="43.49485" lon="5.78782">
        <ele>375.15</ele>
        <time>2019-01-19T10:44:15Z</time>
      </trkpt>
      <trkpt lat="43.49466" lon="5.78796">
        <ele>372.8</ele>
        <time>2019-01-19T10:44:21Z</time>
      </trkpt>
      <trkpt lat="43.49447" lon="5.78805">
        <ele>370.97</ele>
        <time>2019-01-19T10:44:25Z</time>
      </trkpt>
      <trkpt lat="43.49431" lon="5.78818">
        <ele>369.5</ele>
        <time>2019-01-19T10:44:29Z</time>
      </trkpt>
      <trkpt lat="43.49414" lon="5.78838">
        <ele>367.69</ele>
        <time>2019-01-19T10:44:34Z</time>
      </trkpt>
      <trkpt lat="43.49401" lon="5.78863">
        <ele>367.35</ele>
        <time>2019-01-19T10:44:39Z</time>
      </trkpt>
      <trkpt lat="43.49394" lon="5.78889">
        <ele>367.53</ele>
        <time>2019-01-19T10:44:44Z</time>
      </trkpt>
      <trkpt lat="43.49388" lon="5.78914">
        <ele>368.9</ele>
        <time>2019-01-19T10:44:49Z</time>
      </trkpt>
      <trkpt lat="43.49381" lon="5.78939">
        <ele>370.2</ele>
        <time>2019-01-19T10:44:54Z</time>
      </trkpt>
      <trkpt lat="43.49374" lon="5.78964">
        <ele>371.79</ele>
        <time>2019-01-19T10:44:59Z</time>
      </trkpt>
      <trkpt lat="43.49374" lon="5.7899">
        <ele>373.09</ele>
        <time>2019-01-19T10:45:04Z</time>
      </trkpt>
      <trkpt lat="43.49365" lon="5.79017">
        <ele>372.74</ele>
        <time>2019-01-19T10:45:09Z</time>
      </trkpt>
      <trkpt lat="43.4935" lon="5.79034">
        <ele>372.09</ele>
        <time>2019-01-19T10:45:15Z</time>
      </trkpt>
      <trkpt lat="43.49332" lon="5.79045">
        <ele>371.38</ele>
        <time>2019-01-19T10:45:21Z</time>
      </trkpt>
      <trkpt lat="43.49312" lon="5.79036">
        <ele>369.3</ele>
        <time>2019-01-19T10:46:13Z</time>
      </trkpt>
      <trkpt lat="43.49295" lon="5.79019">
        <ele>371.17</ele>
        <time>2019-01-19T10:46:18Z</time>
      </trkpt>
      <trkpt lat="43.49282" lon="5.78999">
        <ele>372.97</ele>
        <time>2019-01-19T10:46:23Z</time>
      </trkpt>
      <trkpt lat="43.49266" lon="5.78981">
        <ele>374.5</ele>
        <time>2019-01-19T10:46:30Z</time>
      </trkpt>
      <trkpt lat="43.49249" lon="5.78969">
        <ele>375.72</ele>
        <time>2019-01-19T10:46:36Z</time>
      </trkpt>
      <trkpt lat="43.49229" lon="5.78966">
        <ele>375.13</ele>
        <time>2019-01-19T10:46:45Z</time>
      </trkpt>
      <trkpt lat="43.49209" lon="5.78966">
        <ele>373.78</ele>
        <time>2019-01-19T10:46:49Z</time>
      </trkpt>
      <trkpt lat="43.49192" lon="5.78979">
        <ele>372.71</ele>
        <time>2019-01-19T10:46:55Z</time>
      </trkpt>
      <trkpt lat="43.49176" lon="5.78999">
        <ele>372.16</ele>
        <time>2019-01-19T10:47:01Z</time>
      </trkpt>
      <trkpt lat="43.49162" lon="5.79021">
        <ele>373.84</ele>
        <time>2019-01-19T10:47:07Z</time>
      </trkpt>
      <trkpt lat="43.49151" lon="5.79043">
        <ele>375.12</ele>
        <time>2019-01-19T10:47:12Z</time>
      </trkpt>
      <trkpt lat="43.49141" lon="5.79068">
        <ele>376.71</ele>
        <time>2019-01-19T10:47:17Z</time>
      </trkpt>
      <trkpt lat="43.49127" lon="5.79089">
        <ele>378.56</ele>
        <time>2019-01-19T10:47:22Z</time>
      </trkpt>
      <trkpt lat="43.49117" lon="5.79113">
        <ele>380.37</ele>
        <time>2019-01-19T10:47:27Z</time>
      </trkpt>
      <trkpt lat="43.49109" lon="5.79135">
        <ele>381.49</ele>
        <time>2019-01-19T10:47:31Z</time>
      </trkpt>
      <trkpt lat="43.49101" lon="5.79161">
        <ele>382.69</ele>
        <time>2019-01-19T10:47:35Z</time>
      </trkpt>
      <trkpt lat="43.49092" lon="5.79192">
        <ele>383.89</ele>
        <time>2019-01-19T10:47:39Z</time>
      </trkpt>
      <trkpt lat="43.49086" lon="5.79217">
        <ele>384.5</ele>
        <time>2019-01-19T10:47:42Z</time>
      </trkpt>
      <trkpt lat="43.49079" lon="5.79241">
        <ele>385.12</ele>
        <time>2019-01-19T10:47:45Z</time>
      </trkpt>
      <trkpt lat="43.49072" lon="5.79264">
        <ele>385.9</ele>
        <time>2019-01-19T10:47:48Z</time>
      </trkpt>
      <trkpt lat="43.49061" lon="5.79289">
        <ele>386.82</ele>
        <time>2019-01-19T10:47:52Z</time>
      </trkpt>
      <trkpt lat="43.49054" lon="5.79318">
        <ele>388.2</ele>
        <time>2019-01-19T10:47:57Z</time>
      </trkpt>
      <trkpt lat="43.49047" lon="5.79345">
        <ele>389.34</ele>
        <time>2019-01-19T10:48:02Z</time>
      </trkpt>
      <trkpt lat="43.4904" lon="5.79368">
        <ele>390.09</ele>
        <time>2019-01-19T10:48:07Z</time>
      </trkpt>
      <trkpt lat="43.49029" lon="5.79393">
        <ele>390.26</ele>
        <time>2019-01-19T10:48:12Z</time>
      </trkpt>
      <trkpt lat="43.49022" lon="5.79417">
        <ele>390.24</ele>
        <time>2019-01-19T10:48:17Z</time>
      </trkpt>
      <trkpt lat="43.49013" lon="5.79443">
        <ele>390.66</ele>
        <time>2019-01-19T10:48:22Z</time>
      </trkpt>
      <trkpt lat="43.49005" lon="5.79469">
        <ele>391.62</ele>
        <time>2019-01-19T10:48:28Z</time>
      </trkpt>
      <trkpt lat="43.48997" lon="5.79495">
        <ele>393.01</ele>
        <time>2019-01-19T10:48:34Z</time>
      </trkpt>
      <trkpt lat="43.48988" lon="5.7952">
        <ele>394.52</ele>
        <time>2019-01-19T10:48:40Z</time>
      </trkpt>
      <trkpt lat="43.4898" lon="5.79547">
        <ele>396.02</ele>
        <time>2019-01-19T10:48:46Z</time>
      </trkpt>
      <trkpt lat="43.48971" lon="5.79572">
        <ele>395.74</ele>
        <time>2019-01-19T10:48:51Z</time>
      </trkpt>
      <trkpt lat="43.48963" lon="5.79595">
        <ele>395.95</ele>
        <time>2019-01-19T10:48:56Z</time>
      </trkpt>
      <trkpt lat="43.48956" lon="5.79618">
        <ele>395.2</ele>
        <time>2019-01-19T10:49:02Z</time>
      </trkpt>
      <trkpt lat="43.48965" lon="5.79649">
        <ele>373.87</ele>
        <time>2019-01-19T10:49:35Z</time>
      </trkpt>
      <trkpt lat="43.48958" lon="5.79675">
        <ele>367.81</ele>
        <time>2019-01-19T10:49:44Z</time>
      </trkpt>
      <trkpt lat="43.48949" lon="5.79699">
        <ele>362.19</ele>
        <time>2019-01-19T10:50:10Z</time>
      </trkpt>
      <trkpt lat="43.48943" lon="5.79722">
        <ele>360.92</ele>
        <time>2019-01-19T10:50:16Z</time>
      </trkpt>
      <trkpt lat="43.48936" lon="5.79747">
        <ele>359.33</ele>
        <time>2019-01-19T10:50:22Z</time>
      </trkpt>
      <trkpt lat="43.48927" lon="5.79771">
        <ele>359.52</ele>
        <time>2019-01-19T10:50:27Z</time>
      </trkpt>
      <trkpt lat="43.48919" lon="5.79796">
        <ele>360.04</ele>
        <time>2019-01-19T10:50:32Z</time>
      </trkpt>
      <trkpt lat="43.48911" lon="5.7982">
        <ele>360.98</ele>
        <time>2019-01-19T10:50:37Z</time>
      </trkpt>
      <trkpt lat="43.48902" lon="5.79843">
        <ele>363.26</ele>
        <time>2019-01-19T10:50:42Z</time>
      </trkpt>
      <trkpt lat="43.48894" lon="5.79865">
        <ele>365.53</ele>
        <time>2019-01-19T10:50:47Z</time>
      </trkpt>
      <trkpt lat="43.48885" lon="5.79891">
        <ele>367.75</ele>
        <time>2019-01-19T10:50:52Z</time>
      </trkpt>
      <trkpt lat="43.48876" lon="5.79917">
        <ele>370.97</ele>
        <time>2019-01-19T10:50:57Z</time>
      </trkpt>
      <trkpt lat="43.48865" lon="5.79944">
        <ele>373.96</ele>
        <time>2019-01-19T10:51:02Z</time>
      </trkpt>
      <trkpt lat="43.48855" lon="5.79971">
        <ele>375.75</ele>
        <time>2019-01-19T10:51:06Z</time>
      </trkpt>
      <trkpt lat="43.48846" lon="5.79997">
        <ele>377.38</ele>
        <time>2019-01-19T10:51:10Z</time>
      </trkpt>
      <trkpt lat="43.48837" lon="5.80022">
        <ele>378.42</ele>
        <time>2019-01-19T10:51:14Z</time>
      </trkpt>
      <trkpt lat="43.48828" lon="5.80047">
        <ele>379.87</ele>
        <time>2019-01-19T10:51:18Z</time>
      </trkpt>
      <trkpt lat="43.48819" lon="5.80072">
        <ele>381.45</ele>
        <time>2019-01-19T10:51:22Z</time>
      </trkpt>
      <trkpt lat="43.48812" lon="5.80096">
        <ele>382.89</ele>
        <time>2019-01-19T10:51:26Z</time>
      </trkpt>
      <trkpt lat="43.48803" lon="5.80119">
        <ele>384.1</ele>
        <time>2019-01-19T10:51:30Z</time>
      </trkpt>
      <trkpt lat="43.48795" lon="5.80148">
        <ele>385.69</ele>
        <time>2019-01-19T10:51:35Z</time>
      </trkpt>
      <trkpt lat="43.48788" lon="5.80173">
        <ele>387.57</ele>
        <time>2019-01-19T10:51:40Z</time>
      </trkpt>
      <trkpt lat="43.48781" lon="5.80197">
        <ele>388.48</ele>
        <time>2019-01-19T10:51:45Z</time>
      </trkpt>
      <trkpt lat="43.48775" lon="5.80222">
        <ele>387.93</ele>
        <time>2019-01-19T10:51:50Z</time>
      </trkpt>
      <trkpt lat="43.48768" lon="5.80245">
        <ele>388.27</ele>
        <time>2019-01-19T10:51:55Z</time>
      </trkpt>
      <trkpt lat="43.4876" lon="5.80267">
        <ele>388.72</ele>
        <time>2019-01-19T10:52:00Z</time>
      </trkpt>
      <trkpt lat="43.48753" lon="5.8029">
        <ele>389.52</ele>
        <time>2019-01-19T10:52:05Z</time>
      </trkpt>
      <trkpt lat="43.48746" lon="5.80314">
        <ele>389.85</ele>
        <time>2019-01-19T10:52:11Z</time>
      </trkpt>
      <trkpt lat="43.48746" lon="5.80347">
        <ele>376.71</ele>
        <time>2019-01-19T10:52:49Z</time>
      </trkpt>
      <trkpt lat="43.48743" lon="5.80372">
        <ele>370.16</ele>
        <time>2019-01-19T10:52:59Z</time>
      </trkpt>
      <trkpt lat="43.48734" lon="5.80397">
        <ele>367.52</ele>
        <time>2019-01-19T10:53:06Z</time>
      </trkpt>
      <trkpt lat="43.48726" lon="5.8042">
        <ele>366.17</ele>
        <time>2019-01-19T10:53:13Z</time>
      </trkpt>
      <trkpt lat="43.48719" lon="5.80445">
        <ele>366.07</ele>
        <time>2019-01-19T10:53:20Z</time>
      </trkpt>
      <trkpt lat="43.48712" lon="5.8047">
        <ele>366.24</ele>
        <time>2019-01-19T10:53:27Z</time>
      </trkpt>
      <trkpt lat="43.48709" lon="5.80495">
        <ele>367.24</ele>
        <time>2019-01-19T10:53:33Z</time>
      </trkpt>
      <trkpt lat="43.48704" lon="5.80523">
        <ele>368.24</ele>
        <time>2019-01-19T10:53:39Z</time>
      </trkpt>
      <trkpt lat="43.48696" lon="5.80549">
        <ele>368.84</ele>
        <time>2019-01-19T10:53:44Z</time>
      </trkpt>
      <trkpt lat="43.48692" lon="5.80578">
        <ele>368.92</ele>
        <time>2019-01-19T10:53:49Z</time>
      </trkpt>
      <trkpt lat="43.48687" lon="5.80608">
        <ele>370.31</ele>
        <time>2019-01-19T10:53:54Z</time>
      </trkpt>
      <trkpt lat="43.48683" lon="5.80632">
        <ele>371.41</ele>
        <time>2019-01-19T10:53:58Z</time>
      </trkpt>
      <trkpt lat="43.48678" lon="5.80658">
        <ele>372.49</ele>
        <time>2019-01-19T10:54:02Z</time>
      </trkpt>
      <trkpt lat="43.48673" lon="5.80689">
        <ele>373.72</ele>
        <time>2019-01-19T10:54:07Z</time>
      </trkpt>
      <trkpt lat="43.48662" lon="5.80717">
        <ele>374.27</ele>
        <time>2019-01-19T10:54:11Z</time>
      </trkpt>
      <trkpt lat="43.48649" lon="5.8074">
        <ele>372.59</ele>
        <time>2019-01-19T10:54:14Z</time>
      </trkpt>
      <trkpt lat="43.48635" lon="5.8077">
        <ele>364.63</ele>
        <time>2019-01-19T10:54:17Z</time>
      </trkpt>
      <trkpt lat="43.48618" lon="5.80789">
        <ele>358.17</ele>
        <time>2019-01-19T10:54:20Z</time>
      </trkpt>
      <trkpt lat="43.48604" lon="5.80805">
        <ele>354.31</ele>
        <time>2019-01-19T10:54:23Z</time>
      </trkpt>
      <trkpt lat="43.48588" lon="5.80817">
        <ele>351.83</ele>
        <time>2019-01-19T10:54:26Z</time>
      </trkpt>
      <trkpt lat="43.48573" lon="5.80838">
        <ele>348.09</ele>
        <time>2019-01-19T10:54:32Z</time>
      </trkpt>
      <trkpt lat="43.48556" lon="5.80857">
        <ele>343.99</ele>
        <time>2019-01-19T10:54:37Z</time>
      </trkpt>
      <trkpt lat="43.48543" lon="5.80878">
        <ele>341.48</ele>
        <time>2019-01-19T10:54:41Z</time>
      </trkpt>
      <trkpt lat="43.48533" lon="5.80899">
        <ele>340.11</ele>
        <time>2019-01-19T10:54:44Z</time>
      </trkpt>
      <trkpt lat="43.48523" lon="5.80928">
        <ele>337.98</ele>
        <time>2019-01-19T10:54:48Z</time>
      </trkpt>
      <trkpt lat="43.48521" lon="5.80954">
        <ele>337.04</ele>
        <time>2019-01-19T10:54:51Z</time>
      </trkpt>
      <trkpt lat="43.4852" lon="5.80984">
        <ele>335.97</ele>
        <time>2019-01-19T10:54:54Z</time>
      </trkpt>
      <trkpt lat="43.48518" lon="5.81013">
        <ele>335.14</ele>
        <time>2019-01-19T10:54:57Z</time>
      </trkpt>
      <trkpt lat="43.48517" lon="5.81043">
        <ele>334.34</ele>
        <time>2019-01-19T10:55:00Z</time>
      </trkpt>
      <trkpt lat="43.48515" lon="5.81071">
        <ele>333.62</ele>
        <time>2019-01-19T10:55:03Z</time>
      </trkpt>
      <trkpt lat="43.48513" lon="5.81099">
        <ele>332.94</ele>
        <time>2019-01-19T10:55:06Z</time>
      </trkpt>
      <trkpt lat="43.48511" lon="5.81125">
        <ele>332.32</ele>
        <time>2019-01-19T10:55:09Z</time>
      </trkpt>
      <trkpt lat="43.48509" lon="5.81151">
        <ele>331.25</ele>
        <time>2019-01-19T10:55:12Z</time>
      </trkpt>
      <trkpt lat="43.48509" lon="5.81176">
        <ele>330.52</ele>
        <time>2019-01-19T10:55:15Z</time>
      </trkpt>
      <trkpt lat="43.48506" lon="5.81207">
        <ele>329.52</ele>
        <time>2019-01-19T10:55:19Z</time>
      </trkpt>
      <trkpt lat="43.48502" lon="5.81237">
        <ele>328.25</ele>
        <time>2019-01-19T10:55:23Z</time>
      </trkpt>
      <trkpt lat="43.48496" lon="5.81271">
        <ele>327.11</ele>
        <time>2019-01-19T10:55:27Z</time>
      </trkpt>
      <trkpt lat="43.4849" lon="5.81294">
        <ele>326.42</ele>
        <time>2019-01-19T10:55:30Z</time>
      </trkpt>
      <trkpt lat="43.48482" lon="5.81319">
        <ele>325.18</ele>
        <time>2019-01-19T10:55:33Z</time>
      </trkpt>
      <trkpt lat="43.48474" lon="5.81344">
        <ele>323.73</ele>
        <time>2019-01-19T10:55:36Z</time>
      </trkpt>
      <trkpt lat="43.48465" lon="5.81366">
        <ele>322.52</ele>
        <time>2019-01-19T10:55:39Z</time>
      </trkpt>
      <trkpt lat="43.48458" lon="5.81392">
        <ele>318.95</ele>
        <time>2019-01-19T10:55:42Z</time>
      </trkpt>
      <trkpt lat="43.48449" lon="5.81417">
        <ele>315.49</ele>
        <time>2019-01-19T10:55:45Z</time>
      </trkpt>
      <trkpt lat="43.48438" lon="5.81445">
        <ele>312.58</ele>
        <time>2019-01-19T10:55:49Z</time>
      </trkpt>
      <trkpt lat="43.48427" lon="5.81472">
        <ele>309.29</ele>
        <time>2019-01-19T10:55:53Z</time>
      </trkpt>
      <trkpt lat="43.48417" lon="5.81499">
        <ele>306.81</ele>
        <time>2019-01-19T10:55:57Z</time>
      </trkpt>
      <trkpt lat="43.48409" lon="5.81527">
        <ele>305.11</ele>
        <time>2019-01-19T10:56:01Z</time>
      </trkpt>
      <trkpt lat="43.48404" lon="5.81553">
        <ele>303.47</ele>
        <time>2019-01-19T10:56:05Z</time>
      </trkpt>
      <trkpt lat="43.484" lon="5.81579">
        <ele>302.34</ele>
        <time>2019-01-19T10:56:09Z</time>
      </trkpt>
      <trkpt lat="43.48395" lon="5.81605">
        <ele>301.68</ele>
        <time>2019-01-19T10:56:13Z</time>
      </trkpt>
      <trkpt lat="43.48391" lon="5.81632">
        <ele>301.8</ele>
        <time>2019-01-19T10:56:17Z</time>
      </trkpt>
      <trkpt lat="43.48386" lon="5.81657">
        <ele>301.77</ele>
        <time>2019-01-19T10:56:21Z</time>
      </trkpt>
      <trkpt lat="43.48381" lon="5.81681">
        <ele>301.87</ele>
        <time>2019-01-19T10:56:26Z</time>
      </trkpt>
      <trkpt lat="43.48377" lon="5.81707">
        <ele>302.33</ele>
        <time>2019-01-19T10:56:51Z</time>
      </trkpt>
      <trkpt lat="43.48375" lon="5.81732">
        <ele>298.49</ele>
        <time>2019-01-19T10:57:54Z</time>
      </trkpt>
      <trkpt lat="43.48373" lon="5.81757">
        <ele>297.06</ele>
        <time>2019-01-19T10:58:15Z</time>
      </trkpt>
      <trkpt lat="43.48362" lon="5.8178">
        <ele>298.04</ele>
        <time>2019-01-19T10:58:37Z</time>
      </trkpt>
      <trkpt lat="43.48354" lon="5.81804">
        <ele>299.67</ele>
        <time>2019-01-19T10:58:45Z</time>
      </trkpt>
      <trkpt lat="43.4835" lon="5.81831">
        <ele>302.19</ele>
        <time>2019-01-19T10:58:53Z</time>
      </trkpt>
      <trkpt lat="43.48345" lon="5.81856">
        <ele>304.83</ele>
        <time>2019-01-19T10:58:59Z</time>
      </trkpt>
      <trkpt lat="43.48341" lon="5.81881">
        <ele>307.62</ele>
        <time>2019-01-19T10:59:05Z</time>
      </trkpt>
      <trkpt lat="43.48335" lon="5.81907">
        <ele>309.88</ele>
        <time>2019-01-19T10:59:10Z</time>
      </trkpt>
      <trkpt lat="43.4833" lon="5.81938">
        <ele>312.6</ele>
        <time>2019-01-19T10:59:16Z</time>
      </trkpt>
      <trkpt lat="43.48325" lon="5.81966">
        <ele>315.26</ele>
        <time>2019-01-19T10:59:21Z</time>
      </trkpt>
      <trkpt lat="43.48321" lon="5.81995">
        <ele>316.97</ele>
        <time>2019-01-19T10:59:25Z</time>
      </trkpt>
      <trkpt lat="43.48318" lon="5.82025">
        <ele>318.57</ele>
        <time>2019-01-19T10:59:29Z</time>
      </trkpt>
      <trkpt lat="43.48318" lon="5.82056">
        <ele>319.79</ele>
        <time>2019-01-19T10:59:33Z</time>
      </trkpt>
      <trkpt lat="43.48319" lon="5.82086">
        <ele>320.8</ele>
        <time>2019-01-19T10:59:37Z</time>
      </trkpt>
      <trkpt lat="43.48318" lon="5.82116">
        <ele>322.45</ele>
        <time>2019-01-19T10:59:41Z</time>
      </trkpt>
      <trkpt lat="43.48319" lon="5.82144">
        <ele>324.05</ele>
        <time>2019-01-19T10:59:45Z</time>
      </trkpt>
      <trkpt lat="43.48321" lon="5.82175">
        <ele>325.84</ele>
        <time>2019-01-19T10:59:49Z</time>
      </trkpt>
      <trkpt lat="43.48321" lon="5.82203">
        <ele>327.6</ele>
        <time>2019-01-19T10:59:52Z</time>
      </trkpt>
      <trkpt lat="43.4832" lon="5.82236">
        <ele>329.66</ele>
        <time>2019-01-19T10:59:56Z</time>
      </trkpt>
      <trkpt lat="43.48333" lon="5.82256">
        <ele>331.84</ele>
        <time>2019-01-19T11:00:00Z</time>
      </trkpt>
      <trkpt lat="43.48335" lon="5.82282">
        <ele>334.05</ele>
        <time>2019-01-19T11:00:06Z</time>
      </trkpt>
      <trkpt lat="43.48328" lon="5.82305">
        <ele>334.32</ele>
        <time>2019-01-19T11:00:10Z</time>
      </trkpt>
      <trkpt lat="43.48323" lon="5.82332">
        <ele>334.47</ele>
        <time>2019-01-19T11:00:14Z</time>
      </trkpt>
      <trkpt lat="43.48323" lon="5.82358">
        <ele>335.57</ele>
        <time>2019-01-19T11:00:18Z</time>
      </trkpt>
      <trkpt lat="43.48324" lon="5.82388">
        <ele>337.37</ele>
        <time>2019-01-19T11:00:23Z</time>
      </trkpt>
      <trkpt lat="43.48322" lon="5.82417">
        <ele>339.16</ele>
        <time>2019-01-19T11:00:27Z</time>
      </trkpt>
      <trkpt lat="43.48314" lon="5.82445">
        <ele>340.39</ele>
        <time>2019-01-19T11:00:31Z</time>
      </trkpt>
      <trkpt lat="43.48306" lon="5.8247">
        <ele>338.84</ele>
        <time>2019-01-19T11:00:34Z</time>
      </trkpt>
      <trkpt lat="43.48291" lon="5.82494">
        <ele>337.65</ele>
        <time>2019-01-19T11:00:38Z</time>
      </trkpt>
      <trkpt lat="43.48275" lon="5.82515">
        <ele>336.56</ele>
        <time>2019-01-19T11:00:42Z</time>
      </trkpt>
      <trkpt lat="43.48261" lon="5.8254">
        <ele>333.76</ele>
        <time>2019-01-19T11:00:46Z</time>
      </trkpt>
      <trkpt lat="43.48253" lon="5.82568">
        <ele>331.18</ele>
        <time>2019-01-19T11:00:50Z</time>
      </trkpt>
      <trkpt lat="43.48246" lon="5.82593">
        <ele>327.43</ele>
        <time>2019-01-19T11:00:55Z</time>
      </trkpt>
      <trkpt lat="43.48258" lon="5.82614">
        <ele>325.16</ele>
        <time>2019-01-19T11:00:59Z</time>
      </trkpt>
      <trkpt lat="43.48266" lon="5.82636">
        <ele>323.12</ele>
        <time>2019-01-19T11:01:06Z</time>
      </trkpt>
      <trkpt lat="43.48271" lon="5.8266">
        <ele>319.86</ele>
        <time>2019-01-19T11:01:14Z</time>
      </trkpt>
      <trkpt lat="43.48279" lon="5.82682">
        <ele>309.32</ele>
        <time>2019-01-19T11:01:23Z</time>
      </trkpt>
    </trkseg>
  </trk>
</gpx>